Provisional Data: Little Clearfield Creek near Dimeling, PA


Please select a monitoring station.
Please select start date.
Please select start date.

Toggle Unit: C/F Toggle Unit: C/F
Sample Time Temperature (C) Temperature (F) Specific Conductivity (mS/cm) pH   Turbidity (NTU+) DO (mg/L)
8/9/2021 12:00:00 AM 21.9 71.42 0.549 7.88 6.71 7.23
8/9/2021 12:15:00 AM 21.83 71.294 0.549 7.88 6.95 7.3
8/9/2021 12:30:00 AM 21.82 71.276 0.548 7.87 6.86 7.26
8/9/2021 12:45:00 AM 21.79 71.222 0.547 7.87 6.65 7.23
8/9/2021 1:00:00 AM 21.72 71.096 0.548 7.87 6.59 7.21
8/9/2021 1:15:00 AM 21.65 70.97 0.547 7.87 6.91 7.15
8/9/2021 1:30:00 AM 21.59 70.862 0.547 7.86 6.61 7.23
8/9/2021 1:45:00 AM 21.53 70.754 0.547 7.86 6.57 7.21
8/9/2021 2:00:00 AM 21.47 70.646 0.547 7.86 6.5 6.89
8/9/2021 2:15:00 AM 21.45 70.61 0.547 7.86 6.64 7.1
8/9/2021 2:30:00 AM 21.4 70.52 0.547 7.86 6.74 7.35
8/9/2021 2:45:00 AM 21.38 70.484 0.546 7.85 6.61 7.3
8/9/2021 3:00:00 AM 21.34 70.412 0.546 7.85 6.89 7.4
8/9/2021 3:15:00 AM 21.29 70.32201 0.546 7.86 6.82 7.35
8/9/2021 3:30:00 AM 21.24 70.232 0.546 7.85 6.72 6.86
8/9/2021 3:45:00 AM 21.21 70.17799 0.546 7.85 6.81 7.45
8/9/2021 4:00:00 AM 21.16 70.088 0.546 7.84 6.73 7.15
8/9/2021 4:15:00 AM 21.12 70.016 0.546 7.84 6.75 7.22
8/9/2021 4:30:00 AM 21.09 69.962 0.546 7.84 6.79 7.55
8/9/2021 4:45:00 AM 21.05 69.89 0.546 7.84 6.81 7.38
8/9/2021 5:00:00 AM 20.99 69.782 0.546 7.84 6.67 7.3
8/9/2021 5:15:00 AM 20.95 69.71 0.546 7.84 6.89 7.35
8/9/2021 5:30:00 AM 20.92 69.656 0.546 7.83 6.79 7.51
8/9/2021 5:45:00 AM 20.85 69.53 0.546 7.8 10.66 7.42
8/9/2021 6:00:00 AM 20.84 69.512 0.546 7.78 7.82 7.48
8/9/2021 6:15:00 AM 20.8 69.44 0.545 7.78 9.23 7.35
8/9/2021 6:30:00 AM 20.76 69.368 0.546 7.74 10.21 7.38
8/9/2021 6:45:00 AM 20.71 69.278 0.545 7.76 14.96 7.36
8/9/2021 7:00:00 AM 20.66 69.188 0.546 7.76 12.2 7.37
8/9/2021 7:15:00 AM 20.63 69.134 0.546 7.75 10.74 7.43
8/9/2021 7:30:00 AM 20.61 69.098 0.545 7.74 10.14 7.47
8/9/2021 7:45:00 AM 20.6 69.08 0.546 7.77 11.35 7.39
8/9/2021 8:00:00 AM 20.57 69.026 0.545 7.79 21.87 7.61
8/9/2021 8:15:00 AM 20.61 69.098 0.545 7.79 12.62 7.68
8/9/2021 8:30:00 AM 20.63 69.134 0.545 7.72 11.88 7.54
8/9/2021 8:45:00 AM 20.63 69.134 0.544 7.77 34.3 7.57
8/9/2021 9:00:00 AM 20.7 69.26 0.543 7.8 35.56 8.06
8/9/2021 9:15:00 AM 20.8 69.44 0.543 7.83 10.72 7.92
8/9/2021 9:30:00 AM 20.98 69.764 0.544 7.83 11.8 8.23
8/9/2021 9:45:00 AM 21.16 70.088 0.544 7.83 8.9 8.25
8/9/2021 10:00:00 AM 21.24 70.232 0.543 7.85 7.09 8.32
8/9/2021 10:15:00 AM 21.38 70.484 0.544 7.86 7.96 8.61
8/9/2021 10:30:00 AM 21.47 70.646 0.543 7.88 19.02 8.74
8/9/2021 10:45:00 AM 21.6 70.88 0.544 7.9 11.33 8.46
8/9/2021 11:00:00 AM 21.8 71.24 0.544 7.88 7.91 8.67
8/9/2021 11:15:00 AM 22.03 71.654 0.544 7.88 12.77 8.74
8/9/2021 11:30:00 AM 22.32 72.176 0.545 7.92 22.85 8.81
8/9/2021 11:45:00 AM 22.84 73.112 0.544 7.94 8.18 8.94
8/9/2021 12:00:00 PM 23.31 73.958 0.544 7.97 7.88 9.05
8/9/2021 12:15:00 PM 23.69 74.642 0.544 7.98 7.87 8.79
8/9/2021 12:30:00 PM 24.11 75.398 0.544 8.01 9.88 9.25
8/9/2021 12:45:00 PM 24.21 75.578 0.544 8 11.49 8.92
8/9/2021 1:00:00 PM 24.37 75.866 0.545 7.99 7.1 8.9
8/9/2021 1:15:00 PM 24.41 75.938 0.544 8.05 6.45 9
8/9/2021 1:30:00 PM 24.05 75.29 0.544 8.09 9.95 8.85
8/9/2021 1:45:00 PM 24.22 75.596 0.544 8.05 7.24 8.75
8/9/2021 2:00:00 PM 24.1 75.38 0.545 8.06 9.47 8.63
8/9/2021 2:15:00 PM 24.01 75.218 0.544 8.05 7.62 8.51
8/9/2021 2:30:00 PM 23.88 74.984 0.544 8.05 14.35 8.52
8/9/2021 2:45:00 PM 23.62 74.516 0.543 8.06 48.48 8.43
8/9/2021 3:00:00 PM 23.65 74.57 0.541 8.04 8.63 8.04
8/9/2021 3:15:00 PM 23.65 74.57 0.541 8.03 9.66 8.17
8/9/2021 3:30:00 PM 23.72 74.696 0.541 7.97 11.01 7.81
8/9/2021 3:45:00 PM 23.83 74.894 0.541 7.94 440.01 8.29
8/9/2021 4:00:00 PM 23.92 75.056 0.541 8 7.15 7.87
8/9/2021 4:15:00 PM 24.09 75.362 0.54 8.02 7.4 8.49
8/9/2021 4:30:00 PM 24.29 75.722 0.54 8.04 7.47 8.69
8/9/2021 4:45:00 PM 24.37 75.866 0.538 8.07 7.2 8.67
8/9/2021 5:00:00 PM 24.23 75.614 0.538 8.09 7.44 8.53
8/9/2021 5:15:00 PM 24.1 75.38 0.537 8.1 6.97 8.73
8/9/2021 5:30:00 PM 23.96 75.128 0.537 8.11 7.38 8.83
8/9/2021 5:45:00 PM 23.94 75.092 0.536 8.11 7.51 8.71
8/9/2021 6:00:00 PM 23.79 74.82201 0.537 8.11 7.17 8.57
8/9/2021 6:15:00 PM 23.71 74.67799 0.538 8.07 7.04 8.25
8/9/2021 6:30:00 PM 23.7 74.66 0.538 8.09 7.51 8.31
8/9/2021 6:45:00 PM 23.62 74.516 0.537 8.09 7.23 8.38
8/9/2021 7:00:00 PM 23.51 74.318 0.536 8.08 7.22 8.2
8/9/2021 7:15:00 PM 23.43 74.174 0.533 8.06 7.7 8.2
8/9/2021 7:30:00 PM 23.32 73.976 0.529 8.06 7.89 8.1
8/9/2021 7:45:00 PM 23.19 73.742 0.527 8.04 8.67 8.08
8/9/2021 8:00:00 PM 23.07 73.526 0.523 8.02 9.47 7.94
8/9/2021 8:15:00 PM 22.94 73.292 0.52 8 9.58 7.87
8/9/2021 8:30:00 PM 22.82 73.076 0.519 7.98 9.41 7.75
8/9/2021 8:45:00 PM 22.7 72.86 0.518 7.97 9.33 7.72
8/9/2021 9:00:00 PM 22.61 72.698 0.517 7.94 9.86 7.54
8/9/2021 9:15:00 PM 22.51 72.518 0.517 7.93 9.53 7.52
8/9/2021 9:30:00 PM 22.42 72.356 0.518 7.91 9.65 7.46
8/9/2021 9:45:00 PM 22.33 72.194 0.519 7.89 9.35 7.38
8/9/2021 10:00:00 PM 22.24 72.032 0.52 7.88 9.25 7.39
8/9/2021 10:15:00 PM 22.16 71.888 0.522 7.87 8.32 7.29
8/9/2021 10:30:00 PM 22.09 71.762 0.523 7.86 8.11 7.36
8/9/2021 10:45:00 PM 21.98 71.564 0.526 7.86 7.99 7.4
8/9/2021 11:00:00 PM 21.93 71.474 0.527 7.86 7.99 7.34
8/9/2021 11:15:00 PM 21.88 71.384 0.529 7.85 7.83 7.4
8/9/2021 11:30:00 PM 21.82 71.276 0.531 7.85 8.19 7.42
8/9/2021 11:45:00 PM 21.77 71.186 0.531 7.85 7.7 7.44
8/10/2021 12:00:00 AM 21.72 71.096 0.533 7.85 7.63 7.45
8/10/2021 12:15:00 AM 21.65 70.97 0.533 7.85 7.66 7.4
8/10/2021 12:30:00 AM 21.62 70.916 0.535 7.85 7.38 7.44
8/10/2021 12:45:00 AM 21.56 70.808 0.536 7.85 7.64 7.35
8/10/2021 1:00:00 AM 21.53 70.754 0.536 7.84 7.45 7.52
8/10/2021 1:15:00 AM 21.51 70.718 0.539 7.84 7.29 7.52
8/10/2021 1:30:00 AM 21.46 70.628 0.542 7.84 8.02 7.56
8/10/2021 1:45:00 AM 21.43 70.574 0.544 7.84 7.73 7.51
8/10/2021 2:00:00 AM 21.42 70.556 0.548 7.84 7.42 7.55
8/10/2021 2:15:00 AM 21.41 70.538 0.55 7.84 7.52 7.58
8/10/2021 2:30:00 AM 21.38 70.484 0.551 7.84 7.53 7.59
8/10/2021 2:45:00 AM 21.36 70.448 0.555 7.83 7.34 7.64
8/10/2021 3:00:00 AM 21.33 70.394 0.556 7.83 13.81 7.63
8/10/2021 3:15:00 AM 21.33 70.394 0.561 7.83 7.63 7.68
8/10/2021 3:30:00 AM 21.33 70.394 0.563 7.82 7.59 7.72
8/10/2021 3:45:00 AM 21.3 70.34 0.559 7.82 8.44 7.73
8/10/2021 4:00:00 AM 21.32 70.376 0.56 7.81 7.75 7.7
8/10/2021 4:15:00 AM 21.3 70.34 0.557 7.8 7.66 7.67
8/10/2021 4:30:00 AM 21.31 70.358 0.56 7.79 7.68 7.67
8/10/2021 4:45:00 AM 21.28 70.304 0.561 7.79 9.55 7.61
8/10/2021 5:00:00 AM 21.28 70.304 0.561 7.77 8.38 7.53
8/10/2021 5:15:00 AM 21.26 70.268 0.562 7.77 7.57 7.6
8/10/2021 5:30:00 AM 21.24 70.232 0.563 7.76 7.95 7.42
8/10/2021 5:45:00 AM 21.15 70.07 0.564 7.75 10.12 7.52
8/10/2021 6:00:00 AM 21.22 70.196 0.564 7.76 7.24 7.48
8/10/2021 6:15:00 AM 21.19 70.142 0.564 7.76 15.98 7.48
8/10/2021 6:30:00 AM 21.14 70.052 0.565 7.77 7.53 7.61
8/10/2021 6:45:00 AM 21.14 70.052 0.565 7.77 10.1 7.53
8/10/2021 7:00:00 AM 21.13 70.034 0.564 7.77 10.81 7.63
8/10/2021 7:15:00 AM 21.02 69.836 0.564 7.77 8 7.58
8/10/2021 7:30:00 AM 21.07 69.926 0.564 7.78 10.85 7.76
8/10/2021 7:45:00 AM 21.09 69.962 0.563 7.78 9.8 7.82
8/10/2021 8:00:00 AM 21.14 70.052 0.562 7.78 12.49 7.73
8/10/2021 8:15:00 AM 21.16 70.088 0.561 7.79 12.36 7.79
8/10/2021 8:30:00 AM 21.18 70.124 0.559 7.79 10.09 8
8/10/2021 8:45:00 AM 21.15 70.07 0.557 7.8 12.38 8.01
8/10/2021 9:00:00 AM 21.21 70.17799 0.556 7.75 10.83 7.76
8/10/2021 9:15:00 AM 21.25 70.25 0.554 7.75 11.51 7.77
8/10/2021 9:30:00 AM 21.23 70.214 0.554 7.75 9.93 7.73
8/10/2021 9:45:00 AM 21.31 70.358 0.552 7.8 9.7 7.94
8/10/2021 10:00:00 AM 21.41 70.538 0.55 7.78 14.76 7.66
8/10/2021 10:15:00 AM 21.47 70.646 0.55 7.76 16.98 7.84
8/10/2021 10:30:00 AM 21.6 70.88 0.55 7.77 17.86 8.03
8/10/2021 10:45:00 AM 21.7 71.06 0.55 7.8 9.29 8.05
8/10/2021 11:00:00 AM 21.73 71.114 0.546 7.88 20.09 8.46
8/10/2021 11:15:00 AM 21.77 71.186 0.548 7.88 8.4 8.23
8/10/2021 11:30:00 AM 22 71.6 0.549 7.9 7.57 8.26
8/10/2021 11:45:00 AM 22.12 71.816 0.549 7.91 9.69 8.58
8/10/2021 12:00:00 PM 22.09 71.762 0.549 7.92 6.97 8.59
8/10/2021 12:15:00 PM 22.14 71.852 0.55 7.91 8.14 8.43
8/10/2021 12:30:00 PM 22.61 72.698 0.55 7.94 6.64 8.57
8/10/2021 12:45:00 PM 22.84 73.112 0.55 7.97 6.61 8.7
8/10/2021 1:00:00 PM 22.85 73.13 0.551 7.98 6.76 8.91
8/10/2021 1:15:00 PM 22.79 73.022 0.551 7.98 6.93 8.85
8/10/2021 1:30:00 PM 23.09 73.562 0.552 7.98 7 8.96
8/10/2021 1:45:00 PM 23.35 74.03 0.552 7.98 6.75 8.88
8/10/2021 2:00:00 PM 23.92 75.056 0.554 7.98 6.87 8.54
8/10/2021 2:15:00 PM 24.44 75.992 0.554 8.02 6.97 9.17
8/10/2021 2:30:00 PM 24.38 75.884 0.555 8.01 9.53 9.04
8/10/2021 2:45:00 PM 24.52 76.136 0.561 8.03 9.16 9.19
8/10/2021 3:00:00 PM 24.39 75.902 0.554 8.04 9.08 8.87
8/10/2021 3:15:00 PM 24.37 75.866 0.555 7.98 9.92 8.4
8/10/2021 3:30:00 PM 24.39 75.902 0.556 8.01 7.73 8.87
8/10/2021 3:45:00 PM 24.69 76.442 0.556 8.05 8.21 9.02
8/10/2021 4:00:00 PM 24.84 76.712 0.556 8.07 9.31 8.94
8/10/2021 4:15:00 PM 24.73 76.514 0.557 8.09 8.7 9.01
8/10/2021 4:30:00 PM 24.58 76.244 0.557 8.09 7.42 8.67
8/10/2021 4:45:00 PM 24.39 75.902 0.558 8.06 7.43 8.33
8/10/2021 5:00:00 PM 24.3 75.74 0.557 8.08 6.95 8.52
8/10/2021 5:15:00 PM 24.13 75.434 0.557 8.07 6.89 8.26
8/10/2021 5:30:00 PM 24.09 75.362 0.557 8.07 6.58 8.26
8/10/2021 5:45:00 PM 24.06 75.308 0.557 8.06 6.63 8.24
8/10/2021 6:00:00 PM 24.06 75.308 0.557 8.06 6.76 8.31
8/10/2021 6:15:00 PM 24.02 75.236 0.557 8.06 9.84 8.27
8/10/2021 6:30:00 PM 23.99 75.182 0.557 8.05 9.76 8.22
8/10/2021 6:45:00 PM 23.97 75.146 0.556 8.04 10.48 8.12
8/10/2021 7:00:00 PM 23.88 74.984 0.557 8.04 9.75 8.09
8/10/2021 7:15:00 PM 23.76 74.768 0.557 8.03 9.84 8.03
8/10/2021 7:30:00 PM 23.69 74.642 0.557 8.02 8.72 7.78
8/10/2021 7:45:00 PM 23.55 74.39 0.557 8 8 7.65
8/10/2021 8:00:00 PM 23.42 74.156 0.558 8 7.16 7.79
8/10/2021 8:15:00 PM 23.34 74.012 0.557 7.99 7.01 7.71
8/10/2021 8:30:00 PM 23.28 73.904 0.558 7.96 8.04 7.53
8/10/2021 8:45:00 PM 23.15 73.67 0.558 7.95 7.25 7.57
8/10/2021 9:00:00 PM 23.02 73.436 0.558 7.94 7.12 7.56
8/10/2021 9:15:00 PM 22.93 73.274 0.559 7.92 7.24 7.44
8/10/2021 9:30:00 PM 22.84 73.112 0.559 7.92 7.24 7.52
8/10/2021 9:45:00 PM 22.74 72.932 0.559 7.9 7.3 7.43
8/10/2021 10:00:00 PM 22.66 72.788 0.559 7.9 7.39 7.49
8/10/2021 10:15:00 PM 22.54 72.57201 0.559 7.88 23.1 7.32
8/10/2021 10:30:00 PM 22.48 72.464 0.551 7.85 10.62 7.33
8/10/2021 10:45:00 PM 22.43 72.374 0.56 7.85 8.44 7.29
8/10/2021 11:00:00 PM 22.42 72.356 0.56 7.85 9.27 7.41
8/10/2021 11:15:00 PM 22.38 72.284 0.56 7.84 7.51 7.33
8/10/2021 11:30:00 PM 22.35 72.23 0.56 7.84 7.97 7.34
8/10/2021 11:45:00 PM 22.34 72.212 0.559 7.85 7.4 7.45
8/11/2021 12:00:00 AM 22.32 72.176 0.559 7.83 7.06 7.25
8/11/2021 12:15:00 AM 22.26 72.068 0.559 7.85 6.95 7.45
8/11/2021 12:30:00 AM 22.22 71.996 0.559 7.84 8.18 7.32
8/11/2021 12:45:00 AM 22.21 71.978 0.559 7.83 6.96 7.35
8/11/2021 1:00:00 AM 22.16 71.888 0.559 7.84 6.98 7.34
8/11/2021 1:15:00 AM 22.13 71.834 0.558 7.84 7.21 7.43
8/11/2021 1:30:00 AM 22.11 71.798 0.558 7.84 6.69 7.41
8/11/2021 1:45:00 AM 22.08 71.744 0.558 7.84 7.97 7.35
8/11/2021 2:00:00 AM 22.06 71.708 0.558 7.83 7.15 7.3
8/11/2021 2:15:00 AM 22.05 71.69 0.557 7.83 6.68 7.39
8/11/2021 2:30:00 AM 22.02 71.636 0.557 7.84 7.24 7.47
8/11/2021 2:45:00 AM 22.01 71.618 0.557 7.83 6.83 7.52
8/11/2021 3:00:00 AM 21.92 71.456 0.557 7.83 7.17 7.4
8/11/2021 3:15:00 AM 21.82 71.276 0.557 7.82 13.7 7.34
8/11/2021 3:30:00 AM 21.81 71.258 0.558 7.8 21.3 7.43
8/11/2021 3:45:00 AM 21.8 71.24 0.557 7.8 11.38 7.39
8/11/2021 4:00:00 AM 21.75 71.15 0.557 7.8 8.97 7.52
8/11/2021 4:15:00 AM 21.69 71.042 0.557 7.8 8.01 7.54
8/11/2021 4:30:00 AM 21.66 70.988 0.557 7.8 7.44 7.59
8/11/2021 4:45:00 AM 21.58 70.844 0.555 7.81 9.99 7.54
8/11/2021 5:00:00 AM 21.56 70.808 0.556 7.79 11.63 7.6
8/11/2021 5:15:00 AM 21.57 70.826 0.556 7.79 9.15 7.44
8/11/2021 5:30:00 AM 21.61 70.898 0.556 7.79 10.57 7.41
8/11/2021 5:45:00 AM 21.57 70.826 0.556 7.79 7.05 7.5
8/11/2021 6:00:00 AM 21.56 70.808 0.555 7.8 7.36 7.59
8/11/2021 6:15:00 AM 21.55 70.79 0.555 7.8 7.56 7.58
8/11/2021 6:30:00 AM 21.54 70.772 0.555 7.8 7.52 7.65
8/11/2021 6:45:00 AM 21.51 70.718 0.555 7.8 7.73 7.59
8/11/2021 7:00:00 AM 21.5 70.7 0.555 7.8 7.58 7.68
8/11/2021 7:15:00 AM 21.46 70.628 0.555 7.8 12.95 7.64
8/11/2021 7:30:00 AM 21.5 70.7 0.553 7.78 8.8 7.57
8/11/2021 7:45:00 AM 21.42 70.556 0.549 7.79 9.35 7.56
8/11/2021 8:00:00 AM 21.43 70.574 0.546 7.79 8.2 7.63
8/11/2021 8:15:00 AM 21.46 70.628 0.547 7.79 8.84 7.75
8/11/2021 8:30:00 AM 21.46 70.628 0.548 7.78 9.96 7.73
8/11/2021 8:45:00 AM 21.45 70.61 0.547 7.79 9.65 7.73
8/11/2021 9:00:00 AM 21.47 70.646 0.547 7.76 13.57 7.43
8/11/2021 9:15:00 AM 21.52 70.736 0.547 7.78 7.51 7.54
8/11/2021 9:30:00 AM 21.55 70.79 0.547 7.81 8.77 7.87
8/11/2021 9:45:00 AM 21.7 71.06 0.547 7.79 8.91 7.46
8/11/2021 10:00:00 AM 21.91 71.438 0.547 7.82 9.37 8.1
8/11/2021 10:15:00 AM 21.97 71.546 0.548 7.78 10.27 8.19
8/11/2021 10:30:00 AM 22.08 71.744 0.547 7.86 6.72 8.46
8/11/2021 10:45:00 AM 22.22 71.996 0.548 7.88 6.77 8.39
8/11/2021 11:00:00 AM 22.34 72.212 0.549 7.89 8.2 8.47
8/11/2021 11:15:00 AM 22.53 72.554 0.549 7.92 7.07 8.57
8/11/2021 11:30:00 AM 22.81 73.058 0.55 7.95 6.76 8.67
8/11/2021 11:45:00 AM 23.14 73.652 0.55 7.95 6.82 8.64
8/11/2021 12:00:00 PM 23.57 74.426 0.55 7.97 6.31 8.59
8/11/2021 12:15:00 PM 23.97 75.146 0.55 8 6.44 8.38
8/11/2021 12:30:00 PM 24.13 75.434 0.55 8.04 6.47 8.21
8/11/2021 12:45:00 PM 24.17 75.506 0.55 8.05 6.65 8.58
8/11/2021 1:00:00 PM 24.61 76.298 0.55 8.05 6.19 8.7
8/11/2021 1:15:00 PM 24.71 76.478 0.549 8.08 6.47 8.64
8/11/2021 1:30:00 PM 25.06 77.108 0.549 8.08 6.45 8.85
8/11/2021 1:45:00 PM 25.43 77.774 0.549 8.1 6.45 9.01
8/11/2021 2:00:00 PM 25.54 77.972 0.55 8.08 11.67 8.83
8/11/2021 2:15:00 PM 25.98 78.764 0.548 8.07 11.91 8.81
8/11/2021 2:30:00 PM 26.05 78.89 0.548 8.11 12.74 8.86
8/11/2021 2:45:00 PM 25.98 78.764 0.548 8.12 7.81 8.81
8/11/2021 3:00:00 PM 25.66 78.188 0.547 8.12 6.52 8.78
8/11/2021 3:15:00 PM 25.3 77.54 0.547 8.11 7.07 8.38
8/11/2021 3:30:00 PM 25.08 77.144 0.548 8.12 7.52 8.45
8/11/2021 3:45:00 PM 24.94 76.892 0.547 8.12 7.01 8.25
8/11/2021 4:00:00 PM 24.75 76.55 0.547 8.11 6.79 8.16
8/11/2021 4:15:00 PM 24.64 76.352 0.547 8.1 6.67 8.05
8/11/2021 4:30:00 PM 24.53 76.154 0.546 8.09 6.82 8.04
8/11/2021 4:45:00 PM 24.45 76.01 0.547 8.08 6.85 7.96
8/11/2021 5:00:00 PM 24.34 75.812 0.545 8.09 6.79 8
8/11/2021 5:15:00 PM 24.25 75.65 0.546 8.08 6.59 7.97
8/11/2021 5:30:00 PM 24.18 75.524 0.546 8.07 6.74 7.89
8/11/2021 5:45:00 PM 24.1 75.38 0.546 8.06 6.72 7.82
8/11/2021 6:00:00 PM 24.02 75.236 0.546 8.06 6.6 7.85
8/11/2021 6:15:00 PM 23.95 75.11 0.546 8.05 6.58 7.88
8/11/2021 6:30:00 PM 23.91 75.038 0.546 8.05 6.92 7.77
8/11/2021 6:45:00 PM 23.87 74.966 0.546 8.04 6.75 7.84
8/11/2021 7:00:00 PM 23.82 74.876 0.546 8.03 7 7.76
8/11/2021 7:15:00 PM 23.79 74.82201 0.546 8.02 7.11 7.82
8/11/2021 7:30:00 PM 23.7 74.66 0.546 8.03 6.85 7.81
8/11/2021 7:45:00 PM 23.66 74.588 0.546 8.02 7.09 7.71
8/11/2021 8:00:00 PM 23.59 74.462 0.546 8 7.11 7.62
8/11/2021 8:15:00 PM 23.53 74.354 0.546 7.99 6.81 7.6
8/11/2021 8:30:00 PM 23.43 74.174 0.547 7.97 8.69 7.41
8/11/2021 8:45:00 PM 23.45 74.21 0.546 7.95 7.03 7.27
8/11/2021 9:00:00 PM 23.38 74.084 0.546 7.95 8.24 7.42
8/11/2021 9:15:00 PM 23.36 74.048 0.546 7.94 8.49 7.33
8/11/2021 9:30:00 PM 23.37 74.066 0.544 7.94 7.17 7.48
8/11/2021 9:45:00 PM 23.34 74.012 0.543 7.94 7.3 7.46
8/11/2021 10:00:00 PM 23.32 73.976 0.542 7.93 6.83 7.42
8/11/2021 10:15:00 PM 23.26 73.868 0.542 7.93 6.95 7.38
8/11/2021 10:30:00 PM 23.27 73.886 0.542 7.92 7.35 7.26
8/11/2021 10:45:00 PM 23.21 73.778 0.542 7.91 6.58 7.28
8/11/2021 11:00:00 PM 23.18 73.724 0.542 7.91 6.71 7.33
8/11/2021 11:15:00 PM 23.15 73.67 0.542 7.9 6.35 7.39
8/11/2021 11:30:00 PM 23.08 73.544 0.542 7.9 11.64 7.34
8/11/2021 11:45:00 PM 23.01 73.418 0.542 7.9 6.24 7.41
8/12/2021 12:00:00 AM 22.95 73.31 0.542 7.89 6.27 7.37
8/12/2021 12:15:00 AM 22.87 73.166 0.542 7.89 6.5 7.32
8/12/2021 12:30:00 AM 22.78 73.004 0.542 7.89 6.95 7.44
8/12/2021 12:45:00 AM 22.66 72.788 0.543 7.88 9.81 7.38
8/12/2021 1:00:00 AM 22.67 72.806 0.543 7.85 12.4 7.14
8/12/2021 1:15:00 AM 22.57 72.626 0.542 7.85 7.06 7.31
8/12/2021 1:30:00 AM 22.57 72.626 0.542 7.85 6.63 7.4
8/12/2021 1:45:00 AM 22.52 72.536 0.541 7.86 6.62 7.49
8/12/2021 2:00:00 AM 22.46 72.42799 0.541 7.86 6.99 7.37
8/12/2021 2:15:00 AM 22.42 72.356 0.542 7.86 6.37 7.38
8/12/2021 2:30:00 AM 22.38 72.284 0.541 7.86 6.87 7.4
8/12/2021 2:45:00 AM 22.32 72.176 0.541 7.86 6.67 7.52
8/12/2021 3:00:00 AM 22.3 72.14 0.541 7.87 6.18 7.57
8/12/2021 3:15:00 AM 22.24 72.032 0.541 7.86 6.72 7.45
8/12/2021 3:30:00 AM 22.17 71.906 0.541 7.86 7.11 7.47
8/12/2021 3:45:00 AM 22.11 71.798 0.541 7.85 7 7.4
8/12/2021 4:00:00 AM 22.08 71.744 0.541 7.85 6.45 7.47
8/12/2021 4:15:00 AM 22.04 71.672 0.541 7.84 6.66 7.47
8/12/2021 4:30:00 AM 21.98 71.564 0.541 7.84 6.83 7.45
8/12/2021 4:45:00 AM 21.91 71.438 0.541 7.84 6.62 7.52
8/12/2021 5:00:00 AM 21.84 71.312 0.541 7.85 6.67 7.56
8/12/2021 5:15:00 AM 21.74 71.132 0.541 7.85 6.68 7.58
8/12/2021 5:30:00 AM 21.58 70.844 0.542 7.82 11.25 7.42
8/12/2021 5:45:00 AM 21.54 70.772 0.541 7.81 13.61 7.45
8/12/2021 6:00:00 AM 21.53 70.754 0.541 7.81 7.3 7.27
8/12/2021 6:15:00 AM 21.51 70.718 0.539 7.82 7.18 7.44
8/12/2021 6:30:00 AM 21.43 70.574 0.542 7.78 8.84 7.39
8/12/2021 6:45:00 AM 21.41 70.538 0.541 7.8 8.84 7.47
8/12/2021 7:00:00 AM 21.4 70.52 0.541 7.81 7.24 7.62
8/12/2021 7:15:00 AM 21.35 70.43 0.542 7.81 7.49 7.62
8/12/2021 7:30:00 AM 21.36 70.448 0.542 7.82 6.9 7.75
8/12/2021 7:45:00 AM 21.33 70.394 0.542 7.83 6.94 7.62
8/12/2021 8:00:00 AM 21.22 70.196 0.543 7.84 6.63 7.88
8/12/2021 8:15:00 AM 21.34 70.412 0.542 7.81 7.03 7.83
8/12/2021 8:30:00 AM 21.37 70.466 0.543 7.83 10.67 7.8
8/12/2021 8:45:00 AM 21.42 70.556 0.542 7.83 9.38 7.8
8/12/2021 9:00:00 AM 21.52 70.736 0.543 7.81 9.45 7.65
8/12/2021 9:15:00 AM 21.62 70.916 0.542 7.83 7.13 8.07
8/12/2021 9:30:00 AM 21.65 70.97 0.543 7.86 8.12 8.15
8/12/2021 9:45:00 AM 21.71 71.078 0.543 7.87 7.77 8.32
8/12/2021 10:00:00 AM 21.84 71.312 0.543 7.86 6.7 8.18
8/12/2021 10:15:00 AM 21.94 71.492 0.544 7.89 9.78 8.42
8/12/2021 10:30:00 AM 22.14 71.852 0.544 7.91 6.75 8.47
8/12/2021 10:45:00 AM 22.3 72.14 0.543 7.93 6.39 8.67
8/12/2021 11:00:00 AM 22.47 72.446 0.544 7.95 6.46 8.56
8/12/2021 11:15:00 AM 22.7 72.86 0.544 7.97 6.3 8.75
8/12/2021 11:30:00 AM 22.93 73.274 0.544 7.99 6.22 8.76
8/12/2021 11:45:00 AM 23.15 73.67 0.544 7.99 6.42 8.87
8/12/2021 12:00:00 PM 23.33 73.994 0.544 8 9.64 8.92
8/12/2021 12:15:00 PM 23.5 74.3 0.544 8.03 6.53 8.89
8/12/2021 12:30:00 PM 23.83 74.894 0.543 8.03 8.76 8.94
8/12/2021 12:45:00 PM 23.98 75.164 0.544 8.03 11.27 9.06
8/12/2021 1:00:00 PM 23.98 75.164 0.545 8.01 8.2 8.81
8/12/2021 1:15:00 PM 24.28 75.704 0.545 8.02 7.15 8.54
8/12/2021 1:30:00 PM 24.82 76.676 0.545 8.08 6.77 9.14
8/12/2021 1:45:00 PM 24.61 76.298 0.545 8.12 6.5 9.17
8/12/2021 2:00:00 PM 24.43 75.974 0.545 8.13 6.84 9.16
8/12/2021 2:15:00 PM 24.6 76.28 0.546 8.11 7.15 8.78
8/12/2021 2:30:00 PM 24.65 76.37 0.546 8.1 9.22 8.93
8/12/2021 2:45:00 PM 24.52 76.136 0.546 8.11 8.19 8.92
8/12/2021 3:00:00 PM 24.25 75.65 0.547 8.12 9.88 8.74
8/12/2021 3:15:00 PM 24.29 75.722 0.547 8.1 9.65 8.55
8/12/2021 3:30:00 PM 24.51 76.118 0.547 8.08 12.73 8.55
8/12/2021 3:45:00 PM 24.63 76.334 0.547 8.11 9.59 8.55
8/12/2021 4:00:00 PM 24.75 76.55 0.547 8.09 13.01 8.56
8/12/2021 4:15:00 PM 24.97 76.946 0.548 8.09 16.17 8.71
8/12/2021 4:30:00 PM 25.37 77.666 0.548 8.12 11.29 8.97
8/12/2021 4:45:00 PM 25.48 77.864 0.548 8.14 11.17 9.06
8/12/2021 5:00:00 PM 25.53 77.954 0.548 8.15 7.12 8.91
8/12/2021 5:15:00 PM 25.62 78.116 0.548 8.16 8.13 8.98
8/12/2021 5:30:00 PM 25.76 78.368 0.546 8.14 7.79 8.97
8/12/2021 5:45:00 PM 25.48 77.864 0.547 8.16 7.59 8.41
8/12/2021 6:00:00 PM 25.23 77.414 0.547 8.16 6.87 8.35
8/12/2021 6:15:00 PM 25.08 77.144 0.547 8.14 7.06 8.28
8/12/2021 6:30:00 PM 24.88 76.784 0.548 8.12 8.11 7.82
8/12/2021 6:45:00 PM 24.68 76.424 0.548 8.09 6.96 7.88
8/12/2021 7:00:00 PM 24.58 76.244 0.549 8.06 6.62 7.81
8/12/2021 7:15:00 PM 24.42 75.956 0.549 8.06 7.23 7.66
8/12/2021 7:30:00 PM 24.26 75.668 0.542 8.04 8.23 7.52
8/12/2021 7:45:00 PM 24.05 75.29 0.534 8.02 10.3 7.57
8/12/2021 8:00:00 PM 23.79 74.82201 0.53 7.99 9.47 7.44
8/12/2021 8:15:00 PM 23.75 74.75 0.533 7.97 8.39 7.44
8/12/2021 8:30:00 PM 23.7 74.66 0.532 7.97 7.93 7.47
8/12/2021 8:45:00 PM 23.59 74.462 0.533 7.95 8.99 7.26
8/12/2021 9:00:00 PM 23.49 74.282 0.534 7.92 7.62 7.17
8/12/2021 9:15:00 PM 23.3 73.94 0.536 7.9 7.69 7.18
8/12/2021 9:30:00 PM 23.22 73.796 0.538 7.89 6.97 7.31
8/12/2021 9:45:00 PM 23.11 73.598 0.536 7.9 7.39 7.25
8/12/2021 10:00:00 PM 22.98 73.364 0.534 7.89 7.73 7.21
8/12/2021 10:15:00 PM 22.87 73.166 0.538 7.88 7.83 7.24
8/12/2021 10:30:00 PM 22.87 73.166 0.541 7.87 8.26 7.35
8/12/2021 10:45:00 PM 22.72 72.896 0.546 7.87 7.34 7.28
8/12/2021 11:00:00 PM 22.66 72.788 0.549 7.85 7.87 7.34
8/12/2021 11:15:00 PM 22.61 72.698 0.553 7.85 14.01 7.35
8/12/2021 11:30:00 PM 22.57 72.626 0.556 7.84 8.05 7.19
8/12/2021 11:45:00 PM 22.52 72.536 0.56 7.85 8.18 7.27
8/13/2021 12:00:00 AM 22.48 72.464 0.564 7.85 7.37 7.37
8/13/2021 12:15:00 AM 22.46 72.42799 0.566 7.84 8.17 7.32
8/13/2021 12:30:00 AM 22.43 72.374 0.569 7.84 8.51 7.35
8/13/2021 12:45:00 AM 22.43 72.374 0.572 7.84 9.52 7.5
8/13/2021 1:00:00 AM 22.38 72.284 0.572 7.84 7.79 7.44
8/13/2021 1:15:00 AM 22.29 72.122 0.574 7.84 7.85 7.41
8/13/2021 1:30:00 AM 22.39 72.302 0.573 7.85 7.52 7.38
8/13/2021 1:45:00 AM 22.23 72.014 0.573 7.85 7.1 7.44
8/13/2021 2:00:00 AM 22.22 71.996 0.573 7.86 7.85 7.57
8/13/2021 2:15:00 AM 22.26 72.068 0.573 7.86 7.73 7.5
8/13/2021 2:30:00 AM 22.18 71.924 0.573 7.85 7.13 7.48
8/13/2021 2:45:00 AM 22.12 71.816 0.574 7.85 7.89 7.24
8/13/2021 3:00:00 AM 22.18 71.924 0.574 7.85 6.99 7.48
8/13/2021 3:15:00 AM 22.06 71.708 0.573 7.85 7.89 7.63
8/13/2021 3:30:00 AM 21.99 71.582 0.573 7.83 8.51 7.49
8/13/2021 3:45:00 AM 21.95 71.51 0.573 7.83 8.84 7.58
8/13/2021 4:00:00 AM 21.9 71.42 0.572 7.83 7.75 7.62
8/13/2021 4:15:00 AM 21.89 71.402 0.571 7.84 7.08 7.55
8/13/2021 4:30:00 AM 21.87 71.366 0.569 7.83 7.61 7.46
8/13/2021 4:45:00 AM 21.81 71.258 0.569 7.83 6.95 7.55
8/13/2021 5:00:00 AM 21.71 71.078 0.568 7.82 11.6 7.64
8/13/2021 5:15:00 AM 21.69 71.042 0.567 7.83 7.42 7.65
8/13/2021 5:30:00 AM 21.6 70.88 0.565 7.83 7.64 7.65
8/13/2021 5:45:00 AM 21.51 70.718 0.564 7.83 7.22 7.51
8/13/2021 6:00:00 AM 21.43 70.574 0.562 7.83 7.67 7.75
8/13/2021 6:15:00 AM 21.37 70.466 0.56 7.84 7.95 7.8
8/13/2021 6:30:00 AM 21.48 70.664 0.558 7.83 7.92 7.79
8/13/2021 6:45:00 AM 21.5 70.7 0.556 7.83 7.77 7.62
8/13/2021 7:00:00 AM 21.43 70.574 0.555 7.83 8.14 7.77
8/13/2021 7:15:00 AM 21.43 70.574 0.553 7.8 10.44 7.7
8/13/2021 7:30:00 AM 21.34 70.412 0.551 7.82 8.33 7.63
8/13/2021 7:45:00 AM 21.43 70.574 0.549 7.84 8.93 7.8
8/13/2021 8:00:00 AM 21.33 70.394 0.548 7.85 15.48 7.64
8/13/2021 8:15:00 AM 21.34 70.412 0.548 7.85 7.62 7.94
8/13/2021 8:30:00 AM 21.42 70.556 0.546 7.86 7.07 8.07
8/13/2021 8:45:00 AM 21.39 70.502 0.546 7.86 7.17 7.79
8/13/2021 9:00:00 AM 21.33 70.394 0.545 7.87 6.92 8.19
8/13/2021 9:15:00 AM 21.4 70.52 0.545 7.84 20.64 8.05
8/13/2021 9:30:00 AM 21.53 70.754 0.545 7.88 10.01 8.19
8/13/2021 9:45:00 AM 21.58 70.844 0.545 7.87 7.33 8.13
8/13/2021 10:00:00 AM 21.66 70.988 0.544 7.9 6.81 8.25
8/13/2021 10:15:00 AM 21.74 71.132 0.545 7.92 7.59 8.36
8/13/2021 10:30:00 AM 21.87 71.366 0.545 7.93 7.25 8.44
8/13/2021 10:45:00 AM 22.03 71.654 0.545 7.94 6.73 8.35
8/13/2021 11:00:00 AM 22.19 71.942 0.545 7.95 6.97 8.22
8/13/2021 11:15:00 AM 22.33 72.194 0.545 7.97 7.01 8.51
8/13/2021 11:30:00 AM 22.62 72.716 0.544 7.98 6.93 8.26
8/13/2021 11:45:00 AM 22.69 72.842 0.544 8 8.45 8.57
8/13/2021 12:00:00 PM 23.05 73.49 0.541 7.99 6.98 8.54
8/13/2021 12:15:00 PM 23.12 73.616 0.542 8.04 6.73 8.66
8/13/2021 12:30:00 PM 23.19 73.742 0.542 8.05 6.95 8.59
8/13/2021 12:45:00 PM 23.58 74.444 0.541 8.06 7.14 8.66
8/13/2021 1:00:00 PM 23.69 74.642 0.541 8.03 8.57 8.4
8/13/2021 1:15:00 PM 23.99 75.182 0.54 8.06 6.54 8.19
8/13/2021 1:30:00 PM 24.25 75.65 0.538 8.08 6.7 8.67
8/13/2021 1:45:00 PM 24.42 75.956 0.537 8.09 6.53 8.47
8/13/2021 2:00:00 PM 24.69 76.442 0.536 8.09 18.26 8.75
8/13/2021 2:15:00 PM 24.85 76.73 0.534 8.09 13.34 8.52
8/13/2021 2:30:00 PM 25.02 77.036 0.532 8.09 10.66 8.51
8/13/2021 2:45:00 PM 25.35 77.63 0.532 8.11 6.12 8.67
8/13/2021 3:00:00 PM 25.55 77.99 0.531 8.13 6.33 8.62
8/13/2021 3:15:00 PM 25.78 78.404 0.529 8.13 6.46 8.46
8/13/2021 3:30:00 PM 25.67 78.206 0.529 8.13 6.87 8.54
8/13/2021 3:45:00 PM 25.76 78.368 0.528 8.14 6.5 8.28
8/13/2021 4:00:00 PM 25.98 78.764 0.527 8.14 6.5 8.32
8/13/2021 4:15:00 PM 25.8 78.44 0.527 8.15 6.47 8.39
8/13/2021 4:30:00 PM 25.72 78.296 0.527 8.14 6.54 8.17
8/13/2021 4:45:00 PM 25.9 78.62 0.527 8.12 6.49 8.12
8/13/2021 5:00:00 PM 26.02 78.836 0.527 8.14 6.36 8.2
8/13/2021 5:15:00 PM 25.92 78.656 0.527 8.14 6.42 7.7
8/13/2021 5:30:00 PM 25.99 78.782 0.527 8.14 6.4 7.94
8/13/2021 5:45:00 PM 25.87 78.566 0.527 8.13 11.78 7.96
8/13/2021 6:00:00 PM 25.79 78.422 0.526 8.13 6.69 7.92
8/13/2021 6:15:00 PM 25.71 78.278 0.526 8.12 8.42 7.7
8/13/2021 6:30:00 PM 25.71 78.278 0.525 8.12 6.32 7.59
8/13/2021 6:45:00 PM 25.6 78.08 0.524 8.11 6.3 7.44
8/13/2021 7:00:00 PM 25.57 78.026 0.524 8.1 6.34 7.49
8/13/2021 7:15:00 PM 25.53 77.954 0.523 8.09 6.44 7.54
8/13/2021 7:30:00 PM 25.48 77.864 0.523 8.08 6.49 7.53
8/13/2021 7:45:00 PM 25.27 77.486 0.523 8.07 6.43 7.35
8/13/2021 8:00:00 PM 25.19 77.342 0.523 8.05 6.32 7.31
8/13/2021 8:15:00 PM 25.14 77.252 0.523 8.04 6.64 7.32
8/13/2021 8:30:00 PM 25.02 77.036 0.523 8.02 6.4 7.28
8/13/2021 8:45:00 PM 24.8 76.64 0.523 8.01 6.69 7.26
8/13/2021 9:00:00 PM 24.96 76.92799 0.522 7.99 6.75 7.25
8/13/2021 9:15:00 PM 24.79 76.622 0.522 7.98 6.51 7.07
8/13/2021 9:30:00 PM 24.75 76.55 0.522 7.97 6.79 7.18
8/13/2021 9:45:00 PM 24.76 76.568 0.522 7.96 6.69 7.13
8/13/2021 10:00:00 PM 24.71 76.478 0.521 7.95 6.66 7.18
8/13/2021 10:15:00 PM 24.67 76.406 0.521 7.96 6.8 7.11
8/13/2021 10:30:00 PM 24.52 76.136 0.519 7.96 7.23 7.23
8/13/2021 10:45:00 PM 24.31 75.758 0.518 7.95 7.15 7.17
8/13/2021 11:00:00 PM 24.23 75.614 0.518 7.95 7.1 7.15
8/13/2021 11:15:00 PM 24.16 75.488 0.516 7.95 6.99 7.17
8/13/2021 11:30:00 PM 24.22 75.596 0.516 7.94 7.3 7.33
8/13/2021 11:45:00 PM 24.09 75.362 0.516 7.94 7.32 7.29
8/14/2021 12:00:00 AM 24.04 75.272 0.516 7.93 7.3 7.25
8/14/2021 12:15:00 AM 23.93 75.074 0.517 7.94 6.83 7.32
8/14/2021 12:30:00 AM 23.94 75.092 0.517 7.93 7.28 7.21
8/14/2021 12:45:00 AM 23.94 75.092 0.517 7.93 7.67 7.24
8/14/2021 1:00:00 AM 23.88 74.984 0.517 7.93 7.65 7.33
8/14/2021 1:15:00 AM 23.79 74.82201 0.517 7.93 7.58 7.24
8/14/2021 1:30:00 AM 23.68 74.624 0.518 7.93 7.66 7.36
8/14/2021 1:45:00 AM 23.66 74.588 0.518 7.93 6.77 7.31
8/14/2021 2:00:00 AM 23.65 74.57 0.517 7.93 7.45 7.42
8/14/2021 2:15:00 AM 23.56 74.408 0.517 7.92 7.14 7.34
8/14/2021 2:30:00 AM 23.41 74.138 0.517 7.92 7.41 7.03
8/14/2021 2:45:00 AM 23.39 74.102 0.517 7.91 7.2 7.4
8/14/2021 3:00:00 AM 23.36 74.048 0.516 7.91 7.33 7.46
8/14/2021 3:15:00 AM 23.21 73.778 0.516 7.91 7.54 7.47
8/14/2021 3:30:00 AM 23.2 73.76 0.515 7.9 7.4 7.4
8/14/2021 3:45:00 AM 23.06 73.508 0.515 7.9 8.19 7.44
8/14/2021 4:00:00 AM 23.03 73.454 0.515 7.9 7.29 7.44
8/14/2021 4:15:00 AM 22.98 73.364 0.515 7.89 7.39 7.47
8/14/2021 4:30:00 AM 22.85 73.13 0.515 7.89 7.33 7.36
8/14/2021 4:45:00 AM 22.85 73.13 0.515 7.89 6.86 7.49
8/14/2021 5:00:00 AM 22.84 73.112 0.515 7.89 8.78 7.42
8/14/2021 5:15:00 AM 22.77 72.986 0.516 7.89 10.29 7.5
8/14/2021 5:30:00 AM 22.82 73.076 0.516 7.88 7.13 7.27
8/14/2021 5:45:00 AM 22.8 73.04 0.516 7.88 7.11 7.35
8/14/2021 6:00:00 AM 22.71 72.878 0.517 7.87 8.15 7.35
8/14/2021 6:15:00 AM 22.58 72.644 0.518 7.88 23.85 7.31
8/14/2021 6:30:00 AM 22.6 72.68 0.518 7.86 10.5 7.14
8/14/2021 6:45:00 AM 22.55 72.59 0.519 7.87 20.63 7.4
8/14/2021 7:00:00 AM 22.48 72.464 0.519 7.85 14.8 7.24
8/14/2021 7:15:00 AM 22.46 72.42799 0.518 7.85 11.39 7.27
8/14/2021 7:30:00 AM 22.41 72.338 0.519 7.85 171.46 7.28
8/14/2021 7:45:00 AM 22.34 72.212 0.52 7.81 44.87 7.44
8/14/2021 8:00:00 AM 22.35 72.23 0.52 7.84 7.56 7.47
8/14/2021 8:15:00 AM 22.4 72.32 0.52 7.85 7.77 7.59
8/14/2021 8:30:00 AM 22.35 72.23 0.521 7.87 7.64 7.56
8/14/2021 8:45:00 AM 22.35 72.23 0.522 7.87 8.36 7.67
8/14/2021 9:00:00 AM 22.35 72.23 0.522 7.88 7.58 7.84
8/14/2021 9:15:00 AM 22.31 72.158 0.523 7.9 7.82 7.89
8/14/2021 9:30:00 AM 22.25 72.05 0.523 7.9 7.54 7.98
8/14/2021 9:45:00 AM 22.32 72.176 0.523 7.91 7.62 8
8/14/2021 10:00:00 AM 22.62 72.716 0.522 7.92 7.48 8
8/14/2021 10:15:00 AM 22.77 72.986 0.522 7.93 7.67 8.16
8/14/2021 10:30:00 AM 22.73 72.914 0.522 7.96 7.75 8.24
8/14/2021 10:45:00 AM 22.73 72.914 0.522 7.96 7.7 8.28
8/14/2021 11:00:00 AM 22.71 72.878 0.522 7.97 7.64 8.3
8/14/2021 11:15:00 AM 22.87 73.166 0.522 7.97 7.65 8.27
8/14/2021 11:30:00 AM 22.99 73.382 0.522 7.98 7.66 8.22
8/14/2021 11:45:00 AM 23.02 73.436 0.522 8 8.01 8.44
8/14/2021 12:00:00 PM 23.12 73.616 0.522 8.01 7.6 8.53
8/14/2021 12:15:00 PM 23.19 73.742 0.522 8.03 7.42 8.45
8/14/2021 12:30:00 PM 23.22 73.796 0.518 7.99 7.66 8.44
8/14/2021 12:45:00 PM 23.16 73.688 0.52 8.04 7.57 8.51
8/14/2021 1:00:00 PM 23.35 74.03 0.52 8.06 7.48 8.46
8/14/2021 1:15:00 PM 23.61 74.498 0.52 8.08 7.31 8.59
8/14/2021 1:30:00 PM 23.53 74.354 0.514 8.09 7.57 8.68
8/14/2021 1:45:00 PM 24.07 75.326 0.518 8.09 7.36 8.68
8/14/2021 2:00:00 PM 24.32 75.776 0.519 8.1 7.5 8.74
8/14/2021 2:15:00 PM 24.7 76.46 0.521 8.11 7.06 8.83
8/14/2021 2:30:00 PM 25.03 77.054 0.519 8.14 7.37 8.82
8/14/2021 2:45:00 PM 25.47 77.846 0.519 8.14 7.38 8.88
8/14/2021 3:00:00 PM 25.69 78.242 0.521 8.15 7.3 8.92
8/14/2021 3:15:00 PM 26.18 79.124 0.521 8.14 7.51 8.99
8/14/2021 3:30:00 PM 26.08 78.944 0.521 8.16 7.26 9.01
8/14/2021 3:45:00 PM 26 78.8 0.52 8.17 7.19 8.89
8/14/2021 4:00:00 PM 26.01 78.818 0.521 8.18 7.23 8.74
8/14/2021 4:15:00 PM 26.13 79.034 0.521 8.18 7.31 8.71
8/14/2021 4:30:00 PM 26.2 79.16 0.521 8.18 7.29 8.74
8/14/2021 4:45:00 PM 26.18 79.124 0.52 8.16 7.22 8.55
8/14/2021 5:00:00 PM 26.24 79.232 0.52 8.17 7.36 8.48
8/14/2021 5:15:00 PM 26.2 79.16 0.521 8.17 7.38 8.52
8/14/2021 5:30:00 PM 26.03 78.854 0.521 8.16 7.53 8.34
8/14/2021 5:45:00 PM 25.89 78.602 0.52 8.17 7.49 8.21
8/14/2021 6:00:00 PM 25.73 78.314 0.519 8.15 7.71 8.15
8/14/2021 6:15:00 PM 25.54 77.972 0.518 8.11 7.64 7.82
8/14/2021 6:30:00 PM 25.38 77.684 0.52 8.09 7.51 7.76
8/14/2021 6:45:00 PM 25.21 77.378 0.519 8.07 7.65 7.67
8/14/2021 7:00:00 PM 25.08 77.144 0.52 8.11 7.8 7.77
8/14/2021 7:15:00 PM 24.95 76.91 0.52 8.08 7.61 7.54
8/14/2021 7:30:00 PM 24.7 76.46 0.522 8.05 7.57 7.55
8/14/2021 7:45:00 PM 24.55 76.19 0.523 8.06 7.53 7.59
8/14/2021 8:00:00 PM 24.29 75.722 0.524 8.06 7.66 7.58
8/14/2021 8:15:00 PM 24.16 75.488 0.525 8.02 10.81 7.35
8/14/2021 8:30:00 PM 23.95 75.11 0.525 8.01 8.6 7.39
8/14/2021 8:45:00 PM 23.75 74.75 0.525 8.02 8.7 7.44
8/14/2021 9:00:00 PM 23.57 74.426 0.526 8 8.17 7.43
8/14/2021 9:15:00 PM 23.39 74.102 0.526 8 8.07 7.35
8/14/2021 9:30:00 PM 23.26 73.868 0.527 7.98 7.99 7.43
8/14/2021 9:45:00 PM 23.13 73.634 0.528 7.97 7.71 7.45
8/14/2021 10:00:00 PM 23.01 73.418 0.528 7.96 7.93 7.42
8/14/2021 10:15:00 PM 22.83 73.094 0.528 7.95 7.77 7.43
8/14/2021 10:30:00 PM 22.68 72.824 0.529 7.95 7.63 7.51
8/14/2021 10:45:00 PM 22.59 72.662 0.529 7.94 7.55 7.38
8/14/2021 11:00:00 PM 22.48 72.464 0.529 7.93 7.39 7.48
8/14/2021 11:15:00 PM 22.41 72.338 0.529 7.92 7.17 7.47
8/14/2021 11:30:00 PM 22.3 72.14 0.529 7.91 7.28 7.58
8/14/2021 11:45:00 PM 22.15 71.87 0.53 7.91 7.07 7.57
8/15/2021 12:00:00 AM 22.06 71.708 0.53 7.9 7.14 7.54
8/15/2021 12:15:00 AM 21.79 71.222 0.53 7.87 19.19 7.41
8/15/2021 12:30:00 AM 21.71 71.078 0.531 7.9 9.27 7.56
8/15/2021 12:45:00 AM 21.69 71.042 0.53 7.92 6.65 7.61
8/15/2021 1:00:00 AM 21.65 70.97 0.53 7.91 6.68 7.59
8/15/2021 1:15:00 AM 21.52 70.736 0.53 7.91 6.79 7.67
8/15/2021 1:30:00 AM 21.44 70.592 0.531 7.89 19.83 7.55
8/15/2021 1:45:00 AM 21.32 70.376 0.531 7.88 6.75 7.6
8/15/2021 2:00:00 AM 21.22 70.196 0.53 7.87 6.89 7.41
8/15/2021 2:15:00 AM 21.15 70.07 0.531 7.88 6.89 7.6
8/15/2021 2:30:00 AM 21.05 69.89 0.531 7.88 6.89 7.45
8/15/2021 2:45:00 AM 20.97 69.746 0.53 7.88 7.01 7.53
8/15/2021 3:00:00 AM 20.88 69.584 0.531 7.87 7.1 7.81
8/15/2021 3:15:00 AM 20.79 69.422 0.53 7.85 7.06 7.7
8/15/2021 3:30:00 AM 20.72 69.296 0.53 7.86 6.85 7.78
8/15/2021 3:45:00 AM 20.67 69.206 0.53 7.86 7.66 7.84
8/15/2021 4:00:00 AM 20.58 69.044 0.53 7.85 7.99 7.86
8/15/2021 4:15:00 AM 20.5 68.9 0.53 7.87 7.33 7.9
8/15/2021 4:30:00 AM 20.41 68.738 0.53 7.88 7.7 7.85
8/15/2021 4:45:00 AM 20.35 68.63 0.53 7.87 7.28 7.91
8/15/2021 5:00:00 AM 20.29 68.522 0.53 7.88 7.09 7.84
8/15/2021 5:15:00 AM 20.22 68.396 0.53 7.84 7.12 7.65
8/15/2021 5:30:00 AM 20.15 68.27 0.53 7.85 7.22 7.98
8/15/2021 5:45:00 AM 20.09 68.162 0.53 7.86 7.62 7.99
8/15/2021 6:00:00 AM 20.03 68.054 0.53 7.85 7.25 7.83
8/15/2021 6:15:00 AM 19.92 67.856 0.53 7.86 7.59 7.88
8/15/2021 6:30:00 AM 19.85 67.73 0.53 7.86 7.52 7.99
8/15/2021 6:45:00 AM 19.76 67.568 0.531 7.83 7.3 7.88
8/15/2021 7:00:00 AM 19.66 67.388 0.531 7.83 7.27 8.03
8/15/2021 7:15:00 AM 19.79 67.622 0.53 7.83 7.41 8.09
8/15/2021 7:30:00 AM 19.72 67.496 0.53 7.87 7.34 8.01
8/15/2021 7:45:00 AM 19.69 67.442 0.53 7.87 7.4 8.1
8/15/2021 8:00:00 AM 19.69 67.442 0.53 7.87 7.33 8.17
8/15/2021 8:15:00 AM 19.7 67.46 0.53 7.87 7.23 8.32
8/15/2021 8:30:00 AM 19.65 67.37 0.53 7.89 7.39 8.3
8/15/2021 8:45:00 AM 19.71 67.478 0.53 7.91 7.24 8.54
8/15/2021 9:00:00 AM 19.29 66.722 0.533 7.91 7.05 8.56
8/15/2021 9:15:00 AM 19.33 66.794 0.533 7.9 6.92 8.68
8/15/2021 9:30:00 AM 19.41 66.938 0.533 7.93 6.98 8.87
8/15/2021 9:45:00 AM 19.5 67.1 0.533 7.95 7.13 8.99
8/15/2021 10:00:00 AM 19.51 67.118 0.533 7.96 7.09 8.83
8/15/2021 10:15:00 AM 19.62 67.316 0.533 7.97 6.83 9.11
8/15/2021 10:30:00 AM 19.71 67.478 0.532 7.99 6.22 9.18
8/15/2021 10:45:00 AM 19.79 67.622 0.532 8.02 6.31 9.22
8/15/2021 11:00:00 AM 19.91 67.838 0.532 8.04 6.76 9.32
8/15/2021 11:15:00 AM 20 68 0.532 8.06 6.59 9.33
8/15/2021 11:30:00 AM 20.12 68.216 0.532 8.08 6.69 9.45
8/15/2021 11:45:00 AM 20.29 68.522 0.532 8.1 6.75 9.46
8/15/2021 12:00:00 PM 20.37 68.666 0.531 8.11 6.42 9.53
8/15/2021 12:15:00 PM 20.49 68.882 0.531 8.12 6.75 9.6
8/15/2021 12:30:00 PM 20.6 69.08 0.531 8.12 6.28 9.64
8/15/2021 12:45:00 PM 20.77 69.386 0.531 8.13 6.3 9.57
8/15/2021 1:00:00 PM 21.03 69.854 0.531 8.14 6.38 9.53
8/15/2021 1:15:00 PM 21.3 70.34 0.53 8.17 6.35 9.7
8/15/2021 1:30:00 PM 21.78 71.204 0.53 8.17 6.54 9.84
8/15/2021 1:45:00 PM 22.08 71.744 0.53 8.19 6.54 10.03
8/15/2021 2:00:00 PM 22.48 72.464 0.53 8.2 6.8 10.23
8/15/2021 2:15:00 PM 22.73 72.914 0.529 8.2 6.62 9.91
8/15/2021 2:30:00 PM 22.92 73.256 0.53 8.22 6.42 9.83
8/15/2021 2:45:00 PM 22.85 73.13 0.529 8.22 6.61 9.92
8/15/2021 3:00:00 PM 22.85 73.13 0.529 8.2 6.62 9.8
8/15/2021 3:15:00 PM 23.04 73.472 0.529 8.21 6.42 9.63
8/15/2021 3:30:00 PM 23.38 74.084 0.529 8.22 10.6 9.79
8/15/2021 3:45:00 PM 23.32 73.976 0.528 8.2 9.57 9.56
8/15/2021 4:00:00 PM 23.31 73.958 0.528 8.21 12.44 9.56
8/15/2021 4:15:00 PM 23.13 73.634 0.528 8.22 26.49 9.28
8/15/2021 4:30:00 PM 23.08 73.544 0.527 8.23 6.74 9.37
8/15/2021 4:45:00 PM 23.13 73.634 0.527 8.23 6.83 9.34
8/15/2021 5:00:00 PM 23.09 73.562 0.527 8.22 6.77 9.17
8/15/2021 5:15:00 PM 23.04 73.472 0.527 8.2 16.93 8.87
8/15/2021 5:30:00 PM 23.07 73.526 0.527 8.19 25.91 8.97
8/15/2021 5:45:00 PM 23.05 73.49 0.527 8.19 14.87 8.96
8/15/2021 6:00:00 PM 23.06 73.508 0.527 8.19 9.09 8.89
8/15/2021 6:15:00 PM 22.96 73.328 0.527 8.18 8.89 8.79
8/15/2021 6:30:00 PM 22.87 73.166 0.527 8.2 13.71 8.65
8/15/2021 6:45:00 PM 22.72 72.896 0.528 8.19 11.36 8.46
8/15/2021 7:00:00 PM 22.53 72.554 0.528 8.17 22.61 8.22
8/15/2021 7:15:00 PM 22.42 72.356 0.529 8.15 10.86 8.18
8/15/2021 7:30:00 PM 22.33 72.194 0.528 8.12 9.96 8.05
8/15/2021 7:45:00 PM 22.19 71.942 0.529 8.12 12.86 8.01
8/15/2021 8:00:00 PM 22.06 71.708 0.529 8.1 7.15 7.95
8/15/2021 8:15:00 PM 21.96 71.528 0.53 8.08 10.71 7.72
8/15/2021 8:30:00 PM 21.8 71.24 0.53 8.06 10.57 7.9
8/15/2021 8:45:00 PM 21.68 71.024 0.531 8.05 8.09 7.71
8/15/2021 9:00:00 PM 21.59 70.862 0.531 8.05 6.72 7.58
8/15/2021 9:15:00 PM 21.47 70.646 0.532 8.04 7.01 7.29
8/15/2021 9:30:00 PM 21.37 70.466 0.532 8.02 7.54 7.48
8/15/2021 9:45:00 PM 21.27 70.286 0.532 8 7.29 7.33
8/15/2021 10:00:00 PM 21.19 70.142 0.532 7.97 6.9 7.24
8/15/2021 10:15:00 PM 21.12 70.016 0.532 7.94 6.69 7.28
8/15/2021 10:30:00 PM 21.06 69.908 0.532 7.89 6.51 7.12
8/15/2021 10:45:00 PM 21 69.8 0.533 7.88 6.52 7.34
8/15/2021 11:00:00 PM 20.96 69.728 0.533 7.85 6.35 6.96
8/15/2021 11:15:00 PM 20.91 69.638 0.533 7.89 7.2 6.77
8/15/2021 11:30:00 PM 20.88 69.584 0.533 7.88 6.41 7.79
8/15/2021 11:45:00 PM 20.85 69.53 0.533 7.91 6.37 7.66
8/16/2021 12:00:00 AM 20.81 69.458 0.533 7.91 6.44 7.47
8/16/2021 12:15:00 AM 20.79 69.422 0.533 7.93 6.67 7.66
8/16/2021 12:30:00 AM 20.77 69.386 0.533 7.93 6.57 7.66
8/16/2021 12:45:00 AM 20.74 69.332 0.532 7.92 6.54 7.8
8/16/2021 1:00:00 AM 20.73 69.314 0.533 7.92 6.68 7.8
8/16/2021 1:15:00 AM 20.72 69.296 0.532 7.92 6.57 7.68
8/16/2021 1:30:00 AM 20.69 69.242 0.532 7.92 6.52 7.25
8/16/2021 1:45:00 AM 20.66 69.188 0.532 7.89 6.42 7.62
8/16/2021 2:00:00 AM 20.67 69.206 0.532 7.9 6.63 7.82
8/16/2021 2:15:00 AM 20.64 69.152 0.533 7.91 6.8 7.73
8/16/2021 2:30:00 AM 20.61 69.098 0.533 7.89 6.39 7.8
8/16/2021 2:45:00 AM 20.59 69.062 0.533 7.9 6.53 7.83
8/16/2021 3:00:00 AM 20.57 69.026 0.533 7.89 6.46 7.77
8/16/2021 3:15:00 AM 20.54 68.972 0.533 7.87 6.43 7.68
8/16/2021 3:30:00 AM 20.51 68.918 0.533 7.87 6.79 7.65
8/16/2021 3:45:00 AM 20.49 68.882 0.533 7.87 6.87 7.73
8/16/2021 4:00:00 AM 20.46 68.828 0.533 7.87 6.92 7.75
8/16/2021 4:15:00 AM 20.45 68.81 0.533 7.88 6.69 7.84
8/16/2021 4:30:00 AM 20.43 68.774 0.533 7.87 6.61 7.75
8/16/2021 4:45:00 AM 20.4 68.72 0.534 7.84 6.6 7.77
8/16/2021 5:00:00 AM 20.36 68.648 0.534 7.83 6.73 7.77
8/16/2021 5:15:00 AM 20.35 68.63 0.534 7.83 6.69 7.72
8/16/2021 5:30:00 AM 20.33 68.594 0.534 7.84 6.91 7.8
8/16/2021 5:45:00 AM 20.31 68.558 0.534 7.84 6.85 7.75
8/16/2021 6:00:00 AM 20.3 68.54 0.534 7.85 6.96 7.82
8/16/2021 6:15:00 AM 20.28 68.504 0.535 7.86 6.82 7.11
8/16/2021 6:30:00 AM 20.25 68.45 0.535 7.84 6.97 7.69
8/16/2021 6:45:00 AM 20.21 68.378 0.535 7.83 6.82 7.65
8/16/2021 7:00:00 AM 20.2 68.36 0.53 7.85 8.21 7.67
8/16/2021 7:15:00 AM 20.19 68.342 0.534 7.84 7.72 7.69
8/16/2021 7:30:00 AM 20.19 68.342 0.534 7.86 9.78 7.88
8/16/2021 7:45:00 AM 20.19 68.342 0.534 7.83 12.35 7.83
8/16/2021 8:00:00 AM 20.19 68.342 0.534 7.84 13.15 7.89
8/16/2021 8:15:00 AM 20.22 68.396 0.534 7.85 7.18 7.97
8/16/2021 8:30:00 AM 20.24 68.432 0.534 7.86 13.16 8
8/16/2021 8:45:00 AM 20.25 68.45 0.534 7.85 13.35 8.06
8/16/2021 9:00:00 AM 20.28 68.504 0.534 7.87 14.91 8.12
8/16/2021 9:15:00 AM 20.34 68.612 0.533 7.88 13.85 8.28
8/16/2021 9:30:00 AM 20.42 68.756 0.533 7.9 11.64 8.29
8/16/2021 9:45:00 AM 20.51 68.918 0.533 7.91 10.68 8.38
8/16/2021 10:00:00 AM 20.56 69.008 0.532 7.9 9.82 8.43
8/16/2021 10:15:00 AM 20.59 69.062 0.532 7.89 68.89 8.47
8/16/2021 10:30:00 AM 20.64 69.152 0.532 7.9 8.64 8.5
8/16/2021 10:45:00 AM 20.71 69.278 0.532 7.89 11.42 8.46
8/16/2021 11:00:00 AM 20.81 69.458 0.532 7.91 15.23 8.6
8/16/2021 11:15:00 AM 20.97 69.746 0.532 7.95 15.23 8.78
8/16/2021 11:30:00 AM 21.18 70.124 0.531 7.98 17.27 8.89
8/16/2021 11:45:00 AM 21.37 70.466 0.53 7.99 16.21 9.07
8/16/2021 12:00:00 PM 21.47 70.646 0.53 8 11.68 9.37
8/16/2021 12:15:00 PM 21.62 70.916 0.53 8 13.01 9.4
8/16/2021 12:30:00 PM 21.65 70.97 0.53 8.04 10.91 9.35
8/16/2021 12:45:00 PM 21.68 71.024 0.529 8.02 8.94 9.4
8/16/2021 1:00:00 PM 21.61 70.898 0.53 8.04 10.36 9.24
8/16/2021 1:15:00 PM 21.57 70.826 0.529 8.03 13.96 9.27
8/16/2021 1:30:00 PM 21.52 70.736 0.53 8.08 14.31 9.13
8/16/2021 1:45:00 PM 21.49 70.682 0.53 8.08 13.38 8.93
8/16/2021 2:00:00 PM 21.47 70.646 0.529 8.05 32.69 8.9
8/16/2021 2:15:00 PM 21.47 70.646 0.529 8.05 16.35 8.81
8/16/2021 2:30:00 PM 21.5 70.7 0.528 8.01 8.48 8.93
8/16/2021 2:45:00 PM 21.51 70.718 0.528 7.99 14.19 8.85
8/16/2021 3:00:00 PM 21.51 70.718 0.528 8.05 13.4 8.73
8/16/2021 3:15:00 PM 21.5 70.7 0.526 8 11.24 8.67
8/16/2021 3:30:00 PM 21.49 70.682 0.528 8.04 12.31 8.53
8/16/2021 3:45:00 PM 21.45 70.61 0.528 8.03 7.06 8.32
8/16/2021 4:00:00 PM 21.42 70.556 0.528 8.02 8.55 8.56
8/16/2021 4:15:00 PM 21.43 70.574 0.528 8.04 13.28 8.36
8/16/2021 4:30:00 PM 21.42 70.556 0.527 7.99 11.93 8.3
8/16/2021 4:45:00 PM 21.42 70.556 0.528 8 7.11 7.89
8/16/2021 5:00:00 PM 21.42 70.556 0.528 8 24.38 8.38
8/16/2021 5:15:00 PM 21.44 70.592 0.529 8 68.67 8.44
8/16/2021 5:30:00 PM 21.46 70.628 0.528 7.97 9.86 8.31
8/16/2021 5:45:00 PM 21.46 70.628 0.528 7.99 7.28 8.46
8/16/2021 6:00:00 PM 21.41 70.538 0.529 8.01 29.2 8.45
8/16/2021 6:15:00 PM 21.36 70.448 0.53 8 11.24 8.29
8/16/2021 6:30:00 PM 21.3 70.34 0.53 8.02 7.13 8.09
8/16/2021 6:45:00 PM 21.26 70.268 0.53 8 12.99 8.13
8/16/2021 7:00:00 PM 21.22 70.196 0.53 7.99 20.98 7.39
8/16/2021 7:15:00 PM 21.17 70.106 0.53 7.98 18.95 7.16
8/16/2021 7:30:00 PM 21.14 70.052 0.531 7.97 9.58 7.6
8/16/2021 7:45:00 PM 21.09 69.962 0.531 7.98 10.56 6.94
8/16/2021 8:00:00 PM 21.04 69.872 0.531 7.93 9.18 7.84
8/16/2021 8:15:00 PM 21.01 69.818 0.531 7.95 6.87 7.85
8/16/2021 8:30:00 PM 20.97 69.746 0.531 7.96 6.94 7.84
8/16/2021 8:45:00 PM 20.92 69.656 0.531 7.97 6.81 7.92
8/16/2021 9:00:00 PM 20.9 69.62 0.531 7.96 6.82 7.88
8/16/2021 9:15:00 PM 20.87 69.566 0.531 7.95 7.08 7.74
8/16/2021 9:30:00 PM 20.84 69.512 0.532 7.93 7.03 7.36
8/16/2021 9:45:00 PM 20.81 69.458 0.532 7.88 7.06 7.37
8/16/2021 10:00:00 PM 20.79 69.422 0.532 7.86 7.13 6.74
8/16/2021 10:15:00 PM 20.77 69.386 0.533 7.86 6.96 6.79
8/16/2021 10:30:00 PM 20.74 69.332 0.533 7.84 6.99 6.73
8/16/2021 10:45:00 PM 20.72 69.296 0.532 7.83 6.74 6.69
8/16/2021 11:00:00 PM 20.7 69.26 0.533 7.86 6.57 6.62
8/16/2021 11:15:00 PM 20.68 69.224 0.532 7.83 6.81 6.44
8/16/2021 11:30:00 PM 20.67 69.206 0.532 7.84 6.55 6.58
8/16/2021 11:45:00 PM 20.64 69.152 0.532 7.8 6.46 7.13
8/17/2021 12:00:00 AM 20.63 69.134 0.532 7.84 7.08 6.76
8/17/2021 12:15:00 AM 20.62 69.116 0.532 7.85 6.75 6.55
8/17/2021 12:30:00 AM 20.61 69.098 0.532 7.84 10.2 7.39
8/17/2021 12:45:00 AM 20.6 69.08 0.532 7.84 6.51 6.56
8/17/2021 1:00:00 AM 20.58 69.044 0.532 7.85 6.29 6.83
8/17/2021 1:15:00 AM 20.57 69.026 0.532 7.85 6.06 6.8
8/17/2021 1:30:00 AM 20.57 69.026 0.532 7.86 6.39 6.91
8/17/2021 1:45:00 AM 20.55 68.99 0.532 7.84 6.62 6.23
8/17/2021 2:00:00 AM 20.54 68.972 0.531 7.84 6.18 6.7
8/17/2021 2:15:00 AM 20.53 68.954 0.531 7.83 6.79 7.09
8/17/2021 2:30:00 AM 20.53 68.954 0.532 7.82 6.66 6.38
8/17/2021 2:45:00 AM 20.52 68.936 0.531 7.82 6.49 6.68
8/17/2021 3:00:00 AM 20.51 68.918 0.532 7.79 6.46 6.91
8/17/2021 3:15:00 AM 20.51 68.918 0.532 7.8 6.36 6.53
8/17/2021 3:30:00 AM 20.5 68.9 0.532 7.82 6.44 6.97
8/17/2021 3:45:00 AM 20.49 68.882 0.532 7.83 6.79 6.96
8/17/2021 4:00:00 AM 20.49 68.882 0.532 7.82 6.53 6.85
8/17/2021 4:15:00 AM 20.48 68.864 0.532 7.8 6.69 6.84
8/17/2021 4:30:00 AM 20.46 68.828 0.532 7.79 6.7 6.8
8/17/2021 4:45:00 AM 20.46 68.828 0.531 7.81 6.52 6.61
8/17/2021 5:00:00 AM 20.44 68.792 0.532 7.8 6.65 7.07
8/17/2021 5:15:00 AM 20.43 68.774 0.532 7.81 6.51 6.49
8/17/2021 5:30:00 AM 20.42 68.756 0.533 7.79 6.29 6.51
8/17/2021 5:45:00 AM 20.41 68.738 0.532 7.79 6.77 6.31
8/17/2021 6:00:00 AM 20.39 68.702 0.532 7.77 6.1 6.77
8/17/2021 6:15:00 AM 20.37 68.666 0.532 7.74 6.47 6.9
8/17/2021 6:30:00 AM 20.36 68.648 0.532 7.75 6.38 6.69
8/17/2021 6:45:00 AM 20.34 68.612 0.532 7.76 6.43 6.93
8/17/2021 7:00:00 AM 20.33 68.594 0.532 7.73 6.07 6.87
8/17/2021 7:15:00 AM 20.32 68.576 0.532 7.75 6.29 6.82
8/17/2021 7:30:00 AM 20.32 68.576 0.532 7.74 6.06 7.12
8/17/2021 7:45:00 AM 20.33 68.594 0.532 7.75 6.15 7.38
8/17/2021 8:00:00 AM 20.34 68.612 0.532 7.79 6.09 7.55
8/17/2021 8:15:00 AM 20.37 68.666 0.532 7.79 6.31 7.82
8/17/2021 8:30:00 AM 20.41 68.738 0.532 7.8 6.3 7.81
8/17/2021 8:45:00 AM 20.48 68.864 0.532 7.82 6.29 7.89
8/17/2021 9:00:00 AM 20.56 69.008 0.532 7.83 6.32 7.98
8/17/2021 9:15:00 AM 20.67 69.206 0.531 7.85 6.41 8.27
8/17/2021 9:30:00 AM 20.77 69.386 0.531 7.86 6.4 8.39
8/17/2021 9:45:00 AM 20.89 69.602 0.531 7.85 6.34 8.4
8/17/2021 10:00:00 AM 20.99 69.782 0.53 7.85 6.45 8.4
8/17/2021 10:15:00 AM 21.12 70.016 0.53 7.85 6.46 8.33
8/17/2021 10:30:00 AM 21.27 70.286 0.529 7.87 6.62 8.49
8/17/2021 10:45:00 AM 21.42 70.556 0.53 7.88 6.47 8.6
8/17/2021 11:00:00 AM 21.61 70.898 0.53 7.9 6.54 8.61
8/17/2021 11:15:00 AM 21.92 71.456 0.529 7.92 6.58 9.04
8/17/2021 11:30:00 AM 22.18 71.924 0.528 7.93 6.78 9.43
8/17/2021 11:45:00 AM 22.26 72.068 0.53 7.96 6.36 9.24
8/17/2021 12:00:00 PM 22.36 72.248 0.53 7.98 6.48 9.17
8/17/2021 12:15:00 PM 22.52 72.536 0.53 8.01 6.37 9.51
8/17/2021 12:30:00 PM 22.67 72.806 0.53 8.04 6.48 9.58
8/17/2021 12:45:00 PM 22.77 72.986 0.53 8.01 6.43 9.17
8/17/2021 1:00:00 PM 22.83 73.094 0.53 8.05 6.3 9.34
8/17/2021 1:15:00 PM 22.95 73.31 0.53 8.09 6.46 9.56
8/17/2021 1:30:00 PM 23.08 73.544 0.53 8.1 6.25 9.41
8/17/2021 1:45:00 PM 23.14 73.652 0.53 8.12 6.34 9.4
8/17/2021 2:00:00 PM 23.08 73.544 0.53 8.13 6.56 8.45
8/17/2021 2:15:00 PM 22.72 72.896 0.502 8.15 14.62 8.94
8/17/2021 2:30:00 PM 22.56 72.608 0.511 8.12 8.03 8.7
8/17/2021 2:45:00 PM 22.4 72.32 0.5 8.1 18.76 8.46
8/17/2021 3:00:00 PM 22.23 72.014 0.492 8.07 7.42 8.11
8/17/2021 3:15:00 PM 22.26 72.068 0.484 8.04 7.01 8.09
8/17/2021 3:30:00 PM 22.39 72.302 0.476 8.03 9.4 8.51
8/17/2021 3:45:00 PM 22.23 72.014 0.465 8 21.16 8.43
8/17/2021 4:00:00 PM 21.76 71.168 0.394 7.88 87.31 7.81
8/17/2021 4:15:00 PM 21.18 70.124 0.303 7.72 188.28 7.9
8/17/2021 4:30:00 PM 20.93 69.674 0.269 7.61 223.55 7.93
8/17/2021 4:45:00 PM 20.97 69.746 0.312 7.55 231.33 8.13
8/17/2021 5:00:00 PM 21.24 70.232 0.355 7.58 117.92 8.2
8/17/2021 5:15:00 PM 21.45 70.61 0.391 7.61 98.43 8.1
8/17/2021 5:30:00 PM 21.58 70.844 0.443 7.62 65.14 8.11
8/17/2021 5:45:00 PM 21.56 70.808 0.495 7.58 102.1 7.96
8/17/2021 6:00:00 PM 21.5 70.7 0.495 7.54 71.92 7.97
8/17/2021 6:15:00 PM 21.38 70.484 0.43 7.53 95.12 7.96
8/17/2021 6:30:00 PM 21.3 70.34 0.38 7.53 93.53 7.98
8/17/2021 6:45:00 PM 21.26 70.268 0.357 7.51 118.44 7.96
8/17/2021 7:00:00 PM 21.23 70.214 0.35 7.51 90.66 7.81
8/17/2021 7:15:00 PM 21.22 70.196 0.351 7.5 101.24 7.92
8/17/2021 7:30:00 PM 21.18 70.124 0.354 7.51 103.9 7.82
8/17/2021 7:45:00 PM 21.12 70.016 0.352 7.51 99.35 7.81
8/17/2021 8:00:00 PM 21.05 69.89 0.346 7.51 117.83 7.91
8/17/2021 8:15:00 PM 21.01 69.818 0.337 7.51 111.72 7.93
8/17/2021 8:30:00 PM 20.97 69.746 0.326 7.51 110.5 7.82
8/17/2021 8:45:00 PM 20.95 69.71 0.322 7.51 110.54 7.92
8/17/2021 9:00:00 PM 20.92 69.656 0.319 7.51 114.22 7.72
8/17/2021 9:15:00 PM 20.89 69.602 0.318 7.51 117.94 7.93
8/17/2021 9:30:00 PM 20.87 69.566 0.318 7.51 105.53 7.73
8/17/2021 9:45:00 PM 20.85 69.53 0.315 7.52 104.62 7.76
8/17/2021 10:00:00 PM 20.82 69.476 0.315 7.52 119.64 7.76
8/17/2021 10:15:00 PM 20.8 69.44 0.316 7.53 101.81 7.91
8/17/2021 10:30:00 PM 20.77 69.386 0.316 7.53 117.16 7.96
8/17/2021 10:45:00 PM 20.74 69.332 0.318 7.53 114.2 7.92
8/17/2021 11:00:00 PM 20.71 69.278 0.318 7.53 175.4 7.92
8/17/2021 11:15:00 PM 20.67 69.206 0.319 7.53 152.93 7.98
8/17/2021 11:30:00 PM 20.63 69.134 0.321 7.53 140.17 7.93
8/17/2021 11:45:00 PM 20.61 69.098 0.322 7.53 136.86 7.91
8/18/2021 12:00:00 AM 20.58 69.044 0.322 7.53 216.66 7.6
8/18/2021 12:15:00 AM 20.55 68.99 0.324 7.53 226.41 7.98
8/18/2021 12:30:00 AM 20.52 68.936 0.324 7.53 216.71 8.04
8/18/2021 12:45:00 AM 20.5 68.9 0.325 7.53 219.33 8.06
8/18/2021 1:00:00 AM 20.48 68.864 0.325 7.53 229.58 8.02
8/18/2021 1:15:00 AM 20.46 68.828 0.326 7.53 356.92 8.02
8/18/2021 1:30:00 AM 20.43 68.774 0.325 7.54 348.13 8.12
8/18/2021 1:45:00 AM 20.42 68.756 0.327 7.54 339.17 7.96
8/18/2021 2:00:00 AM 20.39 68.702 0.325 7.53 791.06 7.9
8/18/2021 2:15:00 AM 20.38 68.684 0.324 7.54 703.43 8.1
8/18/2021 2:30:00 AM 20.36 68.648 0.324 7.54 669.28 8.12
8/18/2021 2:45:00 AM 20.34 68.612 0.325 7.53 648.83 7.97
8/18/2021 3:00:00 AM 20.33 68.594 0.327 7.54 628.78 7.87
8/18/2021 3:15:00 AM 20.31 68.558 0.325 7.54 616.48 8.15
8/18/2021 3:30:00 AM 20.29 68.522 0.328 7.54 609.63 7.81
8/18/2021 3:45:00 AM 20.28 68.504 0.33 7.54 600.87 8.11
8/18/2021 4:00:00 AM 20.26 68.468 0.335 7.54 590.41 7.71
8/18/2021 4:15:00 AM 20.25 68.45 0.336 7.54 601.7 8.09
8/18/2021 4:30:00 AM 20.23 68.414 0.336 7.55 585 8.03
8/18/2021 4:45:00 AM 20.21 68.378 0.339 7.55 578.41 8.2
8/18/2021 5:00:00 AM 20.2 68.36 0.341 7.55 571.6 8.16
8/18/2021 5:15:00 AM 20.18 68.324 0.344 7.55 582.93 7.68
8/18/2021 5:30:00 AM 20.15 68.27 0.345 7.55 572.36 8.24
8/18/2021 5:45:00 AM 20.14 68.252 0.345 7.55 575.45 8.13
8/18/2021 6:00:00 AM 20.12 68.216 0.347 7.55 569.2 8.01
8/18/2021 6:15:00 AM 20.11 68.198 0.35 7.53 558.75 7.68
8/18/2021 6:30:00 AM 20.1 68.18 0.348 7.53 553.7 8.2
8/18/2021 6:45:00 AM 20.09 68.162 0.35 7.54 529.5 7.79
8/18/2021 7:00:00 AM 20.07 68.126 0.348 7.55 529.46 8.13
8/18/2021 7:15:00 AM 20.07 68.126 0.348 7.55 537.1 8.06
8/18/2021 7:30:00 AM 20.06 68.108 0.344 7.55 486.39 7.3
8/18/2021 7:45:00 AM 20.05 68.09 0.341 7.55 508.69 8.23
8/18/2021 8:00:00 AM 20.04 68.07201 0.34 7.55 519.42 8.24
8/18/2021 8:15:00 AM 20.04 68.07201 0.337 7.55 513.76 8.28
8/18/2021 8:30:00 AM 20.04 68.07201 0.34 7.55 504.24 8.26
8/18/2021 8:45:00 AM 20.04 68.07201 0.335 7.56 501.61 8.28
8/18/2021 9:00:00 AM 20.04 68.07201 0.34 7.56 495.03 8.18
8/18/2021 9:15:00 AM 20.05 68.09 0.332 7.56 488.66 8.28
8/18/2021 9:30:00 AM 20.07 68.126 0.333 7.57 480.15 7.84
8/18/2021 9:45:00 AM 20.09 68.162 0.333 7.57 475.49 8.29
8/18/2021 10:00:00 AM 20.08 68.144 0.331 7.58 470.95 8.27
8/18/2021 10:15:00 AM 20.08 68.144 0.337 7.58 465.2 7.9
8/18/2021 10:30:00 AM 20.08 68.144 0.337 7.58 464.13 8.18
8/18/2021 10:45:00 AM 20.08 68.144 0.331 7.58 464.14 8.05
8/18/2021 11:00:00 AM 20.07 68.126 0.328 7.56 456.52 7.87
8/18/2021 11:15:00 AM 20.07 68.126 0.326 7.57 454.69 8.3
8/18/2021 11:30:00 AM 20.07 68.126 0.327 7.57 450.84 8.31
8/18/2021 11:45:00 AM 20.08 68.144 0.326 7.56 442.51 8.33
8/18/2021 12:00:00 PM 20.08 68.144 0.326 7.56 440.12 7.98
8/18/2021 12:15:00 PM 20.07 68.126 0.325 7.55 438.61 8.33
8/18/2021 12:30:00 PM 20.06 68.108 0.324 7.55 435.13 8.33
8/18/2021 12:45:00 PM 20.07 68.126 0.323 7.55 430.49 8.05
8/18/2021 1:00:00 PM 20.09 68.162 0.322 7.54 428.58 8.21
8/18/2021 1:15:00 PM 20.04 68.07201 0.317 7.54 430.25 8.33
8/18/2021 1:30:00 PM 20.01 68.018 0.311 7.55 564.31 8.36
8/18/2021 1:45:00 PM 20 68 0.313 7.55 525.91 8.05
8/18/2021 2:00:00 PM 19.98 67.964 0.312 7.54 521.16 8.35
8/18/2021 2:15:00 PM 19.97 67.946 0.313 7.54 500.8 8.12
8/18/2021 2:30:00 PM 20 68 0.312 7.52 479.5 8.26
8/18/2021 2:45:00 PM 20.05 68.09 0.312 7.51 484.48 8.25
8/18/2021 3:00:00 PM 20.1 68.18 0.311 7.5 479.5 8.03
8/18/2021 3:15:00 PM 20.11 68.198 0.306 7.49 493.77 8.26
8/18/2021 3:30:00 PM 20.05 68.09 0.297 7.47 905.42 8.23
8/18/2021 3:45:00 PM 20.06 68.108 0.289 7.46 981.1 8.31
8/18/2021 4:00:00 PM 20.06 68.108 0.285 7.43 1162.48 8.24
8/18/2021 4:15:00 PM 20.06 68.108 0.277 7.4 473.54 8.19
8/18/2021 4:30:00 PM 20.04 68.07201 0.272 7.37 476.01 8.19
8/18/2021 4:45:00 PM 20.05 68.09 0.266 7.33 328.33 8.16
8/18/2021 5:00:00 PM 20.04 68.07201 0.259 7.3 212.31 8.13
8/18/2021 5:15:00 PM 20.04 68.07201 0.256 7.28 176.48 8.11
8/18/2021 5:30:00 PM 20.05 68.09 0.253 7.26 188.98 8.12
8/18/2021 5:45:00 PM 20.05 68.09 0.253 7.26 150.41 8.1
8/18/2021 6:00:00 PM 20.06 68.108 0.254 7.27 140.82 8.11
8/18/2021 6:15:00 PM 20.05 68.09 0.256 7.29 124.8 8.11
8/18/2021 6:30:00 PM 20.04 68.07201 0.26 7.3 93.31 8.12
8/18/2021 6:45:00 PM 20.04 68.07201 0.266 7.32 95.9 8.1
8/18/2021 7:00:00 PM 20.04 68.07201 0.272 7.34 91.07 8.11
8/18/2021 7:15:00 PM 20.04 68.07201 0.277 7.35 97.11 8.09
8/18/2021 7:30:00 PM 20.04 68.07201 0.278 7.36 73.12 8.12
8/18/2021 7:45:00 PM 20.03 68.054 0.275 7.38 72.26 8.09
8/18/2021 8:00:00 PM 20.01 68.018 0.271 7.39 79.24 8.08
8/18/2021 8:15:00 PM 19.99 67.982 0.266 7.39 65.9 8.09
8/18/2021 8:30:00 PM 19.97 67.946 0.262 7.39 98.88 8.07
8/18/2021 8:45:00 PM 19.95 67.91 0.259 7.39 65.99 8.11
8/18/2021 9:00:00 PM 19.93 67.874 0.259 7.39 67.49 8.07
8/18/2021 9:15:00 PM 19.92 67.856 0.26 7.39 66.91 8.12
8/18/2021 9:30:00 PM 19.92 67.856 0.262 7.4 100.87 8.14
8/18/2021 9:45:00 PM 19.92 67.856 0.262 7.41 75.89 8.14
8/18/2021 10:00:00 PM 19.92 67.856 0.259 7.42 81.33 8.14
8/18/2021 10:15:00 PM 19.92 67.856 0.255 7.43 72.1 8.14
8/18/2021 10:30:00 PM 19.92 67.856 0.253 7.43 81.09 8.16
8/18/2021 10:45:00 PM 19.91 67.838 0.255 7.43 93.32 8.15
8/18/2021 11:00:00 PM 19.91 67.838 0.261 7.43 102.19 8.13
8/18/2021 11:15:00 PM 19.91 67.838 0.267 7.43 92.91 8.11
8/18/2021 11:30:00 PM 19.91 67.838 0.272 7.43 103.02 8.09
8/18/2021 11:45:00 PM 19.89 67.802 0.276 7.44 111.25 8.08
8/19/2021 12:00:00 AM 19.88 67.784 0.283 7.44 108.52 8.08
8/19/2021 12:15:00 AM 19.88 67.784 0.29 7.45 105.48 8.07
8/19/2021 12:30:00 AM 19.88 67.784 0.298 7.47 95.5 8.07
8/19/2021 12:45:00 AM 19.89 67.802 0.303 7.48 90.97 8.07
8/19/2021 1:00:00 AM 19.9 67.82 0.305 7.49 92.05 8.08
8/19/2021 1:15:00 AM 19.91 67.838 0.304 7.5 87.9 8.07
8/19/2021 1:30:00 AM 19.91 67.838 0.299 7.51 80.66 8.07
8/19/2021 1:45:00 AM 19.91 67.838 0.292 7.51 90.05 8.08
8/19/2021 2:00:00 AM 19.89 67.802 0.284 7.51 92.06 8.09
8/19/2021 2:15:00 AM 19.87 67.766 0.276 7.51 91.53 8.09
8/19/2021 2:30:00 AM 19.85 67.73 0.268 7.5 90.8 8.1
8/19/2021 2:45:00 AM 19.82 67.676 0.26 7.5 92.58 8.12
8/19/2021 3:00:00 AM 19.79 67.622 0.253 7.49 90.54 8.11
8/19/2021 3:15:00 AM 19.77 67.586 0.247 7.48 82.47 8.13
8/19/2021 3:30:00 AM 19.75 67.55 0.243 7.48 85.36 8.15
8/19/2021 3:45:00 AM 19.73 67.514 0.24 7.47 81.46 8.15
8/19/2021 4:00:00 AM 19.71 67.478 0.239 7.47 79.28 8.17
8/19/2021 4:15:00 AM 19.69 67.442 0.239 7.46 77.67 8.13
8/19/2021 4:30:00 AM 19.67 67.406 0.24 7.46 72.87 8.15
8/19/2021 4:45:00 AM 19.66 67.388 0.24 7.45 75.24 8.18
8/19/2021 5:00:00 AM 19.64 67.352 0.24 7.45 81.3 8.17
8/19/2021 5:15:00 AM 19.62 67.316 0.24 7.45 69.06 8.17
8/19/2021 5:30:00 AM 19.6 67.28 0.24 7.45 72.44 8.16
8/19/2021 5:45:00 AM 19.58 67.244 0.239 7.44 67.41 8.17
8/19/2021 6:00:00 AM 19.57 67.226 0.237 7.44 66.87 8.19
8/19/2021 6:15:00 AM 19.55 67.19 0.236 7.44 63.09 8.19
8/19/2021 6:30:00 AM 19.53 67.154 0.234 7.43 63.21 8.2
8/19/2021 6:45:00 AM 19.52 67.136 0.232 7.43 231.07 8.23
8/19/2021 7:00:00 AM 19.5 67.1 0.231 7.43 63.45 8.23
8/19/2021 7:15:00 AM 19.49 67.082 0.229 7.42 59.94 8.23
8/19/2021 7:30:00 AM 19.48 67.064 0.227 7.42 57.05 8.24
8/19/2021 7:45:00 AM 19.47 67.046 0.225 7.42 58.09 8.24
8/19/2021 8:00:00 AM 19.46 67.028 0.224 7.42 57.11 8.26
8/19/2021 8:15:00 AM 19.46 67.028 0.223 7.42 60.41 8.21
8/19/2021 8:30:00 AM 19.46 67.028 0.221 7.42 51.56 8.25
8/19/2021 8:45:00 AM 19.46 67.028 0.221 7.42 50.81 8.27
8/19/2021 9:00:00 AM 19.45 67.01 0.22 7.42 49.3 8.27
8/19/2021 9:15:00 AM 19.46 67.028 0.219 7.42 48.06 8.25
8/19/2021 9:30:00 AM 19.47 67.046 0.218 7.42 49.29 8.25
8/19/2021 9:45:00 AM 19.49 67.082 0.218 7.41 68.84 8.28
8/19/2021 10:00:00 AM 19.5 67.1 0.218 7.42 50.06 8.27
8/19/2021 10:15:00 AM 19.52 67.136 0.218 7.42 43.2 8.33
8/19/2021 10:30:00 AM 19.54 67.172 0.218 7.42 51.31 8.31
8/19/2021 10:45:00 AM 19.56 67.208 0.218 7.42 44.81 8.34
8/19/2021 11:00:00 AM 19.63 67.334 0.218 7.42 37.59 8.29
8/19/2021 11:15:00 AM 19.69 67.442 0.218 7.43 41.12 8.21
8/19/2021 11:30:00 AM 19.72 67.496 0.218 7.43 36.61 8.38
8/19/2021 11:45:00 AM 19.76 67.568 0.218 7.43 36.02 8.29
8/19/2021 12:00:00 PM 19.82 67.676 0.218 7.43 35.67 8.37
8/19/2021 12:15:00 PM 20.01 68.018 0.219 7.44 35.58 8.4
8/19/2021 12:30:00 PM 20.12 68.216 0.219 7.44 32.97 8.35
8/19/2021 12:45:00 PM 20.17 68.306 0.219 7.45 34.04 8.37
8/19/2021 1:00:00 PM 20.21 68.378 0.219 7.45 31.54 8.35
8/19/2021 1:15:00 PM 20.27 68.486 0.22 7.45 32.75 8.29
8/19/2021 1:30:00 PM 20.44 68.792 0.22 7.45 33.91 8.35
8/19/2021 1:45:00 PM 20.59 69.062 0.22 7.45 52.5 8.34
8/19/2021 2:00:00 PM 20.73 69.314 0.221 7.46 43.25 8.36
8/19/2021 2:15:00 PM 20.75 69.35 0.221 7.46 61.39 8.27
8/19/2021 2:30:00 PM 20.83 69.494 0.222 7.46 42.85 8.26
8/19/2021 2:45:00 PM 20.92 69.656 0.221 7.46 41.05 8.38
8/19/2021 3:00:00 PM 20.94 69.692 0.222 7.47 43.42 8.32
8/19/2021 3:15:00 PM 20.97 69.746 0.218 7.47 43.58 8.11
8/19/2021 3:30:00 PM 21.05 69.89 0.219 7.47 27.85 8.28
8/19/2021 3:45:00 PM 21.07 69.926 0.22 7.46 26.64 8.21
8/19/2021 4:00:00 PM 21.14 70.052 0.222 7.46 32.59 8.31
8/19/2021 4:15:00 PM 21.12 70.016 0.223 7.46 31.9 8.3
8/19/2021 4:30:00 PM 21.12 70.016 0.224 7.46 55.49 8.23
8/19/2021 4:45:00 PM 21.11 69.998 0.224 7.46 31.18 8.23
8/19/2021 5:00:00 PM 21.09 69.962 0.225 7.47 66.48 8.23
8/19/2021 5:15:00 PM 21.07 69.926 0.226 7.47 60.27 8.18
8/19/2021 5:30:00 PM 21.06 69.908 0.226 7.47 64.23 8.23
8/19/2021 5:45:00 PM 21.06 69.908 0.227 7.47 41.18 8.18
8/19/2021 6:00:00 PM 21.05 69.89 0.227 7.47 55 7.95
8/19/2021 6:15:00 PM 21.04 69.872 0.227 7.46 34.69 8.07
8/19/2021 6:30:00 PM 21.03 69.854 0.228 7.46 91.84 8.03
8/19/2021 6:45:00 PM 21.01 69.818 0.228 7.46 44.18 7.98
8/19/2021 7:00:00 PM 20.99 69.782 0.229 7.45 29.03 7.56
8/19/2021 7:15:00 PM 20.97 69.746 0.229 7.45 28.94 7.98
8/19/2021 7:30:00 PM 20.95 69.71 0.23 7.45 44.19 8.02
8/19/2021 7:45:00 PM 20.92 69.656 0.23 7.45 33.11 8.04
8/19/2021 8:00:00 PM 20.89 69.602 0.231 7.44 29.78 8
8/19/2021 8:15:00 PM 20.86 69.548 0.231 7.44 22.2 8.09
8/19/2021 8:30:00 PM 20.84 69.512 0.232 7.44 20.44 7.96
8/19/2021 8:45:00 PM 20.81 69.458 0.232 7.43 21.16 7.7
8/19/2021 9:00:00 PM 20.77 69.386 0.233 7.43 21.24 8
8/19/2021 9:15:00 PM 20.74 69.332 0.233 7.43 22.68 7.85
8/19/2021 9:30:00 PM 20.71 69.278 0.234 7.43 20.01 8.03
8/19/2021 9:45:00 PM 20.68 69.224 0.234 7.43 21.56 7.94
8/19/2021 10:00:00 PM 20.65 69.17 0.234 7.43 20.51 7.81
8/19/2021 10:15:00 PM 20.62 69.116 0.235 7.43 20.16 7.39
8/19/2021 10:30:00 PM 20.59 69.062 0.235 7.43 19.58 8.01
8/19/2021 10:45:00 PM 20.55 68.99 0.235 7.43 21.42 7.32
8/19/2021 11:00:00 PM 20.52 68.936 0.236 7.43 19.12 7.94
8/19/2021 11:15:00 PM 20.48 68.864 0.237 7.43 22.76 7.72
8/19/2021 11:30:00 PM 20.44 68.792 0.237 7.43 19.85 7.29
8/19/2021 11:45:00 PM 20.41 68.738 0.238 7.43 20.3 7.41
8/20/2021 12:00:00 AM 20.38 68.684 0.238 7.43 21.4 7.45
8/20/2021 12:15:00 AM 20.34 68.612 0.239 7.43 19.34 7.26
8/20/2021 12:30:00 AM 20.31 68.558 0.239 7.43 20.11 7
8/20/2021 12:45:00 AM 20.28 68.504 0.24 7.43 17.67 7.83
8/20/2021 1:00:00 AM 20.25 68.45 0.24 7.43 18.13 7.54
8/20/2021 1:15:00 AM 20.21 68.378 0.241 7.43 17.96 7.81
8/20/2021 1:30:00 AM 20.18 68.324 0.241 7.43 20.64 7.51
8/20/2021 1:45:00 AM 20.16 68.288 0.242 7.43 19.67 7.71
8/20/2021 2:00:00 AM 20.13 68.234 0.243 7.43 20.7 8.07
8/20/2021 2:15:00 AM 20.1 68.18 0.242 7.43 19.08 7.2
8/20/2021 2:30:00 AM 20.07 68.126 0.243 7.43 19.12 8.06
8/20/2021 2:45:00 AM 20.04 68.07201 0.243 7.43 18.35 7.67
8/20/2021 3:00:00 AM 20.02 68.036 0.244 7.43 21.43 7.92
8/20/2021 3:15:00 AM 19.99 67.982 0.244 7.43 19.82 7.76
8/20/2021 3:30:00 AM 19.95 67.91 0.245 7.43 22.2 7.69
8/20/2021 3:45:00 AM 19.92 67.856 0.245 7.43 16.49 8.17
8/20/2021 4:00:00 AM 19.89 67.802 0.246 7.43 18.01 7.6
8/20/2021 4:15:00 AM 19.86 67.748 0.246 7.43 18.22 8.12
8/20/2021 4:30:00 AM 19.84 67.712 0.247 7.43 19.11 8.19
8/20/2021 4:45:00 AM 19.81 67.658 0.247 7.43 23.55 7.93
8/20/2021 5:00:00 AM 19.79 67.622 0.248 7.43 20.86 8.16
8/20/2021 5:15:00 AM 19.76 67.568 0.248 7.43 18.58 7.88
8/20/2021 5:30:00 AM 19.74 67.532 0.248 7.43 17.21 7.99
8/20/2021 5:45:00 AM 19.72 67.496 0.249 7.43 17.15 8.19
8/20/2021 6:00:00 AM 19.7 67.46 0.249 7.43 19.87 8.19
8/20/2021 6:15:00 AM 19.68 67.424 0.25 7.43 18.05 8.21
8/20/2021 6:30:00 AM 19.65 67.37 0.25 7.43 18.15 8.12
8/20/2021 6:45:00 AM 19.64 67.352 0.25 7.43 18.21 8.21
8/20/2021 7:00:00 AM 19.61 67.298 0.251 7.43 16.01 8.26
8/20/2021 7:15:00 AM 19.6 67.28 0.251 7.44 16.91 8.05
8/20/2021 7:30:00 AM 19.58 67.244 0.252 7.44 15.24 8.12
8/20/2021 7:45:00 AM 19.57 67.226 0.252 7.44 15.98 8.21
8/20/2021 8:00:00 AM 19.56 67.208 0.253 7.45 16.26 8.22
8/20/2021 8:15:00 AM 19.55 67.19 0.254 7.45 25.71 8.34
8/20/2021 8:30:00 AM 19.54 67.172 0.254 7.45 16.84 8.24
8/20/2021 8:45:00 AM 19.54 67.172 0.255 7.46 15.21 8.34
8/20/2021 9:00:00 AM 19.54 67.172 0.255 7.46 17.01 8.07
8/20/2021 9:15:00 AM 19.53 67.154 0.255 7.46 16.06 8.34
8/20/2021 9:30:00 AM 19.53 67.154 0.255 7.46 16.22 8.34
8/20/2021 9:45:00 AM 19.54 67.172 0.255 7.47 30.83 8.34
8/20/2021 10:00:00 AM 19.58 67.244 0.256 7.47 14.61 8.21
8/20/2021 10:15:00 AM 19.67 67.406 0.257 7.47 15.19 8.54
8/20/2021 10:30:00 AM 19.67 67.406 0.257 7.48 17.78 8.42
8/20/2021 10:45:00 AM 19.67 67.406 0.257 7.48 18 8.51
8/20/2021 11:00:00 AM 19.74 67.532 0.258 7.48 15.55 8.46
8/20/2021 11:15:00 AM 19.86 67.748 0.258 7.49 15.1 8.6
8/20/2021 11:30:00 AM 20.02 68.036 0.258 7.49 15.63 8.55
8/20/2021 11:45:00 AM 20.16 68.288 0.259 7.51 14.57 8.61
8/20/2021 12:00:00 PM 20.31 68.558 0.259 7.5 13.99 8.55
8/20/2021 12:15:00 PM 20.45 68.81 0.26 7.51 14.67 8.61
8/20/2021 12:30:00 PM 20.59 69.062 0.26 7.53 20.9 8.62
8/20/2021 12:45:00 PM 20.75 69.35 0.26 7.53 14.04 8.66
8/20/2021 1:00:00 PM 20.82 69.476 0.261 7.54 14.8 8.64
8/20/2021 1:15:00 PM 21.08 69.944 0.261 7.54 13.62 8.58
8/20/2021 1:30:00 PM 21.31 70.358 0.262 7.55 18.54 8.65
8/20/2021 1:45:00 PM 21.47 70.646 0.262 7.56 13.58 8.55
8/20/2021 2:00:00 PM 21.7 71.06 0.262 7.57 15.79 8.31
8/20/2021 2:15:00 PM 21.91 71.438 0.263 7.58 13.93 8.58
8/20/2021 2:30:00 PM 22.1 71.78 0.263 7.59 107.16 8.66
8/20/2021 2:45:00 PM 22.22 71.996 0.264 7.6 19.17 8.64
8/20/2021 3:00:00 PM 22.4 72.32 0.264 7.6 369.86 8.63
8/20/2021 3:15:00 PM 22.54 72.57201 0.264 7.61 15.24 8.17
8/20/2021 3:30:00 PM 22.67 72.806 0.265 7.61 280.45 8.47
8/20/2021 3:45:00 PM 22.77 72.986 0.265 7.62 14.15 8.56
8/20/2021 4:00:00 PM 22.86 73.148 0.266 7.62 148.41 8.5
8/20/2021 4:15:00 PM 22.89 73.202 0.266 7.62 13.6 8.32
8/20/2021 4:30:00 PM 22.89 73.202 0.267 7.62 178.24 8.3
8/20/2021 4:45:00 PM 22.77 72.986 0.267 7.62 28.82 8.37
8/20/2021 5:00:00 PM 22.75 72.95 0.268 7.62 81.34 8.3
8/20/2021 5:15:00 PM 22.71 72.878 0.268 7.61 399.65 8.12
8/20/2021 5:30:00 PM 22.67 72.806 0.268 7.6 16.16 8.17
8/20/2021 5:45:00 PM 22.6 72.68 0.269 7.6 104.17 8.15
8/20/2021 6:00:00 PM 22.55 72.59 0.269 7.6 12.47 8.12
8/20/2021 6:15:00 PM 22.51 72.518 0.269 7.6 18.61 8.21
8/20/2021 6:30:00 PM 22.47 72.446 0.27 7.6 13.06 8.2
8/20/2021 6:45:00 PM 22.43 72.374 0.27 7.59 13.48 7.87
8/20/2021 7:00:00 PM 22.38 72.284 0.271 7.58 12.93 8.08
8/20/2021 7:15:00 PM 22.35 72.23 0.272 7.57 55.02 8.02
8/20/2021 7:30:00 PM 22.29 72.122 0.272 7.56 25.11 8
8/20/2021 7:45:00 PM 22.25 72.05 0.273 7.55 14.46 7.97
8/20/2021 8:00:00 PM 22.2 71.96 0.273 7.55 51.54 7.96
8/20/2021 8:15:00 PM 22.15 71.87 0.274 7.54 14.84 7.83
8/20/2021 8:30:00 PM 22.1 71.78 0.274 7.54 12.88 7.92
8/20/2021 8:45:00 PM 22.06 71.708 0.275 7.54 12.71 7.91
8/20/2021 9:00:00 PM 22 71.6 0.275 7.53 14.02 7.87
8/20/2021 9:15:00 PM 21.96 71.528 0.275 7.53 13.31 7.84
8/20/2021 9:30:00 PM 21.9 71.42 0.276 7.53 12.95 7.86
8/20/2021 9:45:00 PM 21.85 71.33 0.276 7.53 12.8 7.86
8/20/2021 10:00:00 PM 21.78 71.204 0.277 7.52 13.44 7.81
8/20/2021 10:15:00 PM 21.71 71.078 0.277 7.51 14.15 7.76
8/20/2021 10:30:00 PM 21.65 70.97 0.277 7.51 13.88 7.78
8/20/2021 10:45:00 PM 21.6 70.88 0.278 7.52 12.64 7.87
8/20/2021 11:00:00 PM 21.53 70.754 0.278 7.52 13.96 7.87
8/20/2021 11:15:00 PM 21.47 70.646 0.279 7.51 14.56 7.7
8/20/2021 11:30:00 PM 21.42 70.556 0.279 7.51 14.3 7.8
8/20/2021 11:45:00 PM 21.37 70.466 0.279 7.51 18.76 7.94
8/21/2021 12:00:00 AM 21.33 70.394 0.28 7.51 17.42 7.79
8/21/2021 12:15:00 AM 21.29 70.32201 0.281 7.51 12.83 7.83
8/21/2021 12:30:00 AM 21.26 70.268 0.281 7.5 12.99 7.79
8/21/2021 12:45:00 AM 21.22 70.196 0.281 7.51 19.57 7.89
8/21/2021 1:00:00 AM 21.2 70.16 0.282 7.51 13.51 7.91
8/21/2021 1:15:00 AM 21.16 70.088 0.282 7.51 15.12 7.86
8/21/2021 1:30:00 AM 21.13 70.034 0.283 7.51 14.5 7.9
8/21/2021 1:45:00 AM 21.1 69.98 0.283 7.51 13.96 7.94
8/21/2021 2:00:00 AM 21.07 69.926 0.283 7.51 13.24 7.93
8/21/2021 2:15:00 AM 21.02 69.836 0.284 7.51 14.11 7.91
8/21/2021 2:30:00 AM 20.99 69.782 0.284 7.51 15.96 7.89
8/21/2021 2:45:00 AM 20.96 69.728 0.285 7.51 14.12 7.92
8/21/2021 3:00:00 AM 20.92 69.656 0.285 7.51 16.92 7.98
8/21/2021 3:15:00 AM 20.88 69.584 0.285 7.51 14.53 7.72
8/21/2021 3:30:00 AM 20.84 69.512 0.286 7.51 13.57 7.86
8/21/2021 3:45:00 AM 20.8 69.44 0.286 7.51 13.14 8.02
8/21/2021 4:00:00 AM 20.76 69.368 0.286 7.52 14.64 7.98
8/21/2021 4:15:00 AM 20.72 69.296 0.287 7.52 12.91 8.03
8/21/2021 4:30:00 AM 20.68 69.224 0.288 7.52 13.56 8.03
8/21/2021 4:45:00 AM 20.63 69.134 0.288 7.52 13.13 8.04
8/21/2021 5:00:00 AM 20.59 69.062 0.288 7.52 13.74 7.97
8/21/2021 5:15:00 AM 20.55 68.99 0.286 7.52 18.88 8
8/21/2021 5:30:00 AM 20.51 68.918 0.289 7.52 14.66 8.02
8/21/2021 5:45:00 AM 20.46 68.828 0.289 7.52 14.54 8
8/21/2021 6:00:00 AM 20.42 68.756 0.289 7.52 13.05 8.1
8/21/2021 6:15:00 AM 20.37 68.666 0.29 7.51 14.36 8.11
8/21/2021 6:30:00 AM 20.34 68.612 0.29 7.52 14.43 8.09
8/21/2021 6:45:00 AM 20.31 68.558 0.291 7.52 21.29 7.88
8/21/2021 7:00:00 AM 20.29 68.522 0.291 7.52 13.48 8.12
8/21/2021 7:15:00 AM 20.28 68.504 0.292 7.52 13.87 8.14
8/21/2021 7:30:00 AM 20.26 68.468 0.292 7.52 13.87 8.15
8/21/2021 7:45:00 AM 20.25 68.45 0.292 7.53 12.4 8.17
8/21/2021 8:00:00 AM 20.26 68.468 0.292 7.52 13.1 8.19
8/21/2021 8:15:00 AM 20.25 68.45 0.293 7.52 23.13 8.19
8/21/2021 8:30:00 AM 20.26 68.468 0.293 7.53 15.19 8.15
8/21/2021 8:45:00 AM 20.27 68.486 0.293 7.55 19.63 8.33
8/21/2021 9:00:00 AM 20.31 68.558 0.293 7.56 12.69 8.45
8/21/2021 9:15:00 AM 20.38 68.684 0.293 7.57 12.31 8.43
8/21/2021 9:30:00 AM 20.43 68.774 0.294 7.58 14.47 8.5
8/21/2021 9:45:00 AM 20.47 68.846 0.294 7.59 11.27 8.53
8/21/2021 10:00:00 AM 20.52 68.936 0.294 7.59 11.65 8.55
8/21/2021 10:15:00 AM 20.61 69.098 0.294 7.6 11.79 8.54
8/21/2021 10:30:00 AM 20.63 69.134 0.294 7.6 12.21 8.58
8/21/2021 10:45:00 AM 20.73 69.314 0.294 7.6 12.05 8.56
8/21/2021 11:00:00 AM 20.85 69.53 0.294 7.6 11.76 8.63
8/21/2021 11:15:00 AM 20.87 69.566 0.294 7.62 12.07 8.58
8/21/2021 11:30:00 AM 20.89 69.602 0.294 7.62 11.62 8.59
8/21/2021 11:45:00 AM 20.87 69.566 0.294 7.63 11.6 8.64
8/21/2021 12:00:00 PM 20.89 69.602 0.294 7.63 11.59 8.58
8/21/2021 12:15:00 PM 20.93 69.674 0.294 7.64 11.51 8.68
8/21/2021 12:30:00 PM 21.11 69.998 0.295 7.64 11.66 8.71
8/21/2021 12:45:00 PM 21.26 70.268 0.296 7.65 11.41 8.74
8/21/2021 1:00:00 PM 21.53 70.754 0.297 7.65 11.24 8.76
8/21/2021 1:15:00 PM 21.69 71.042 0.297 7.65 11.9 8.78
8/21/2021 1:30:00 PM 21.85 71.33 0.297 7.68 11.73 8.8
8/21/2021 1:45:00 PM 22.25 72.05 0.297 7.69 11.57 8.85
8/21/2021 2:00:00 PM 22.41 72.338 0.297 7.73 13.17 8.86
8/21/2021 2:15:00 PM 22.56 72.608 0.297 7.73 11.41 8.87
8/21/2021 2:30:00 PM 22.43 72.374 0.297 7.75 11.27 8.84
8/21/2021 2:45:00 PM 22.35 72.23 0.297 7.76 11.65 8.69
8/21/2021 3:00:00 PM 22.34 72.212 0.298 7.75 11.25 8.63
8/21/2021 3:15:00 PM 22.37 72.266 0.298 7.73 11.45 8.55
8/21/2021 3:30:00 PM 22.35 72.23 0.298 7.73 11.69 8.49
8/21/2021 3:45:00 PM 22.43 72.374 0.297 7.72 11.48 8.41
8/21/2021 4:00:00 PM 22.47 72.446 0.295 7.71 11.32 8.39
8/21/2021 4:15:00 PM 22.52 72.536 0.297 7.7 11.68 8.35
8/21/2021 4:30:00 PM 22.77 72.986 0.297 7.71 11.98 8.44
8/21/2021 4:45:00 PM 22.92 73.256 0.297 7.73 11.32 8.46
8/21/2021 5:00:00 PM 23.02 73.436 0.296 7.73 11.12 8.39
8/21/2021 5:15:00 PM 23.16 73.688 0.297 7.73 12.07 8.31
8/21/2021 5:30:00 PM 23.24 73.832 0.297 7.73 11.77 8.26
8/21/2021 5:45:00 PM 23.29 73.922 0.297 7.73 12.42 8.19
8/21/2021 6:00:00 PM 23.28 73.904 0.294 7.73 11.99 8.07
8/21/2021 6:15:00 PM 23.26 73.868 0.295 7.7 16.32 7.99
8/21/2021 6:30:00 PM 23.21 73.778 0.292 7.68 12.76 7.87
8/21/2021 6:45:00 PM 23.19 73.742 0.291 7.67 12.14 7.89
8/21/2021 7:00:00 PM 23.14 73.652 0.29 7.66 12.12 7.81
8/21/2021 7:15:00 PM 23.08 73.544 0.29 7.64 12.61 7.82
8/21/2021 7:30:00 PM 23.06 73.508 0.291 7.63 16.31 7.83
8/21/2021 7:45:00 PM 23 73.4 0.292 7.63 13.45 7.8
8/21/2021 8:00:00 PM 22.91 73.238 0.293 7.62 13.29 7.81
8/21/2021 8:15:00 PM 22.78 73.004 0.292 7.62 13.96 7.79
8/21/2021 8:30:00 PM 22.59 72.662 0.291 7.61 15.34 7.82
8/21/2021 8:45:00 PM 22.48 72.464 0.292 7.6 16.14 7.78
8/21/2021 9:00:00 PM 22.38 72.284 0.292 7.59 20.5 7.58
8/21/2021 9:15:00 PM 22.3 72.14 0.292 7.58 17.15 7.78
8/21/2021 9:30:00 PM 22.22 71.996 0.291 7.57 20.69 7.77
8/21/2021 9:45:00 PM 22.15 71.87 0.292 7.57 30.31 7.74
8/21/2021 10:00:00 PM 22.06 71.708 0.292 7.56 22.38 7.74
8/21/2021 10:15:00 PM 21.94 71.492 0.292 7.56 20.99 7.81
8/21/2021 10:30:00 PM 21.81 71.258 0.292 7.55 19.22 7.8
8/21/2021 10:45:00 PM 21.75 71.15 0.293 7.55 18.05 7.78
8/21/2021 11:00:00 PM 21.69 71.042 0.294 7.55 22.04 7.74
8/21/2021 11:15:00 PM 21.64 70.952 0.294 7.54 15.67 7.86
8/21/2021 11:30:00 PM 21.58 70.844 0.294 7.54 16.04 7.79
8/21/2021 11:45:00 PM 21.53 70.754 0.294 7.54 16.91 7.8
8/22/2021 12:00:00 AM 21.46 70.628 0.293 7.53 18.49 7.76
8/22/2021 12:15:00 AM 21.41 70.538 0.294 7.53 17.65 7.78
8/22/2021 12:30:00 AM 21.36 70.448 0.294 7.53 17.43 7.86
8/22/2021 12:45:00 AM 21.3 70.34 0.296 7.53 17.3 7.81
8/22/2021 1:00:00 AM 21.25 70.25 0.297 7.53 15.58 7.89
8/22/2021 1:15:00 AM 21.2 70.16 0.298 7.53 16.57 7.86
8/22/2021 1:30:00 AM 21.16 70.088 0.3 7.53 14.09 7.9
8/22/2021 1:45:00 AM 21.12 70.016 0.301 7.53 13.93 7.91
8/22/2021 2:00:00 AM 21.08 69.944 0.302 7.53 13.67 7.71
8/22/2021 2:15:00 AM 21.04 69.872 0.303 7.52 13.13 7.92
8/22/2021 2:30:00 AM 21 69.8 0.305 7.53 13.24 7.94
8/22/2021 2:45:00 AM 20.95 69.71 0.306 7.53 13.15 7.92
8/22/2021 3:00:00 AM 20.92 69.656 0.307 7.54 13.18 7.98
8/22/2021 3:15:00 AM 20.87 69.566 0.307 7.52 13.29 7.89
8/22/2021 3:30:00 AM 20.85 69.53 0.308 7.53 13.24 7.95
8/22/2021 3:45:00 AM 20.8 69.44 0.309 7.54 13 7.91
8/22/2021 4:00:00 AM 20.77 69.386 0.31 7.54 12.21 7.99
8/22/2021 4:15:00 AM 20.73 69.314 0.311 7.53 12.22 7.97
8/22/2021 4:30:00 AM 20.69 69.242 0.311 7.54 12.24 7.96
8/22/2021 4:45:00 AM 20.67 69.206 0.312 7.54 12.58 8.01
8/22/2021 5:00:00 AM 20.63 69.134 0.313 7.54 12.22 7.98
8/22/2021 5:15:00 AM 20.61 69.098 0.313 7.54 13.07 7.8
8/22/2021 5:30:00 AM 20.58 69.044 0.314 7.54 12.71 8.01
8/22/2021 5:45:00 AM 20.55 68.99 0.314 7.55 12.7 8.02
8/22/2021 6:00:00 AM 20.52 68.936 0.315 7.55 11.89 7.99
8/22/2021 6:15:00 AM 20.49 68.882 0.315 7.55 20.58 8.06
8/22/2021 6:30:00 AM 20.45 68.81 0.316 7.55 13.72 8.05
8/22/2021 6:45:00 AM 20.42 68.756 0.316 7.54 12.85 8.06
8/22/2021 7:00:00 AM 20.39 68.702 0.317 7.54 12.93 8.08
8/22/2021 7:15:00 AM 20.36 68.648 0.317 7.54 20.3 8.03
8/22/2021 7:30:00 AM 20.35 68.63 0.318 7.55 13 8.04
8/22/2021 7:45:00 AM 20.33 68.594 0.318 7.53 21.14 8.11
8/22/2021 8:00:00 AM 20.31 68.558 0.318 7.55 12.77 8.03
8/22/2021 8:15:00 AM 20.31 68.558 0.319 7.56 15.62 8.22
8/22/2021 8:30:00 AM 20.3 68.54 0.319 7.57 15.13 8.28
8/22/2021 8:45:00 AM 20.31 68.558 0.32 7.58 14.57 8.25
8/22/2021 9:00:00 AM 20.32 68.576 0.32 7.59 14.6 8.18
8/22/2021 9:15:00 AM 20.33 68.594 0.32 7.6 16.35 8.43
8/22/2021 9:30:00 AM 20.35 68.63 0.321 7.6 12.47 8.44
8/22/2021 9:45:00 AM 20.41 68.738 0.32 7.6 12.47 8.51
8/22/2021 10:00:00 AM 20.46 68.828 0.321 7.62 12.35 8.64
8/22/2021 10:15:00 AM 20.51 68.918 0.321 7.62 11.71 8.62
8/22/2021 10:30:00 AM 20.58 69.044 0.322 7.64 50.19 8.75
8/22/2021 10:45:00 AM 20.66 69.188 0.322 7.65 12.36 8.74
8/22/2021 11:00:00 AM 20.7 69.26 0.322 7.67 15.62 8.86
8/22/2021 11:15:00 AM 20.78 69.404 0.323 7.69 21.77 8.88
8/22/2021 11:30:00 AM 20.85 69.53 0.323 7.7 12.32 8.87
8/22/2021 11:45:00 AM 20.96 69.728 0.323 7.7 11.85 8.83
8/22/2021 12:00:00 PM 21.1 69.98 0.323 7.71 15.68 8.75
8/22/2021 12:15:00 PM 21.28 70.304 0.325 7.71 12.28 8.68
8/22/2021 12:30:00 PM 21.49 70.682 0.325 7.71 12.5 8.79
8/22/2021 12:45:00 PM 21.64 70.952 0.325 7.72 24.67 8.63
8/22/2021 1:00:00 PM 21.88 71.384 0.326 7.71 12.12 8.84
8/22/2021 1:15:00 PM 22 71.6 0.326 7.75 12.4 8.88
8/22/2021 1:30:00 PM 22.23 72.014 0.326 7.75 64.5 8.87
8/22/2021 1:45:00 PM 22.34 72.212 0.326 7.76 12.91 8.92
8/22/2021 2:00:00 PM 22.37 72.266 0.326 7.78 11.95 8.93
8/22/2021 2:15:00 PM 22.59 72.662 0.326 7.81 21.97 9.08
8/22/2021 2:30:00 PM 22.67 72.806 0.327 7.8 44.02 8.97
8/22/2021 2:45:00 PM 22.58 72.644 0.327 7.83 18.43 8.94
8/22/2021 3:00:00 PM 22.67 72.806 0.327 7.85 12.67 8.91
8/22/2021 3:15:00 PM 22.6 72.68 0.327 7.83 15.91 8.38
8/22/2021 3:30:00 PM 22.55 72.59 0.327 7.82 20.27 8.47
8/22/2021 3:45:00 PM 22.52 72.536 0.327 7.8 17.77 8.5
8/22/2021 4:00:00 PM 22.53 72.554 0.328 7.79 17.4 8.48
8/22/2021 4:15:00 PM 22.54 72.57201 0.328 7.78 14.25 8.31
8/22/2021 4:30:00 PM 22.53 72.554 0.328 7.79 12.26 8.42
8/22/2021 4:45:00 PM 22.57 72.626 0.328 7.78 12.73 8.46
8/22/2021 5:00:00 PM 22.58 72.644 0.328 7.78 12.13 8.49
8/22/2021 5:15:00 PM 22.57 72.626 0.329 7.78 12.35 8.39
8/22/2021 5:30:00 PM 22.53 72.554 0.329 7.77 15.37 8.06
8/22/2021 5:45:00 PM 22.51 72.518 0.329 7.76 12.35 8.31
8/22/2021 6:00:00 PM 22.5 72.5 0.329 7.75 12.44 8.17
8/22/2021 6:15:00 PM 22.47 72.446 0.33 7.74 13.02 7.89
8/22/2021 6:30:00 PM 22.42 72.356 0.33 7.73 12.18 7.68
8/22/2021 6:45:00 PM 22.39 72.302 0.33 7.71 11.83 7.61
8/22/2021 7:00:00 PM 22.33 72.194 0.331 7.7 11.95 7.81
8/22/2021 7:15:00 PM 22.29 72.122 0.331 7.69 13.05 7.73
8/22/2021 7:30:00 PM 22.25 72.05 0.332 7.68 12.59 7.9
8/22/2021 7:45:00 PM 22.21 71.978 0.332 7.67 14.47 7.84
8/22/2021 8:00:00 PM 22.16 71.888 0.332 7.66 14.04 7.81
8/22/2021 8:15:00 PM 22.11 71.798 0.333 7.66 11.59 7.87
8/22/2021 8:30:00 PM 22.07 71.726 0.333 7.65 13.51 7.89
8/22/2021 8:45:00 PM 22.01 71.618 0.333 7.64 13.31 7.79
8/22/2021 9:00:00 PM 21.98 71.564 0.334 7.63 12.18 7.84
8/22/2021 9:15:00 PM 21.92 71.456 0.334 7.63 11.86 7.78
8/22/2021 9:30:00 PM 21.87 71.366 0.334 7.63 12.74 7.82
8/22/2021 9:45:00 PM 21.81 71.258 0.335 7.62 11.69 7.85
8/22/2021 10:00:00 PM 21.76 71.168 0.335 7.63 12.5 7.86
8/22/2021 10:15:00 PM 21.7 71.06 0.335 7.62 12.29 7.87
8/22/2021 10:30:00 PM 21.65 70.97 0.335 7.62 11.9 7.83
8/22/2021 10:45:00 PM 21.6 70.88 0.336 7.62 12.3 7.81
8/22/2021 11:00:00 PM 21.55 70.79 0.336 7.62 11.97 7.84
8/22/2021 11:15:00 PM 21.49 70.682 0.337 7.61 11.77 7.7
8/22/2021 11:30:00 PM 21.45 70.61 0.337 7.62 12.17 7.89
8/22/2021 11:45:00 PM 21.41 70.538 0.337 7.61 12.02 7.9
8/23/2021 12:00:00 AM 21.36 70.448 0.338 7.61 11.81 7.91
8/23/2021 12:15:00 AM 21.3 70.34 0.338 7.61 11.8 7.86
8/23/2021 12:30:00 AM 21.27 70.286 0.339 7.61 12.06 7.93
8/23/2021 12:45:00 AM 21.23 70.214 0.339 7.61 11.97 7.91
8/23/2021 1:00:00 AM 21.2 70.16 0.34 7.61 11.89 7.91
8/23/2021 1:15:00 AM 21.16 70.088 0.34 7.61 12.49 7.74
8/23/2021 1:30:00 AM 21.12 70.016 0.34 7.61 11.58 7.82
8/23/2021 1:45:00 AM 21.07 69.926 0.34 7.61 11.78 7.9
8/23/2021 2:00:00 AM 21.04 69.872 0.341 7.61 38.26 7.93
8/23/2021 2:15:00 AM 20.99 69.782 0.341 7.61 13.66 7.9
8/23/2021 2:30:00 AM 20.95 69.71 0.341 7.61 11.91 7.96
8/23/2021 2:45:00 AM 20.9 69.62 0.341 7.6 11.66 7.91
8/23/2021 3:00:00 AM 20.87 69.566 0.342 7.6 12.39 7.99
8/23/2021 3:15:00 AM 20.82 69.476 0.342 7.61 11.76 7.97
8/23/2021 3:30:00 AM 20.76 69.368 0.342 7.6 12.27 7.99
8/23/2021 3:45:00 AM 20.73 69.314 0.342 7.6 12.33 7.96
8/23/2021 4:00:00 AM 20.69 69.242 0.342 7.6 12.48 7.92
8/23/2021 4:15:00 AM 20.65 69.17 0.343 7.6 12.28 7.94
8/23/2021 4:30:00 AM 20.6 69.08 0.343 7.59 11.92 7.82
8/23/2021 4:45:00 AM 20.55 68.99 0.343 7.6 11.94 7.76
8/23/2021 5:00:00 AM 20.51 68.918 0.343 7.6 11.9 7.93
8/23/2021 5:15:00 AM 20.46 68.828 0.343 7.6 12.01 8
8/23/2021 5:30:00 AM 20.44 68.792 0.343 7.6 12.02 8.01
8/23/2021 5:45:00 AM 20.41 68.738 0.344 7.59 12.7 8.04
8/23/2021 6:00:00 AM 20.39 68.702 0.344 7.6 12.71 8.05
8/23/2021 6:15:00 AM 20.36 68.648 0.344 7.6 14.02 8.08
8/23/2021 6:30:00 AM 20.33 68.594 0.344 7.59 14.09 7.96
8/23/2021 6:45:00 AM 20.31 68.558 0.344 7.59 12.84 7.96
8/23/2021 7:00:00 AM 20.29 68.522 0.344 7.59 12.66 8.1
8/23/2021 7:15:00 AM 20.27 68.486 0.345 7.6 12.5 7.98
8/23/2021 7:30:00 AM 20.25 68.45 0.345 7.59 15.54 8.03
8/23/2021 7:45:00 AM 20.25 68.45 0.345 7.51 19.49 7.95
8/23/2021 8:00:00 AM 20.25 68.45 0.345 7.56 23.81 7.88
8/23/2021 8:15:00 AM 20.25 68.45 0.345 7.58 11.78 8.16
8/23/2021 8:30:00 AM 20.25 68.45 0.345 7.61 12.04 8.41
8/23/2021 8:45:00 AM 20.27 68.486 0.345 7.62 11.69 8.45
8/23/2021 9:00:00 AM 20.29 68.522 0.344 7.62 11.78 8.43
8/23/2021 9:15:00 AM 20.35 68.63 0.343 7.64 13.05 8.51
8/23/2021 9:30:00 AM 20.38 68.684 0.344 7.64 13.18 8.49
8/23/2021 9:45:00 AM 20.44 68.792 0.344 7.65 12.34 8.67
8/23/2021 10:00:00 AM 20.52 68.936 0.344 7.69 12.62 8.8
8/23/2021 10:15:00 AM 20.65 69.17 0.344 7.7 12.34 8.72
8/23/2021 10:30:00 AM 20.72 69.296 0.344 7.7 12.15 8.78
8/23/2021 10:45:00 AM 20.82 69.476 0.345 7.72 12.33 8.8
8/23/2021 11:00:00 AM 20.97 69.746 0.344 7.74 16.15 8.92
8/23/2021 11:15:00 AM 21.07 69.926 0.345 7.75 234.48 8.93
8/23/2021 11:30:00 AM 21.21 70.17799 0.345 7.77 12.38 8.88
8/23/2021 11:45:00 AM 21.37 70.466 0.345 7.79 12.23 8.98
8/23/2021 12:00:00 PM 21.57 70.826 0.345 7.79 11.87 8.97
8/23/2021 12:15:00 PM 21.77 71.186 0.345 7.8 17.74 9.02
8/23/2021 12:30:00 PM 21.87 71.366 0.345 7.82 15.28 8.99
8/23/2021 12:45:00 PM 22.01 71.618 0.345 7.83 20.85 8.98
8/23/2021 1:00:00 PM 22.09 71.762 0.345 7.82 12.61 8.66
8/23/2021 1:15:00 PM 22.22 71.996 0.345 7.83 16.61 9.03
8/23/2021 1:30:00 PM 22.57 72.626 0.344 7.85 18.7 9.05
8/23/2021 1:45:00 PM 22.6 72.68 0.344 7.86 28.64 8.98
8/23/2021 2:00:00 PM 22.9 73.22 0.345 7.87 75.05 8.96
8/23/2021 2:15:00 PM 23.13 73.634 0.345 7.89 33.49 9.08
8/23/2021 2:30:00 PM 23.36 74.048 0.345 7.91 317.75 8.88
8/23/2021 2:45:00 PM 23.55 74.39 0.345 7.92 290.56 8.83
8/23/2021 3:00:00 PM 23.77 74.786 0.346 7.93 64.99 8.93
8/23/2021 3:15:00 PM 23.84 74.912 0.346 7.94 42.61 8.6
8/23/2021 3:30:00 PM 23.66 74.588 0.346 7.93 15.32 8.15
8/23/2021 3:45:00 PM 23.57 74.426 0.346 7.94 15.12 8.23
8/23/2021 4:00:00 PM 23.47 74.246 0.346 7.96 14.86 8.45
8/23/2021 4:15:00 PM 23.79 74.82201 0.346 7.95 15.03 8.39
8/23/2021 4:30:00 PM 24.02 75.236 0.346 7.95 14.87 8.73
8/23/2021 4:45:00 PM 24.12 75.416 0.346 7.95 17.15 8.56
8/23/2021 5:00:00 PM 24.16 75.488 0.346 7.95 18.32 8.05
8/23/2021 5:15:00 PM 24 75.2 0.347 7.96 16.36 8.24
8/23/2021 5:30:00 PM 23.97 75.146 0.347 7.94 24.76 8.08
8/23/2021 5:45:00 PM 23.99 75.182 0.347 7.93 14.8 8.08
8/23/2021 6:00:00 PM 23.97 75.146 0.348 7.92 14.9 8.01
8/23/2021 6:15:00 PM 23.96 75.128 0.348 7.91 15.67 7.98
8/23/2021 6:30:00 PM 23.92 75.056 0.348 7.9 14.63 7.44
8/23/2021 6:45:00 PM 23.85 74.93 0.349 7.88 16.07 7.62
8/23/2021 7:00:00 PM 23.79 74.82201 0.349 7.86 15.8 7.47
8/23/2021 7:15:00 PM 23.73 74.714 0.349 7.85 17.97 7.69
8/23/2021 7:30:00 PM 23.67 74.606 0.349 7.84 12.55 7.67
8/23/2021 7:45:00 PM 23.59 74.462 0.35 7.82 12.61 7.78
8/23/2021 8:00:00 PM 23.52 74.336 0.35 7.8 12.47 7.23
8/23/2021 8:15:00 PM 23.44 74.192 0.35 7.78 12.17 6.95
8/23/2021 8:30:00 PM 23.37 74.066 0.351 7.76 12.36 7.39
8/23/2021 8:45:00 PM 23.31 73.958 0.351 7.74 11.91 6.77
8/23/2021 9:00:00 PM 23.24 73.832 0.351 7.73 12.48 7.21
8/23/2021 9:15:00 PM 23.19 73.742 0.351 7.72 12.12 6.49
8/23/2021 9:30:00 PM 23.12 73.616 0.352 7.71 12.44 6.88
8/23/2021 9:45:00 PM 23.06 73.508 0.352 7.71 12.66 6.41
8/23/2021 10:00:00 PM 23 73.4 0.353 7.71 12.45 7.21
8/23/2021 10:15:00 PM 22.95 73.31 0.353 7.7 11.92 6.76
8/23/2021 10:30:00 PM 22.88 73.184 0.353 7.7 12.03 6.78
8/23/2021 10:45:00 PM 22.83 73.094 0.354 7.7 12.01 6.63
8/23/2021 11:00:00 PM 22.75 72.95 0.354 7.69 11.81 5.94
8/23/2021 11:15:00 PM 22.69 72.842 0.354 7.69 12.11 6.61
8/23/2021 11:30:00 PM 22.63 72.734 0.355 7.69 14.51 6.8
8/23/2021 11:45:00 PM 22.55 72.59 0.355 7.68 12.07 6.75
8/24/2021 12:00:00 AM 22.48 72.464 0.355 7.68 12.31 6.89
8/24/2021 12:15:00 AM 22.4 72.32 0.356 7.69 11.98 6.75
8/24/2021 12:30:00 AM 22.33 72.194 0.356 7.68 11.95 6.53
8/24/2021 12:45:00 AM 22.24 72.032 0.357 7.68 12.17 7.12
8/24/2021 1:00:00 AM 22.16 71.888 0.357 7.68 11.87 6.54
8/24/2021 1:15:00 AM 22.07 71.726 0.357 7.68 11.97 6.04
8/24/2021 1:30:00 AM 21.98 71.564 0.357 7.68 11.91 6.58
8/24/2021 1:45:00 AM 21.89 71.402 0.357 7.67 12.06 5.79
8/24/2021 2:00:00 AM 21.81 71.258 0.358 7.67 12.06 6.44
8/24/2021 2:15:00 AM 21.75 71.15 0.358 7.67 11.99 6.25
8/24/2021 2:30:00 AM 21.66 70.988 0.358 7.67 11.92 6.5
8/24/2021 2:45:00 AM 21.58 70.844 0.358 7.67 12.01 6.87
8/24/2021 3:00:00 AM 21.49 70.682 0.359 7.65 12.4 6.75
8/24/2021 3:15:00 AM 21.42 70.556 0.359 7.64 11.83 6.73
8/24/2021 3:30:00 AM 21.35 70.43 0.359 7.64 12.52 6.37
8/24/2021 3:45:00 AM 21.27 70.286 0.359 7.66 12.01 6.19
8/24/2021 4:00:00 AM 21.2 70.16 0.359 7.66 12.22 6.07
8/24/2021 4:15:00 AM 21.14 70.052 0.359 7.66 18.92 6.97
8/24/2021 4:30:00 AM 21.08 69.944 0.36 7.67 12.19 7.33
8/24/2021 4:45:00 AM 21.03 69.854 0.36 7.67 12.35 7.11
8/24/2021 5:00:00 AM 20.97 69.746 0.36 7.66 12.57 7.56
8/24/2021 5:15:00 AM 20.91 69.638 0.36 7.66 12.21 7.7
8/24/2021 5:30:00 AM 20.85 69.53 0.36 7.66 12.31 7.1
8/24/2021 5:45:00 AM 20.8 69.44 0.361 7.66 17.4 7.3
8/24/2021 6:00:00 AM 20.75 69.35 0.361 7.64 14.93 7.8
8/24/2021 6:15:00 AM 20.7 69.26 0.361 7.65 18.49 7.93
8/24/2021 6:30:00 AM 20.65 69.17 0.361 7.65 13.25 7.88
8/24/2021 6:45:00 AM 20.6 69.08 0.361 7.65 14.08 7.81
8/24/2021 7:00:00 AM 20.55 68.99 0.361 7.65 15.25 7.86
8/24/2021 7:15:00 AM 20.52 68.936 0.362 7.66 13.71 7.85
8/24/2021 7:30:00 AM 20.48 68.864 0.362 7.66 13.39 7.9
8/24/2021 7:45:00 AM 20.44 68.792 0.362 7.67 13.33 8.05
8/24/2021 8:00:00 AM 20.41 68.738 0.362 7.67 13.05 7.9
8/24/2021 8:15:00 AM 20.41 68.738 0.362 7.68 13.1 7.92
8/24/2021 8:30:00 AM 20.42 68.756 0.362 7.69 13.33 8.12
8/24/2021 8:45:00 AM 20.41 68.738 0.362 7.69 12.93 8.03
8/24/2021 9:00:00 AM 20.43 68.774 0.362 7.69 13.08 8.32
8/24/2021 9:15:00 AM 20.48 68.864 0.363 7.7 12.96 8.11
8/24/2021 9:30:00 AM 20.55 68.99 0.363 7.71 17.67 8.49
8/24/2021 9:45:00 AM 20.63 69.134 0.363 7.72 14.36 8.55
8/24/2021 10:00:00 AM 20.71 69.278 0.363 7.73 14.41 8.72
8/24/2021 10:15:00 AM 20.78 69.404 0.363 7.74 13.99 8.61
8/24/2021 10:30:00 AM 20.88 69.584 0.364 7.74 13.93 8.79
8/24/2021 10:45:00 AM 20.97 69.746 0.364 7.74 15.18 8.68
8/24/2021 11:00:00 AM 21.05 69.89 0.365 7.75 14.2 8.78
8/24/2021 11:15:00 AM 21.14 70.052 0.364 7.76 13.99 8.86
8/24/2021 11:30:00 AM 21.29 70.32201 0.364 7.8 14.28 8.9
8/24/2021 11:45:00 AM 21.41 70.538 0.365 7.83 14.08 8.92
8/24/2021 12:00:00 PM 21.57 70.826 0.365 7.86 14.02 8.98
8/24/2021 12:15:00 PM 21.72 71.096 0.365 7.87 13.97 8.48
8/24/2021 12:30:00 PM 21.9 71.42 0.365 7.89 15.18 9.11
8/24/2021 12:45:00 PM 22.11 71.798 0.366 7.91 13.52 8.58
8/24/2021 1:00:00 PM 22.29 72.122 0.366 7.93 13.47 9.07
8/24/2021 1:15:00 PM 22.43 72.374 0.366 7.96 13.58 8.68
8/24/2021 1:30:00 PM 22.67 72.806 0.366 7.96 13.46 9.03
8/24/2021 1:45:00 PM 22.93 73.274 0.366 7.98 13.51 9.12
8/24/2021 2:00:00 PM 23.13 73.634 0.367 7.99 13.63 9.02
8/24/2021 2:15:00 PM 23.36 74.048 0.367 8 13.54 9.09
8/24/2021 2:30:00 PM 23.59 74.462 0.366 8.02 13.63 9.19
8/24/2021 2:45:00 PM 23.83 74.894 0.366 8.02 13.62 9.05
8/24/2021 3:00:00 PM 24 75.2 0.366 8.03 15.57 8.91
8/24/2021 3:15:00 PM 24.21 75.578 0.366 8.05 32.49 9.09
8/24/2021 3:30:00 PM 24.32 75.776 0.367 8.05 13.53 8.98
8/24/2021 3:45:00 PM 24.45 76.01 0.367 8.06 15.77 8.77
8/24/2021 4:00:00 PM 24.59 76.262 0.368 8.07 14.69 8.88
8/24/2021 4:15:00 PM 24.67 76.406 0.368 8.07 15.74 8.83
8/24/2021 4:30:00 PM 24.7 76.46 0.369 8.07 15.08 8.69
8/24/2021 4:45:00 PM 24.73 76.514 0.369 8.07 17.8 8.77
8/24/2021 5:00:00 PM 24.69 76.442 0.369 8.07 15.07 8.14
8/24/2021 5:15:00 PM 24.64 76.352 0.369 8.07 15.1 7.88
8/24/2021 5:30:00 PM 24.59 76.262 0.369 8.06 13.88 8.36
8/24/2021 5:45:00 PM 24.51 76.118 0.37 8.05 13.24 7.56
8/24/2021 6:00:00 PM 24.43 75.974 0.37 8.04 14.94 8.24
8/24/2021 6:15:00 PM 24.38 75.884 0.37 8.02 14.19 8.03
8/24/2021 6:30:00 PM 24.32 75.776 0.371 8 21.28 7.16
8/24/2021 6:45:00 PM 24.23 75.614 0.371 7.97 14.05 7.75
8/24/2021 7:00:00 PM 24.12 75.416 0.371 7.95 14.77 7.24
8/24/2021 7:15:00 PM 24.02 75.236 0.371 7.93 17.8 7.74
8/24/2021 7:30:00 PM 23.92 75.056 0.372 7.91 13.35 7.35
8/24/2021 7:45:00 PM 23.82 74.876 0.372 7.89 13.45 7.19
8/24/2021 8:00:00 PM 23.71 74.67799 0.372 7.87 14.79 7.47
8/24/2021 8:15:00 PM 23.62 74.516 0.373 7.82 13.42 7.2
8/24/2021 8:30:00 PM 23.53 74.354 0.373 7.82 13.29 6.88
8/24/2021 8:45:00 PM 23.44 74.192 0.373 7.81 13.16 6.8
8/24/2021 9:00:00 PM 23.36 74.048 0.373 7.81 13.28 7.43
8/24/2021 9:15:00 PM 23.29 73.922 0.373 7.79 12.87 7.13
8/24/2021 9:30:00 PM 23.22 73.796 0.373 7.79 12.91 7.36
8/24/2021 9:45:00 PM 23.14 73.652 0.374 7.78 13.11 7.02
8/24/2021 10:00:00 PM 23.07 73.526 0.374 7.77 13.24 6.93
8/24/2021 10:15:00 PM 22.99 73.382 0.374 7.77 13.34 6.83
8/24/2021 10:30:00 PM 22.92 73.256 0.374 7.77 13.47 7.42
8/24/2021 10:45:00 PM 22.86 73.148 0.374 7.76 12.96 7.01
8/24/2021 11:00:00 PM 22.79 73.022 0.375 7.76 12.91 6.9
8/24/2021 11:15:00 PM 22.73 72.914 0.375 7.75 13.75 6.68
8/24/2021 11:30:00 PM 22.66 72.788 0.375 7.75 12.97 6.83
8/24/2021 11:45:00 PM 22.59 72.662 0.376 7.75 13.85 7.21
8/25/2021 12:00:00 AM 22.51 72.518 0.376 7.75 13 7.2
8/25/2021 12:15:00 AM 22.43 72.374 0.376 7.75 13.03 7.18
8/25/2021 12:30:00 AM 22.35 72.23 0.377 7.74 12.85 7.58
8/25/2021 12:45:00 AM 22.27 72.086 0.377 7.74 12.92 7.41
8/25/2021 1:00:00 AM 22.19 71.942 0.377 7.74 13.46 6.69
8/25/2021 1:15:00 AM 22.1 71.78 0.378 7.73 12.87 7.13
8/25/2021 1:30:00 AM 22.01 71.618 0.378 7.73 13.03 7.53
8/25/2021 1:45:00 AM 21.9 71.42 0.379 7.73 12.97 7.55
8/25/2021 2:00:00 AM 21.8 71.24 0.379 7.73 13.07 7.09
8/25/2021 2:15:00 AM 21.7 71.06 0.38 7.72 13.02 7.04
8/25/2021 2:30:00 AM 21.6 70.88 0.38 7.73 13.34 6.54
8/25/2021 2:45:00 AM 21.5 70.7 0.38 7.72 13.24 6.35
8/25/2021 3:00:00 AM 21.39 70.502 0.381 7.72 26.04 7.63
8/25/2021 3:15:00 AM 21.29 70.32201 0.381 7.72 14.37 6.86
8/25/2021 3:30:00 AM 21.2 70.16 0.381 7.72 13.39 6.95
8/25/2021 3:45:00 AM 21.1 69.98 0.381 7.72 13.56 6.47
8/25/2021 4:00:00 AM 21.01 69.818 0.382 7.71 27.35 6.66
8/25/2021 4:15:00 AM 20.93 69.674 0.382 7.71 13.38 6.97
8/25/2021 4:30:00 AM 20.86 69.548 0.382 7.72 13.01 6.21
8/25/2021 4:45:00 AM 20.79 69.422 0.382 7.71 13.02 7.6
8/25/2021 5:00:00 AM 20.71 69.278 0.382 7.71 13.21 7.87
8/25/2021 5:15:00 AM 20.65 69.17 0.382 7.71 13.4 7.71
8/25/2021 5:30:00 AM 20.59 69.062 0.382 7.71 13.16 7.55
8/25/2021 5:45:00 AM 20.53 68.954 0.382 7.71 13.45 7.5
8/25/2021 6:00:00 AM 20.46 68.828 0.383 7.7 13.1 7.36
8/25/2021 6:15:00 AM 20.41 68.738 0.383 7.71 24.14 7.15
8/25/2021 6:30:00 AM 20.36 68.648 0.383 7.71 13.21 6.47
8/25/2021 6:45:00 AM 20.31 68.558 0.383 7.71 16.24 7.13
8/25/2021 7:00:00 AM 20.27 68.486 0.383 7.71 13.96 7.28
8/25/2021 7:15:00 AM 20.22 68.396 0.383 7.7 13.33 7.27
8/25/2021 7:30:00 AM 20.19 68.342 0.384 7.71 13.59 7.76
8/25/2021 7:45:00 AM 20.16 68.288 0.384 7.71 13.34 7.03
8/25/2021 8:00:00 AM 20.13 68.234 0.384 7.71 13.13 7.24
8/25/2021 8:15:00 AM 20.13 68.234 0.384 7.72 13.18 7.64
8/25/2021 8:30:00 AM 20.13 68.234 0.384 7.73 13.74 7.82
8/25/2021 8:45:00 AM 20.14 68.252 0.384 7.75 14.03 7.8
8/25/2021 9:00:00 AM 20.15 68.27 0.384 7.76 17.74 8.03
8/25/2021 9:15:00 AM 20.16 68.288 0.384 7.77 13.99 7.8
8/25/2021 9:30:00 AM 20.17 68.306 0.384 7.78 14.11 7.65
8/25/2021 9:45:00 AM 20.24 68.432 0.384 7.8 13.96 8.17
8/25/2021 10:00:00 AM 20.35 68.63 0.384 7.82 14.21 8.27
8/25/2021 10:15:00 AM 20.47 68.846 0.384 7.83 13.54 8.69
8/25/2021 10:30:00 AM 20.54 68.972 0.384 7.85 13.56 8.36
8/25/2021 10:45:00 AM 20.65 69.17 0.384 7.87 14.57 8.63
8/25/2021 11:00:00 AM 20.76 69.368 0.384 7.89 13.33 8.91
8/25/2021 11:15:00 AM 20.85 69.53 0.384 7.9 15.43 8.6
8/25/2021 11:30:00 AM 20.99 69.782 0.384 7.91 14.31 8.7
8/25/2021 11:45:00 AM 21.1 69.98 0.384 7.91 13.44 8.65
8/25/2021 12:00:00 PM 21.33 70.394 0.384 7.93 13.29 8.89
8/25/2021 12:15:00 PM 21.53 70.754 0.384 7.95 13.59 9.05
8/25/2021 12:30:00 PM 21.77 71.186 0.385 7.95 13.49 8.91
8/25/2021 12:45:00 PM 21.98 71.564 0.385 7.98 13.53 8.98
8/25/2021 1:00:00 PM 22.18 71.924 0.384 7.98 13.73 8.6
8/25/2021 1:15:00 PM 22.45 72.41 0.386 7.99 13.42 9.03
8/25/2021 1:30:00 PM 22.73 72.914 0.385 7.99 13.78 9.05
8/25/2021 1:45:00 PM 22.98 73.364 0.386 8.01 13.41 9.21
8/25/2021 2:00:00 PM 23.21 73.778 0.387 8.01 13.44 9.18
8/25/2021 2:15:00 PM 23.23 73.814 0.388 8.04 13.49 8.22
8/25/2021 2:30:00 PM 23.32 73.976 0.388 8.04 13.38 9.13
8/25/2021 2:45:00 PM 23.58 74.444 0.389 8.06 13.55 9.14
8/25/2021 3:00:00 PM 23.89 75.002 0.388 8.07 13.45 9.18
8/25/2021 3:15:00 PM 24.12 75.416 0.386 8.09 13.45 8.76
8/25/2021 3:30:00 PM 24.24 75.632 0.387 8.11 13.57 8.53
8/25/2021 3:45:00 PM 24.47 76.046 0.387 8.12 13.75 8.53
8/25/2021 4:00:00 PM 24.59 76.262 0.386 8.13 14.85 9.05
8/25/2021 4:15:00 PM 24.74 76.532 0.386 8.13 16.96 8.23
8/25/2021 4:30:00 PM 24.81 76.658 0.386 8.12 22.95 7.98
8/25/2021 4:45:00 PM 24.76 76.568 0.387 8.08 15.48 8.72
8/25/2021 5:00:00 PM 24.73 76.514 0.386 8.1 14 7.79
8/25/2021 5:15:00 PM 24.65 76.37 0.387 8.11 13.25 8.14
8/25/2021 5:30:00 PM 24.6 76.28 0.387 8.1 14.29 7.54
8/25/2021 5:45:00 PM 24.52 76.136 0.387 8.08 14.72 8.16
8/25/2021 6:00:00 PM 24.39 75.902 0.388 8.08 14.81 6.91
8/25/2021 6:15:00 PM 24.31 75.758 0.388 8.06 18.89 6.78
8/25/2021 6:30:00 PM 24.22 75.596 0.389 8.04 26.27 7.01
8/25/2021 6:45:00 PM 24.13 75.434 0.389 8.02 12.86 7.25
8/25/2021 7:00:00 PM 24.07 75.326 0.389 7.99 12.66 7.14
8/25/2021 7:15:00 PM 23.97 75.146 0.389 7.97 12.51 7.54
8/25/2021 7:30:00 PM 23.87 74.966 0.39 7.95 12.7 7.24
8/25/2021 7:45:00 PM 23.78 74.804 0.39 7.92 12.46 7.19
8/25/2021 8:00:00 PM 23.69 74.642 0.39 7.89 12.27 6.96
8/25/2021 8:15:00 PM 23.59 74.462 0.39 7.87 13.86 7.4
8/25/2021 8:30:00 PM 23.5 74.3 0.391 7.85 12.16 7.2
8/25/2021 8:45:00 PM 23.43 74.174 0.391 7.84 12.82 6.69
8/25/2021 9:00:00 PM 23.35 74.03 0.391 7.83 12.31 6.89
8/25/2021 9:15:00 PM 23.28 73.904 0.391 7.81 12.32 7.11
8/25/2021 9:30:00 PM 23.2 73.76 0.391 7.81 12.08 7.1
8/25/2021 9:45:00 PM 23.13 73.634 0.392 7.8 12.06 7.12
8/25/2021 10:00:00 PM 23.04 73.472 0.392 7.79 12.21 7.21
8/25/2021 10:15:00 PM 22.97 73.346 0.392 7.79 12.22 6.68
8/25/2021 10:30:00 PM 22.9 73.22 0.392 7.78 12.21 6.49
8/25/2021 10:45:00 PM 22.84 73.112 0.392 7.78 11.99 7.11
8/25/2021 11:00:00 PM 22.78 73.004 0.392 7.78 12.01 7.32
8/25/2021 11:15:00 PM 22.71 72.878 0.393 7.78 12.43 6.64
8/25/2021 11:30:00 PM 22.66 72.788 0.393 7.77 12.08 6.54
8/25/2021 11:45:00 PM 22.61 72.698 0.393 7.77 12.21 6.7
8/26/2021 12:00:00 AM 22.55 72.59 0.393 7.76 12.24 6.48
8/26/2021 12:15:00 AM 22.5 72.5 0.394 7.76 12.15 6.81
8/26/2021 12:30:00 AM 22.45 72.41 0.394 7.76 12.15 6.62
8/26/2021 12:45:00 AM 22.41 72.338 0.394 7.76 12.06 6.79
8/26/2021 1:00:00 AM 22.36 72.248 0.395 7.75 12.22 6.98
8/26/2021 1:15:00 AM 22.31 72.158 0.395 7.75 12.26 7.02
8/26/2021 1:30:00 AM 22.27 72.086 0.395 7.75 12.09 7.14
8/26/2021 1:45:00 AM 22.21 71.978 0.396 7.74 12.07 7.26
8/26/2021 2:00:00 AM 22.15 71.87 0.396 7.74 12.19 6.98
8/26/2021 2:15:00 AM 22.1 71.78 0.396 7.74 12.1 6.38
8/26/2021 2:30:00 AM 22.04 71.672 0.396 7.74 12.27 6.88
8/26/2021 2:45:00 AM 21.97 71.546 0.397 7.73 12.03 6.71
8/26/2021 3:00:00 AM 21.91 71.438 0.397 7.73 12.06 6.86
8/26/2021 3:15:00 AM 21.84 71.312 0.397 7.73 12.38 6.36
8/26/2021 3:30:00 AM 21.77 71.186 0.398 7.73 12.08 7.03
8/26/2021 3:45:00 AM 21.7 71.06 0.398 7.73 12.25 6.73
8/26/2021 4:00:00 AM 21.63 70.934 0.398 7.74 12.12 6.5
8/26/2021 4:15:00 AM 21.56 70.808 0.398 7.73 12.24 7.12
8/26/2021 4:30:00 AM 21.5 70.7 0.399 7.73 12.06 6.6
8/26/2021 4:45:00 AM 21.45 70.61 0.399 7.72 11.97 6.29
8/26/2021 5:00:00 AM 21.39 70.502 0.399 7.72 12.13 5.88
8/26/2021 5:15:00 AM 21.34 70.412 0.399 7.72 12.19 6.94
8/26/2021 5:30:00 AM 21.27 70.286 0.399 7.72 12.06 5.73
8/26/2021 5:45:00 AM 21.21 70.17799 0.4 7.72 12.03 7.07
8/26/2021 6:00:00 AM 21.14 70.052 0.4 7.72 12.06 6.95
8/26/2021 6:15:00 AM 21.08 69.944 0.4 7.72 12.08 7.01
8/26/2021 6:30:00 AM 21.02 69.836 0.401 7.72 12.24 6.15
8/26/2021 6:45:00 AM 20.96 69.728 0.401 7.72 388.62 6.34
8/26/2021 7:00:00 AM 20.91 69.638 0.401 7.72 12.69 6.27
8/26/2021 7:15:00 AM 20.86 69.548 0.4 7.72 12.54 6.53
8/26/2021 7:30:00 AM 20.81 69.458 0.401 7.72 13.88 6.9
8/26/2021 7:45:00 AM 20.77 69.386 0.401 7.73 12.54 6.6
8/26/2021 8:00:00 AM 20.74 69.332 0.401 7.73 14.04 6.89
8/26/2021 8:15:00 AM 20.73 69.314 0.401 7.74 16.09 5.79
8/26/2021 8:30:00 AM 20.76 69.368 0.402 7.74 12.5 6.79
8/26/2021 8:45:00 AM 20.79 69.422 0.402 7.74 13.34 6.27
8/26/2021 9:00:00 AM 20.82 69.476 0.403 7.75 15.52 7.18
8/26/2021 9:15:00 AM 20.91 69.638 0.403 7.76 15.24 7.14
8/26/2021 9:30:00 AM 21.03 69.854 0.403 7.75 15.05 7.33
8/26/2021 9:45:00 AM 21.09 69.962 0.403 7.77 17.37 7.79
8/26/2021 10:00:00 AM 21.12 70.016 0.403 7.76 17.12 7.26
8/26/2021 10:15:00 AM 21.26 70.268 0.404 7.76 19.31 7.6
8/26/2021 10:30:00 AM 21.4 70.52 0.404 7.78 14.32 7.7
8/26/2021 10:45:00 AM 21.48 70.664 0.403 7.8 16.16 6.7
8/26/2021 11:00:00 AM 21.58 70.844 0.404 7.82 17.46 6.79
8/26/2021 11:15:00 AM 21.68 71.024 0.404 7.87 20.8 7.06
8/26/2021 11:30:00 AM 21.85 71.33 0.404 7.88 18.77 6.68
8/26/2021 11:45:00 AM 21.98 71.564 0.404 7.9 18.82 6.42
8/26/2021 12:00:00 PM 22.16 71.888 0.404 7.93 18.5 5.82
8/26/2021 12:15:00 PM 22.35 72.23 0.404 7.93 18.43 6.86
8/26/2021 12:30:00 PM 22.59 72.662 0.404 7.94 20.13 5.9
8/26/2021 12:45:00 PM 22.78 73.004 0.404 7.96 20.12 6.29
8/26/2021 1:00:00 PM 22.99 73.382 0.405 7.96 18.12 6.34
8/26/2021 1:15:00 PM 23.27 73.886 0.405 7.98 15.86 7.14
8/26/2021 1:30:00 PM 23.5 74.3 0.405 7.95 16.06 6.35
8/26/2021 1:45:00 PM 23.7 74.66 0.405 8 15.68 7.91
8/26/2021 2:00:00 PM 24 75.2 0.405 8 15.71 7.91
8/26/2021 2:15:00 PM 24.32 75.776 0.405 8.01 17.8 7.22
8/26/2021 2:30:00 PM 24.55 76.19 0.405 8.04 14.79 7.08
8/26/2021 2:45:00 PM 24.65 76.37 0.405 8.05 16.52 7.34
8/26/2021 3:00:00 PM 24.86 76.748 0.405 8.07 16.23 6.92
8/26/2021 3:15:00 PM 24.9 76.82 0.405 8.08 16.84 6.35
8/26/2021 3:30:00 PM 25.09 77.162 0.405 8.09 16.56 7.35
8/26/2021 3:45:00 PM 25.15 77.27 0.405 8.1 14.91 7.71
8/26/2021 4:00:00 PM 25.14 77.252 0.405 8.11 16.07 7.49
8/26/2021 4:15:00 PM 25.01 77.018 0.405 8.11 13.43 7.86
8/26/2021 4:30:00 PM 24.81 76.658 0.405 8.11 15.47 8.12
8/26/2021 4:45:00 PM 24.99 76.982 0.406 8.09 15.99 6.92
8/26/2021 5:00:00 PM 25.1 77.18 0.406 8.09 12.9 7.71
8/26/2021 5:15:00 PM 25 77 0.406 8.09 15.76 7.66
8/26/2021 5:30:00 PM 24.87 76.766 0.406 8.08 16.31 7.22
8/26/2021 5:45:00 PM 24.84 76.712 0.406 8.06 14.44 7.54
8/26/2021 6:00:00 PM 24.74 76.532 0.407 8.04 13.32 7.15
8/26/2021 6:15:00 PM 24.68 76.424 0.407 8.02 13 7.06
8/26/2021 6:30:00 PM 24.62 76.316 0.407 8.02 13.86 7.27
8/26/2021 6:45:00 PM 24.55 76.19 0.407 8.01 12.05 6.23
8/26/2021 7:00:00 PM 24.49 76.082 0.408 8 11.99 6.93
8/26/2021 7:15:00 PM 24.43 75.974 0.408 7.96 11.9 7.01
8/26/2021 7:30:00 PM 24.37 75.866 0.408 7.94 11.86 6.11
8/26/2021 7:45:00 PM 24.3 75.74 0.408 7.91 17.12 7.05
8/26/2021 8:00:00 PM 24.22 75.596 0.409 7.89 11.78 6.79
8/26/2021 8:15:00 PM 24.16 75.488 0.409 7.88 11.73 6.68
8/26/2021 8:30:00 PM 24.11 75.398 0.41 7.86 11.7 6.69
8/26/2021 8:45:00 PM 24.04 75.272 0.41 7.85 11.73 7.05
8/26/2021 9:00:00 PM 23.94 75.092 0.41 7.83 12.05 6.61
8/26/2021 9:15:00 PM 23.87 74.966 0.41 7.82 11.75 6.83
8/26/2021 9:30:00 PM 23.79 74.82201 0.41 7.81 11.92 6.85
8/26/2021 9:45:00 PM 23.66 74.588 0.406 7.81 13.17 6.91
8/26/2021 10:00:00 PM 23.57 74.426 0.4 7.81 15.49 6.93
8/26/2021 10:15:00 PM 23.52 74.336 0.399 7.79 12 6.75
8/26/2021 10:30:00 PM 23.46 74.228 0.399 7.78 15.94 5.3
8/26/2021 10:45:00 PM 23.41 74.138 0.401 7.77 12.1 6.21
8/26/2021 11:00:00 PM 23.36 74.048 0.402 7.76 11.91 6.36
8/26/2021 11:15:00 PM 23.33 73.994 0.405 7.77 12.06 5.92
8/26/2021 11:30:00 PM 23.29 73.922 0.405 7.77 11.81 7.17
8/26/2021 11:45:00 PM 23.26 73.868 0.406 7.77 11.92 6.57
8/27/2021 12:00:00 AM 23.21 73.778 0.406 7.76 11.72 6.87
8/27/2021 12:15:00 AM 23.18 73.724 0.406 7.75 12.54 6.62
8/27/2021 12:30:00 AM 23.14 73.652 0.403 7.75 12.74 7.08
8/27/2021 12:45:00 AM 23.1 73.58 0.407 7.76 12 6.51
8/27/2021 1:00:00 AM 23.07 73.526 0.407 7.76 12.46 6.65
8/27/2021 1:15:00 AM 23.02 73.436 0.407 7.76 11.99 6.8
8/27/2021 1:30:00 AM 22.97 73.346 0.408 7.76 11.95 6.98
8/27/2021 1:45:00 AM 22.92 73.256 0.408 7.76 12.06 7.01
8/27/2021 2:00:00 AM 22.89 73.202 0.408 7.76 11.85 6.8
8/27/2021 2:15:00 AM 22.86 73.148 0.409 7.76 12.47 7.31
8/27/2021 2:30:00 AM 22.81 73.058 0.409 7.76 12.3 7.03
8/27/2021 2:45:00 AM 22.77 72.986 0.409 7.76 11.89 7.09
8/27/2021 3:00:00 AM 22.72 72.896 0.409 7.75 12.05 7.1
8/27/2021 3:15:00 AM 22.67 72.806 0.41 7.75 12.21 6.78
8/27/2021 3:30:00 AM 22.6 72.68 0.41 7.75 12.2 6.56
8/27/2021 3:45:00 AM 22.54 72.57201 0.411 7.75 13.74 6.3
8/27/2021 4:00:00 AM 22.49 72.482 0.411 7.75 18.1 6.55
8/27/2021 4:15:00 AM 22.44 72.392 0.412 7.74 12.02 6.33
8/27/2021 4:30:00 AM 22.38 72.284 0.412 7.74 11.91 6.44
8/27/2021 4:45:00 AM 22.33 72.194 0.412 7.74 11.88 6.45
8/27/2021 5:00:00 AM 22.26 72.068 0.413 7.74 29.51 6.85
8/27/2021 5:15:00 AM 22.19 71.942 0.413 7.75 12.12 6.73
8/27/2021 5:30:00 AM 22.14 71.852 0.413 7.73 12.4 6.68
8/27/2021 5:45:00 AM 22.09 71.762 0.414 7.73 11.95 6.77
8/27/2021 6:00:00 AM 22.04 71.672 0.414 7.72 12.36 6.9
8/27/2021 6:15:00 AM 21.98 71.564 0.414 7.72 12.93 7.2
8/27/2021 6:30:00 AM 21.92 71.456 0.414 7.72 12.03 6.2
8/27/2021 6:45:00 AM 21.87 71.366 0.413 7.72 21.15 6.52
8/27/2021 7:00:00 AM 21.83 71.294 0.415 7.71 12.04 6.92
8/27/2021 7:15:00 AM 21.78 71.204 0.415 7.71 27.33 7.28
8/27/2021 7:30:00 AM 21.75 71.15 0.414 7.71 12.55 6.73
8/27/2021 7:45:00 AM 21.73 71.114 0.415 7.71 12.62 6.97
8/27/2021 8:00:00 AM 21.72 71.096 0.415 7.73 13.21 6.48
8/27/2021 8:15:00 AM 21.71 71.078 0.415 7.73 13.02 5.86
8/27/2021 8:30:00 AM 21.72 71.096 0.415 7.75 13.16 7.14
8/27/2021 8:45:00 AM 21.73 71.114 0.415 7.75 13.01 6.87
8/27/2021 9:00:00 AM 21.75 71.15 0.415 7.76 12.97 5.98
8/27/2021 9:15:00 AM 21.78 71.204 0.415 7.77 13.84 6.88
8/27/2021 9:30:00 AM 21.82 71.276 0.414 7.8 13.77 6.38
8/27/2021 9:45:00 AM 21.86 71.348 0.414 7.81 30.22 7.61
8/27/2021 10:00:00 AM 21.92 71.456 0.414 7.81 14.7 8.16
8/27/2021 10:15:00 AM 21.98 71.564 0.414 7.82 15.26 8.33
8/27/2021 10:30:00 AM 22.04 71.672 0.413 7.82 14.82 6.83
8/27/2021 10:45:00 AM 22.14 71.852 0.413 7.81 14.84 8.03
8/27/2021 11:00:00 AM 22.17 71.906 0.413 7.84 14.61 7.87
8/27/2021 11:15:00 AM 22.26 72.068 0.411 7.86 24 8.65
8/27/2021 11:30:00 AM 22.35 72.23 0.412 7.9 23.6 7.42
8/27/2021 11:45:00 AM 22.49 72.482 0.412 7.91 23.78 8.68
8/27/2021 12:00:00 PM 22.62 72.716 0.412 7.95 14.96 8.39
8/27/2021 12:15:00 PM 22.78 73.004 0.412 7.96 16.3 7.82
8/27/2021 12:30:00 PM 22.94 73.292 0.412 7.99 16.61 8.63
8/27/2021 12:45:00 PM 23.2 73.76 0.409 7.99 19.57 8.84
8/27/2021 1:00:00 PM 23.47 74.246 0.412 8.04 15.28 9.19
8/27/2021 1:15:00 PM 23.61 74.498 0.412 8.05 16.34 9.35
8/27/2021 1:30:00 PM 23.89 75.002 0.411 8.05 15.99 8.53
8/27/2021 1:45:00 PM 24.1 75.38 0.411 8.09 18.05 8.43
8/27/2021 2:00:00 PM 24.55 76.19 0.412 8.04 14.06 9.34
8/27/2021 2:15:00 PM 24.8 76.64 0.412 8.04 16.24 9.23
8/27/2021 2:30:00 PM 25.08 77.144 0.412 8.08 13.39 9.18
8/27/2021 2:45:00 PM 25.27 77.486 0.412 8.07 13.3 9.27
8/27/2021 3:00:00 PM 25.42 77.756 0.412 8.07 15.72 9.32
8/27/2021 3:15:00 PM 25.31 77.558 0.412 8.11 13.7 9.05
8/27/2021 3:30:00 PM 25.03 77.054 0.413 8.13 13.68 8.59
8/27/2021 3:45:00 PM 24.83 76.694 0.413 8.13 16.36 8.77
8/27/2021 4:00:00 PM 24.89 76.802 0.416 8.1 16.04 8.65
8/27/2021 4:15:00 PM 25.33 77.594 0.415 8.09 14.83 8.89
8/27/2021 4:30:00 PM 25.6 78.08 0.415 8.08 12.05 8.82
8/27/2021 4:45:00 PM 25.6 78.08 0.415 8.11 12.82 8.65
8/27/2021 5:00:00 PM 25.51 77.918 0.415 8.11 12.76 8.44
8/27/2021 5:15:00 PM 25.49 77.882 0.414 8.11 14.26 7.93
8/27/2021 5:30:00 PM 25.26 77.468 0.417 8.11 13.89 7.69
8/27/2021 5:45:00 PM 25.14 77.252 0.418 8.09 12.13 6.98
8/27/2021 6:00:00 PM 25.08 77.144 0.418 8.06 13.06 7.88
8/27/2021 6:15:00 PM 25.06 77.108 0.419 8.02 13.18 7.24
8/27/2021 6:30:00 PM 24.93 76.874 0.42 8.01 13.04 7.17
8/27/2021 6:45:00 PM 24.87 76.766 0.42 7.99 20.44 7.27
8/27/2021 7:00:00 PM 24.81 76.658 0.421 7.94 13.48 6.78
8/27/2021 7:15:00 PM 24.75 76.55 0.421 7.93 16.65 7.19
8/27/2021 7:30:00 PM 24.7 76.46 0.422 7.9 13.37 6.91
8/27/2021 7:45:00 PM 24.63 76.334 0.422 7.89 13.42 7.32
8/27/2021 8:00:00 PM 24.54 76.172 0.413 7.87 11.76 7.26
8/27/2021 8:15:00 PM 24.5 76.1 0.423 7.86 11.86 7.24
8/27/2021 8:30:00 PM 24.44 75.992 0.423 7.85 11.8 6.13
8/27/2021 8:45:00 PM 24.38 75.884 0.423 7.82 11.86 6.83
8/27/2021 9:00:00 PM 24.31 75.758 0.423 7.81 11.77 6.82
8/27/2021 9:15:00 PM 24.27 75.686 0.423 7.8 11.96 6.84
8/27/2021 9:30:00 PM 24.23 75.614 0.423 7.79 11.82 6.35
8/27/2021 9:45:00 PM 24.18 75.524 0.423 7.77 11.79 6.18
8/27/2021 10:00:00 PM 24.13 75.434 0.423 7.78 11.74 6.87
8/27/2021 10:15:00 PM 24.07 75.326 0.423 7.78 11.94 6.64
8/27/2021 10:30:00 PM 24.02 75.236 0.423 7.78 11.91 6.65
8/27/2021 10:45:00 PM 23.96 75.128 0.423 7.77 14.48 6.9
8/27/2021 11:00:00 PM 23.89 75.002 0.423 7.77 11.76 5.87
8/27/2021 11:15:00 PM 23.84 74.912 0.423 7.77 12.54 6.09
8/27/2021 11:30:00 PM 23.77 74.786 0.423 7.76 14.03 6.49
8/27/2021 11:45:00 PM 23.72 74.696 0.423 7.76 13.31 6.61
8/28/2021 12:00:00 AM 23.67 74.606 0.424 7.76 12.73 6.58
8/28/2021 12:15:00 AM 23.6 74.48 0.424 7.76 11.71 5.61
8/28/2021 12:30:00 AM 23.53 74.354 0.424 7.75 13.17 6.35
8/28/2021 12:45:00 AM 23.48 74.264 0.424 7.75 19.75 6.82
8/28/2021 1:00:00 AM 23.42 74.156 0.424 7.74 17.66 6.42
8/28/2021 1:15:00 AM 23.34 74.012 0.425 7.74 63.65 6
8/28/2021 1:30:00 AM 23.27 73.886 0.425 7.75 12.09 6.79
8/28/2021 1:45:00 AM 23.21 73.778 0.425 7.74 11.74 6.42
8/28/2021 2:00:00 AM 23.15 73.67 0.426 7.73 12.51 6.85
8/28/2021 2:15:00 AM 23.09 73.562 0.425 7.73 11.92 6.62
8/28/2021 2:30:00 AM 23.04 73.472 0.426 7.72 11.78 5.62
8/28/2021 2:45:00 AM 22.99 73.382 0.426 7.73 12.33 6.53
8/28/2021 3:00:00 AM 22.95 73.31 0.427 7.72 11.99 6.87
8/28/2021 3:15:00 AM 22.9 73.22 0.427 7.72 11.9 6.71
8/28/2021 3:30:00 AM 22.85 73.13 0.427 7.73 11.92 7.05
8/28/2021 3:45:00 AM 22.81 73.058 0.428 7.71 12.02 6.96
8/28/2021 4:00:00 AM 22.77 72.986 0.428 7.71 12.16 6.58
8/28/2021 4:15:00 AM 22.73 72.914 0.428 7.71 12.12 6.63
8/28/2021 4:30:00 AM 22.67 72.806 0.429 7.71 12.11 7.36
8/28/2021 4:45:00 AM 22.63 72.734 0.429 7.72 11.97 6.94
8/28/2021 5:00:00 AM 22.59 72.662 0.43 7.72 11.93 6.87
8/28/2021 5:15:00 AM 22.53 72.554 0.43 7.73 12.02 6.92
8/28/2021 5:30:00 AM 22.49 72.482 0.431 7.72 12.05 5.94
8/28/2021 5:45:00 AM 22.44 72.392 0.431 7.72 12.43 6.65
8/28/2021 6:00:00 AM 22.4 72.32 0.431 7.73 12.4 7.36
8/28/2021 6:15:00 AM 22.36 72.248 0.432 7.73 11.96 7.16
8/28/2021 6:30:00 AM 22.32 72.176 0.432 7.73 11.92 6.47
8/28/2021 6:45:00 AM 22.28 72.104 0.432 7.72 11.98 6.99
8/28/2021 7:00:00 AM 22.24 72.032 0.433 7.72 12.13 6.94
8/28/2021 7:15:00 AM 22.19 71.942 0.433 7.72 12.1 7.27
8/28/2021 7:30:00 AM 22.16 71.888 0.433 7.72 12.2 6.91
8/28/2021 7:45:00 AM 22.12 71.816 0.433 7.73 12.17 6.22
8/28/2021 8:00:00 AM 22.1 71.78 0.433 7.71 12.17 7.3
8/28/2021 8:15:00 AM 22.1 71.78 0.434 7.71 12.11 6.74
8/28/2021 8:30:00 AM 22.1 71.78 0.434 7.75 16.42 7.53
8/28/2021 8:45:00 AM 22.11 71.798 0.434 7.77 19.77 7.17
8/28/2021 9:00:00 AM 22.12 71.816 0.434 7.77 13.75 7.48
8/28/2021 9:15:00 AM 22.15 71.87 0.434 7.78 14.26 7.56
8/28/2021 9:30:00 AM 22.17 71.906 0.435 7.79 13.33 7.68
8/28/2021 9:45:00 AM 22.2 71.96 0.434 7.79 13.78 7.58
8/28/2021 10:00:00 AM 22.28 72.104 0.434 7.78 13.3 7.44
8/28/2021 10:15:00 AM 22.33 72.194 0.434 7.77 13.05 8.09
8/28/2021 10:30:00 AM 22.45 72.41 0.434 7.79 14.46 8.08
8/28/2021 10:45:00 AM 22.64 72.752 0.434 7.81 14.69 8.64
8/28/2021 11:00:00 AM 22.72 72.896 0.434 7.84 13.06 8.41
8/28/2021 11:15:00 AM 22.8 73.04 0.434 7.86 11.96 8.92
8/28/2021 11:30:00 AM 22.9 73.22 0.433 7.9 12.16 8.39
8/28/2021 11:45:00 AM 22.96 73.328 0.433 7.89 11.85 8.45
8/28/2021 12:00:00 PM 23.07 73.526 0.434 7.9 11.82 8.49
8/28/2021 12:15:00 PM 23.29 73.922 0.433 7.93 11.86 7.44
8/28/2021 12:30:00 PM 23.62 74.516 0.434 7.96 11.67 7.66
8/28/2021 12:45:00 PM 23.73 74.714 0.433 7.97 11.74 8.18
8/28/2021 1:00:00 PM 24 75.2 0.434 7.99 11.72 8.86
8/28/2021 1:15:00 PM 24.33 75.794 0.434 8 11.66 7.55
8/28/2021 1:30:00 PM 24.57 76.226 0.434 8.03 12.09 8.06
8/28/2021 1:45:00 PM 24.47 76.046 0.434 8.07 11.87 8.8
8/28/2021 2:00:00 PM 24.28 75.704 0.434 8.08 11.7 8.23
8/28/2021 2:15:00 PM 24.15 75.47 0.434 8.07 11.72 7.77
8/28/2021 2:30:00 PM 23.96 75.128 0.435 8.05 11.86 7.96
8/28/2021 2:45:00 PM 23.85 74.93 0.435 8.01 11.7 7.84
8/28/2021 3:00:00 PM 23.72 74.696 0.435 7.98 11.82 7.76
8/28/2021 3:15:00 PM 23.63 74.534 0.435 7.96 61.62 7.5
8/28/2021 3:30:00 PM 23.54 74.372 0.435 7.93 14.01 6.93
8/28/2021 3:45:00 PM 23.44 74.192 0.435 7.92 13.04 6.96
8/28/2021 4:00:00 PM 23.38 74.084 0.433 7.89 11.81 7.33
8/28/2021 4:15:00 PM 23.36 74.048 0.435 7.89 11.91 7.68
8/28/2021 4:30:00 PM 23.38 74.084 0.435 7.9 12.68 6.93
8/28/2021 4:45:00 PM 23.39 74.102 0.435 7.92 12.24 7.56
8/28/2021 5:00:00 PM 23.37 74.066 0.435 7.94 11.88 7.39
8/28/2021 5:15:00 PM 23.34 74.012 0.433 7.95 11.91 7.24
8/28/2021 5:30:00 PM 23.35 74.03 0.435 7.96 11.85 7.05
8/28/2021 5:45:00 PM 23.35 74.03 0.435 7.97 11.92 8.13
8/28/2021 6:00:00 PM 23.34 74.012 0.435 7.98 12.32 7.85
8/28/2021 6:15:00 PM 23.36 74.048 0.435 7.97 11.88 7.6
8/28/2021 6:30:00 PM 23.38 74.084 0.436 7.97 11.69 8.04
8/28/2021 6:45:00 PM 23.38 74.084 0.436 7.97 12 7.88
8/28/2021 7:00:00 PM 23.38 74.084 0.436 7.96 11.65 7.92
8/28/2021 7:15:00 PM 23.36 74.048 0.436 7.95 11.81 7.96
8/28/2021 7:30:00 PM 23.35 74.03 0.437 7.94 11.6 7.2
8/28/2021 7:45:00 PM 23.31 73.958 0.437 7.91 11.69 7.66
8/28/2021 8:00:00 PM 23.26 73.868 0.437 7.89 12.14 7.1
8/28/2021 8:15:00 PM 23.2 73.76 0.438 7.88 11.68 7.43
8/28/2021 8:30:00 PM 23.14 73.652 0.438 7.87 11.62 7.55
8/28/2021 8:45:00 PM 23.07 73.526 0.438 7.86 11.64 6.81
8/28/2021 9:00:00 PM 23.02 73.436 0.439 7.85 11.72 7.37
8/28/2021 9:15:00 PM 22.94 73.292 0.439 7.84 11.71 7.26
8/28/2021 9:30:00 PM 22.89 73.202 0.439 7.83 11.74 7.44
8/28/2021 9:45:00 PM 22.83 73.094 0.439 7.82 11.95 7.35
8/28/2021 10:00:00 PM 22.76 72.968 0.44 7.81 11.89 7.32
8/28/2021 10:15:00 PM 22.7 72.86 0.44 7.81 11.84 7.44
8/28/2021 10:30:00 PM 22.66 72.788 0.44 7.8 11.97 7.41
8/28/2021 10:45:00 PM 22.58 72.644 0.44 7.81 12.13 7.49
8/28/2021 11:00:00 PM 22.54 72.57201 0.44 7.8 12.23 7.44
8/28/2021 11:15:00 PM 22.49 72.482 0.44 7.79 11.97 7.34
8/28/2021 11:30:00 PM 22.43 72.374 0.44 7.79 12.16 7.33
8/28/2021 11:45:00 PM 22.4 72.32 0.44 7.79 12.83 7.23
8/29/2021 12:00:00 AM 22.35 72.23 0.44 7.78 16.87 7.41
8/29/2021 12:15:00 AM 22.31 72.158 0.441 7.78 12.89 6.92
8/29/2021 12:30:00 AM 22.26 72.068 0.441 7.78 12.95 7.36
8/29/2021 12:45:00 AM 22.23 72.014 0.441 7.77 14.41 7.46
8/29/2021 1:00:00 AM 22.19 71.942 0.441 7.76 14.09 7.24
8/29/2021 1:15:00 AM 22.17 71.906 0.441 7.78 12.16 7.44
8/29/2021 1:30:00 AM 22.13 71.834 0.441 7.77 12.63 7.66
8/29/2021 1:45:00 AM 22.09 71.762 0.442 7.76 14.6 7.32
8/29/2021 2:00:00 AM 22.06 71.708 0.442 7.76 13.69 7.6
8/29/2021 2:15:00 AM 22.01 71.618 0.442 7.76 14.59 7.41
8/29/2021 2:30:00 AM 21.97 71.546 0.443 7.75 14.81 7.19
8/29/2021 2:45:00 AM 21.93 71.474 0.443 7.75 14.22 7.31
8/29/2021 3:00:00 AM 21.88 71.384 0.443 7.75 16.77 7.43
8/29/2021 3:15:00 AM 21.84 71.312 0.444 7.75 14.45 7.19
8/29/2021 3:30:00 AM 21.8 71.24 0.444 7.75 14.84 7.54
8/29/2021 3:45:00 AM 21.75 71.15 0.444 7.76 14.68 7.32
8/29/2021 4:00:00 AM 21.71 71.078 0.444 7.76 13.7 7.58
8/29/2021 4:15:00 AM 21.66 70.988 0.445 7.76 15.73 7.54
8/29/2021 4:30:00 AM 21.63 70.934 0.445 7.75 15.32 7.61
8/29/2021 4:45:00 AM 21.57 70.826 0.445 7.75 12.81 7.46
8/29/2021 5:00:00 AM 21.53 70.754 0.446 7.74 21.61 7.46
8/29/2021 5:15:00 AM 21.47 70.646 0.446 7.75 20.27 7.45
8/29/2021 5:30:00 AM 21.43 70.574 0.446 7.74 12.43 7.17
8/29/2021 5:45:00 AM 21.39 70.502 0.446 7.73 11.94 7.62
8/29/2021 6:00:00 AM 21.34 70.412 0.447 7.74 12.18 7.48
8/29/2021 6:15:00 AM 21.31 70.358 0.447 7.74 12.1 7.26
8/29/2021 6:30:00 AM 21.26 70.268 0.447 7.73 22.56 7.57
8/29/2021 6:45:00 AM 21.22 70.196 0.447 7.73 16.06 7.26
8/29/2021 7:00:00 AM 21.19 70.142 0.448 7.73 12.05 7.42
8/29/2021 7:15:00 AM 21.16 70.088 0.448 7.73 12.23 7.06
8/29/2021 7:30:00 AM 21.14 70.052 0.449 7.74 13.21 7.67
8/29/2021 7:45:00 AM 21.14 70.052 0.449 7.75 12.34 7.45
8/29/2021 8:00:00 AM 21.16 70.088 0.449 7.75 15.29 7.51
8/29/2021 8:15:00 AM 21.17 70.106 0.449 7.76 15 7.83
8/29/2021 8:30:00 AM 21.18 70.124 0.449 7.76 15.18 7.65
8/29/2021 8:45:00 AM 21.19 70.142 0.449 7.76 15.28 8.2
8/29/2021 9:00:00 AM 21.24 70.232 0.45 7.78 15.71 7.48
8/29/2021 9:15:00 AM 21.28 70.304 0.45 7.79 15.55 8.14
8/29/2021 9:30:00 AM 21.34 70.412 0.45 7.81 15.53 8.4
8/29/2021 9:45:00 AM 21.41 70.538 0.451 7.81 17.83 8.24
8/29/2021 10:00:00 AM 21.54 70.772 0.45 7.81 15.9 8.75
8/29/2021 10:15:00 AM 21.65 70.97 0.45 7.83 13.91 8.62
8/29/2021 10:30:00 AM 21.71 71.078 0.45 7.84 14.02 8.22
8/29/2021 10:45:00 AM 21.86 71.348 0.45 7.88 13.84 8.79
8/29/2021 11:00:00 AM 22.01 71.618 0.45 7.91 13.89 8.3
8/29/2021 11:15:00 AM 22.11 71.798 0.45 7.95 14.34 8.93
8/29/2021 11:30:00 AM 22.2 71.96 0.45 7.96 13.76 8.63
8/29/2021 11:45:00 AM 22.26 72.068 0.451 7.99 13.59 8.37
8/29/2021 12:00:00 PM 22.38 72.284 0.451 8.01 13.71 8.58
8/29/2021 12:15:00 PM 22.53 72.554 0.451 8.02 13.72 8.75
8/29/2021 12:30:00 PM 22.67 72.806 0.451 8.03 13.77 8.58
8/29/2021 12:45:00 PM 22.74 72.932 0.451 8.05 13.73 7.98
8/29/2021 1:00:00 PM 22.9 73.22 0.451 8.07 13.93 8.12
8/29/2021 1:15:00 PM 23.07 73.526 0.451 8.1 13.54 8.83
8/29/2021 1:30:00 PM 23.42 74.156 0.451 8.1 13.45 8.94
8/29/2021 1:45:00 PM 23.39 74.102 0.451 8.14 14.88 8.87
8/29/2021 2:00:00 PM 23.24 73.832 0.433 8.12 21.3 8.62
8/29/2021 2:15:00 PM 22.96 73.328 0.395 8.06 19.93 7.8
8/29/2021 2:30:00 PM 22.8 73.04 0.384 7.94 15.51 7.92
8/29/2021 2:45:00 PM 22.76 72.968 0.386 7.85 16.45 7.88
8/29/2021 3:00:00 PM 22.73 72.914 0.393 7.81 14.73 7.88
8/29/2021 3:15:00 PM 22.67 72.806 0.395 7.77 41.26 7.98
8/29/2021 3:30:00 PM 22.86 73.148 0.413 7.76 20.33 8.15
8/29/2021 3:45:00 PM 22.75 72.95 0.392 7.76 52.31 8.11
8/29/2021 4:00:00 PM 22.29 72.122 0.344 7.7 125.85 7.98
8/29/2021 4:15:00 PM 22.35 72.23 0.318 7.65 132.35 7.84
8/29/2021 4:30:00 PM 22.55 72.59 0.31 7.62 144.43 7.81
8/29/2021 4:45:00 PM 22.7 72.86 0.312 7.6 132.73 7.76
8/29/2021 5:00:00 PM 22.77 72.986 0.321 7.59 138.32 7.7
8/29/2021 5:15:00 PM 22.79 73.022 0.331 7.58 152.04 7.72
8/29/2021 5:30:00 PM 22.6 72.68 0.337 7.6 133.81 7.9
8/29/2021 5:45:00 PM 22.31 72.158 0.326 7.62 107.03 7.88
8/29/2021 6:00:00 PM 22.14 71.852 0.323 7.54 76.44 7.36
8/29/2021 6:15:00 PM 22.04 71.672 0.333 7.45 35.41 7.52
8/29/2021 6:30:00 PM 22.01 71.618 0.34 7.42 37.61 7.67
8/29/2021 6:45:00 PM 21.95 71.51 0.349 7.44 40.33 7.79
8/29/2021 7:00:00 PM 21.79 71.222 0.34 7.47 47.56 7.84
8/29/2021 7:15:00 PM 21.47 70.646 0.317 7.47 44.92 7.89
8/29/2021 7:30:00 PM 21.21 70.17799 0.31 7.45 49.64 8
8/29/2021 7:45:00 PM 21.18 70.124 0.312 7.44 57.32 7.88
8/29/2021 8:00:00 PM 21.17 70.106 0.312 7.44 63.91 7.97
8/29/2021 8:15:00 PM 21.16 70.088 0.314 7.44 55.7 7.98
8/29/2021 8:30:00 PM 21.18 70.124 0.32 7.44 47.36 7.92
8/29/2021 8:45:00 PM 21.18 70.124 0.327 7.43 40.52 7.9
8/29/2021 9:00:00 PM 21.15 70.07 0.332 7.43 35.46 7.9
8/29/2021 9:15:00 PM 21.11 69.998 0.338 7.43 31.17 7.88
8/29/2021 9:30:00 PM 21.07 69.926 0.341 7.42 30.82 7.86
8/29/2021 9:45:00 PM 21.02 69.836 0.346 7.42 30.8 7.93
8/29/2021 10:00:00 PM 20.97 69.746 0.351 7.42 31.13 7.92
8/29/2021 10:15:00 PM 20.91 69.638 0.355 7.41 35.11 7.9
8/29/2021 10:30:00 PM 20.87 69.566 0.359 7.42 34.6 7.91
8/29/2021 10:45:00 PM 20.83 69.494 0.363 7.42 36.6 7.93
8/29/2021 11:00:00 PM 20.8 69.44 0.367 7.42 33.45 7.91
8/29/2021 11:15:00 PM 20.76 69.368 0.37 7.42 35.85 7.99
8/29/2021 11:30:00 PM 20.72 69.296 0.371 7.43 37.91 7.96
8/29/2021 11:45:00 PM 20.68 69.224 0.372 7.43 30.51 7.96
8/30/2021 12:00:00 AM 20.64 69.152 0.373 7.43 48.57 7.94
8/30/2021 12:15:00 AM 20.6 69.08 0.373 7.44 37.94 7.91
8/30/2021 12:30:00 AM 20.56 69.008 0.374 7.45 35.61 8.02
8/30/2021 12:45:00 AM 20.51 68.918 0.375 7.45 35.69 7.99
8/30/2021 1:00:00 AM 20.46 68.828 0.376 7.46 41.74 8.03
8/30/2021 1:15:00 AM 20.42 68.756 0.377 7.46 132.06 8.03
8/30/2021 1:30:00 AM 20.38 68.684 0.38 7.47 35.62 8.03
8/30/2021 1:45:00 AM 20.34 68.612 0.382 7.47 35.99 8.06
8/30/2021 2:00:00 AM 20.32 68.576 0.384 7.47 62.95 7.99
8/30/2021 2:15:00 AM 20.3 68.54 0.385 7.48 57.22 7.97
8/30/2021 2:30:00 AM 20.28 68.504 0.387 7.48 88.22 8.05
8/30/2021 2:45:00 AM 20.26 68.468 0.388 7.47 80.9 7.83
8/30/2021 3:00:00 AM 20.25 68.45 0.39 7.48 55.67 8.01
8/30/2021 3:15:00 AM 20.23 68.414 0.39 7.47 33.31 5.74
8/30/2021 3:30:00 AM 20.22 68.396 0.392 7.48 29.49 7.95
8/30/2021 3:45:00 AM 20.22 68.396 0.395 7.49 35.26 7.97
8/30/2021 4:00:00 AM 20.25 68.45 0.4 7.5 33.72 7.97
8/30/2021 4:15:00 AM 20.28 68.504 0.404 7.52 32.77 7.96
8/30/2021 4:30:00 AM 20.34 68.612 0.408 7.55 39 7.85
8/30/2021 4:45:00 AM 20.4 68.72 0.412 7.57 201.67 7.9
8/30/2021 5:00:00 AM 20.44 68.792 0.415 7.59 44.12 8.04
8/30/2021 5:15:00 AM 20.45 68.81 0.417 7.61 44.38 8.09
8/30/2021 5:30:00 AM 20.45 68.81 0.419 7.63 157.1 8.07
8/30/2021 5:45:00 AM 20.43 68.774 0.42 7.64 56.74 8.1
8/30/2021 6:00:00 AM 20.4 68.72 0.419 7.66 86.48 8.09
8/30/2021 6:15:00 AM 20.38 68.684 0.418 7.67 201.53 8.05
8/30/2021 6:30:00 AM 20.37 68.666 0.418 7.68 80.56 8.09
8/30/2021 6:45:00 AM 20.36 68.648 0.417 7.68 251.54 8.07
8/30/2021 7:00:00 AM 20.36 68.648 0.416 7.68 137.79 8.06
8/30/2021 7:15:00 AM 20.36 68.648 0.415 7.68 210.65 8.12
8/30/2021 7:30:00 AM 20.35 68.63 0.415 7.69 393.44 8.13
8/30/2021 7:45:00 AM 20.34 68.612 0.415 7.68 336.81 8.13
8/30/2021 8:00:00 AM 20.32 68.576 0.415 7.69 605.16 8.12
8/30/2021 8:15:00 AM 20.3 68.54 0.415 7.69 379.68 8.14
8/30/2021 8:30:00 AM 20.29 68.522 0.416 7.69 61.29 8.14
8/30/2021 8:45:00 AM 20.27 68.486 0.418 7.69 61.67 8.12
8/30/2021 9:00:00 AM 20.26 68.468 0.42 7.69 60.17 8.15
8/30/2021 9:15:00 AM 20.26 68.468 0.422 7.69 55.54 8.16
8/30/2021 9:30:00 AM 20.26 68.468 0.423 7.69 57.64 8.18
8/30/2021 9:45:00 AM 20.28 68.504 0.423 7.7 58.99 8.09
8/30/2021 10:00:00 AM 20.32 68.576 0.423 7.69 62.49 8.27
8/30/2021 10:15:00 AM 20.37 68.666 0.421 7.69 62.16 8.3
8/30/2021 10:30:00 AM 20.41 68.738 0.419 7.7 71.77 8.21
8/30/2021 10:45:00 AM 20.45 68.81 0.416 7.72 65.72 8.37
8/30/2021 11:00:00 AM 20.46 68.828 0.413 7.72 67.49 8.35
8/30/2021 11:15:00 AM 20.47 68.846 0.41 7.73 72.3 8.35
8/30/2021 11:30:00 AM 20.48 68.864 0.407 7.73 95.61 8.22
8/30/2021 11:45:00 AM 20.49 68.882 0.402 7.74 65.78 8.38
8/30/2021 12:00:00 PM 20.5 68.9 0.398 7.73 105.33 8.3
8/30/2021 12:15:00 PM 20.52 68.936 0.388 7.73 202.36 8.31
8/30/2021 12:30:00 PM 20.52 68.936 0.388 7.73 66.19 8.32
8/30/2021 12:45:00 PM 20.55 68.99 0.383 7.7 62.68 8.36
8/30/2021 1:00:00 PM 20.58 69.044 0.377 7.71 127.38 8.34
8/30/2021 1:15:00 PM 20.61 69.098 0.372 7.73 95.48 8.37
8/30/2021 1:30:00 PM 20.63 69.134 0.368 7.72 53.55 8.39
8/30/2021 1:45:00 PM 20.68 69.224 0.365 7.7 215.85 8.31
8/30/2021 2:00:00 PM 20.7 69.26 0.361 7.7 164.92 8.3
8/30/2021 2:15:00 PM 20.78 69.404 0.357 7.7 130.91 8.37
8/30/2021 2:30:00 PM 20.94 69.692 0.355 7.68 168.77 8.47
8/30/2021 2:45:00 PM 21.11 69.998 0.352 7.69 184.67 8.53
8/30/2021 3:00:00 PM 21.21 70.17799 0.35 7.68 186.29 8.55
8/30/2021 3:15:00 PM 21.37 70.466 0.348 7.71 51.46 8.53
8/30/2021 3:30:00 PM 21.48 70.664 0.346 7.72 118.15 8.57
8/30/2021 3:45:00 PM 21.58 70.844 0.343 7.71 66.67 8.47
8/30/2021 4:00:00 PM 21.63 70.934 0.342 7.73 49.55 8.58
8/30/2021 4:15:00 PM 21.61 70.898 0.339 7.71 48.28 8.49
8/30/2021 4:30:00 PM 21.72 71.096 0.337 7.71 68.77 8.49
8/30/2021 4:45:00 PM 21.76 71.168 0.335 7.71 68.35 8.46
8/30/2021 5:00:00 PM 21.77 71.186 0.334 7.71 49.82 8.45
8/30/2021 5:15:00 PM 21.78 71.204 0.332 7.64 220.78 8.37
8/30/2021 5:30:00 PM 21.75 71.15 0.331 7.65 54.85 8.27
8/30/2021 5:45:00 PM 21.72 71.096 0.33 7.64 52.53 8.12
8/30/2021 6:00:00 PM 21.69 71.042 0.329 7.6 55.5 8.11
8/30/2021 6:15:00 PM 21.65 70.97 0.328 7.57 54.52 8.06
8/30/2021 6:30:00 PM 21.62 70.916 0.327 7.58 57.32 8.02
8/30/2021 6:45:00 PM 21.57 70.826 0.327 7.57 57.12 7.68
8/30/2021 7:00:00 PM 21.53 70.754 0.327 7.56 51.42 7.81
8/30/2021 7:15:00 PM 21.49 70.682 0.326 7.55 43.22 7.67
8/30/2021 7:30:00 PM 21.46 70.628 0.327 7.56 39.34 7.69
8/30/2021 7:45:00 PM 21.42 70.556 0.326 7.55 40.24 7.64
8/30/2021 8:00:00 PM 21.4 70.52 0.326 7.54 37.59 7.71
8/30/2021 8:15:00 PM 21.38 70.484 0.323 7.55 38.21 7.66
8/30/2021 8:30:00 PM 21.35 70.43 0.323 7.54 35.9 7.67
8/30/2021 8:45:00 PM 21.32 70.376 0.323 7.5 64.55 7.72
8/30/2021 9:00:00 PM 21.3 70.34 0.324 7.5 46.19 7.77
8/30/2021 9:15:00 PM 21.26 70.268 0.323 7.5 46.5 7.61
8/30/2021 9:30:00 PM 21.21 70.17799 0.323 7.5 40.9 7.59
8/30/2021 9:45:00 PM 21.17 70.106 0.324 7.5 40.69 7.62
8/30/2021 10:00:00 PM 21.11 69.998 0.323 7.5 39.88 7.69
8/30/2021 10:15:00 PM 21.03 69.854 0.324 7.49 45.21 7.83
8/30/2021 10:30:00 PM 20.99 69.782 0.324 7.49 49.43 7.67
8/30/2021 10:45:00 PM 20.95 69.71 0.325 7.48 41.32 7.64
8/30/2021 11:00:00 PM 20.91 69.638 0.325 7.48 42.22 7.71
8/30/2021 11:15:00 PM 20.87 69.566 0.326 7.48 38.57 7.73
8/30/2021 11:30:00 PM 20.85 69.53 0.326 7.47 35.55 7.67
8/30/2021 11:45:00 PM 20.82 69.476 0.326 7.48 47.01 7.56
8/31/2021 12:00:00 AM 20.79 69.422 0.327 7.47 37.56 7.56
8/31/2021 12:15:00 AM 20.78 69.404 0.327 7.47 37.47 7.76
8/31/2021 12:30:00 AM 20.75 69.35 0.327 7.48 35.81 7.85
8/31/2021 12:45:00 AM 20.73 69.314 0.329 7.48 36.22 7.68
8/31/2021 1:00:00 AM 20.71 69.278 0.329 7.48 33.51 7.57
8/31/2021 1:15:00 AM 20.67 69.206 0.329 7.48 34.74 7.73
8/31/2021 1:30:00 AM 20.64 69.152 0.329 7.47 36.87 7.46
8/31/2021 1:45:00 AM 20.59 69.062 0.329 7.48 37.19 7.73
8/31/2021 2:00:00 AM 20.57 69.026 0.33 7.47 35.63 7.39
8/31/2021 2:15:00 AM 20.53 68.954 0.33 7.47 38.48 7.26
8/31/2021 2:30:00 AM 20.51 68.918 0.331 7.48 32.36 7.62
8/31/2021 2:45:00 AM 20.48 68.864 0.331 7.48 32.14 7.89
8/31/2021 3:00:00 AM 20.44 68.792 0.332 7.48 51.31 7.79
8/31/2021 3:15:00 AM 20.41 68.738 0.332 7.48 33.25 7.67
8/31/2021 3:30:00 AM 20.37 68.666 0.331 7.48 32.84 7.68
8/31/2021 3:45:00 AM 20.34 68.612 0.332 7.47 32.64 7.84
8/31/2021 4:00:00 AM 20.31 68.558 0.331 7.46 32.6 7.78
8/31/2021 4:15:00 AM 20.28 68.504 0.331 7.45 32.7 7.83
8/31/2021 4:30:00 AM 20.24 68.432 0.331 7.47 36.44 7.9
8/31/2021 4:45:00 AM 20.22 68.396 0.332 7.48 30.63 7.86
8/31/2021 5:00:00 AM 20.17 68.306 0.331 7.48 34.31 7.93
8/31/2021 5:15:00 AM 20.11 68.198 0.33 7.48 33.36 8.01
8/31/2021 5:30:00 AM 20.07 68.126 0.33 7.48 34.31 7.79
8/31/2021 5:45:00 AM 20.03 68.054 0.33 7.48 35.17 8
8/31/2021 6:00:00 AM 19.99 67.982 0.329 7.48 33.18 8.02
8/31/2021 6:15:00 AM 19.95 67.91 0.329 7.48 46.66 7.91
8/31/2021 6:30:00 AM 19.92 67.856 0.329 7.48 36.36 7.96
8/31/2021 6:45:00 AM 19.89 67.802 0.328 7.47 37.02 7.71
8/31/2021 7:00:00 AM 19.85 67.73 0.327 7.48 36.27 8.03
8/31/2021 7:15:00 AM 19.81 67.658 0.326 7.48 36.2 8.01
8/31/2021 7:30:00 AM 19.79 67.622 0.326 7.47 37.22 8.03
8/31/2021 7:45:00 AM 19.76 67.568 0.325 7.48 38.59 8.04
8/31/2021 8:00:00 AM 19.75 67.55 0.324 7.47 38.34 8.04
8/31/2021 8:15:00 AM 19.73 67.514 0.324 7.46 37.2 8.07
8/31/2021 8:30:00 AM 19.73 67.514 0.323 7.47 36.29 8.14
8/31/2021 8:45:00 AM 19.72 67.496 0.323 7.47 35.98 8.06
8/31/2021 9:00:00 AM 19.73 67.514 0.322 7.48 36.22 8.18
8/31/2021 9:15:00 AM 19.74 67.532 0.321 7.46 39.91 8.05
8/31/2021 9:30:00 AM 19.76 67.568 0.32 7.48 34.52 8.14
8/31/2021 9:45:00 AM 19.78 67.604 0.32 7.49 29.47 8.32
8/31/2021 10:00:00 AM 19.81 67.658 0.319 7.5 37.95 8.34
8/31/2021 10:15:00 AM 19.85 67.73 0.318 7.49 27.89 8.42
8/31/2021 10:30:00 AM 19.89 67.802 0.317 7.5 28.87 8.41
8/31/2021 10:45:00 AM 19.93 67.874 0.317 7.5 28.73 8.52
8/31/2021 11:00:00 AM 19.97 67.946 0.317 7.51 28.18 8.44
8/31/2021 11:15:00 AM 20.03 68.054 0.316 7.52 99.86 8.61
8/31/2021 11:30:00 AM 20.08 68.144 0.316 7.52 26.95 8.62
8/31/2021 11:45:00 AM 20.15 68.27 0.314 7.51 29.08 8.7
8/31/2021 12:00:00 PM 20.22 68.396 0.314 7.52 68.87 8.76
8/31/2021 12:15:00 PM 20.37 68.666 0.314 7.55 25.92 8.83
8/31/2021 12:30:00 PM 20.51 68.918 0.313 7.51 26.49 8.72
8/31/2021 12:45:00 PM 20.65 69.17 0.313 7.54 25.56 8.87
8/31/2021 1:00:00 PM 20.73 69.314 0.312 7.59 130.72 8.95
8/31/2021 1:15:00 PM 20.8 69.44 0.312 7.59 23.91 8.95
8/31/2021 1:30:00 PM 20.81 69.458 0.311 7.58 23.47 8.88
8/31/2021 1:45:00 PM 20.89 69.602 0.311 7.59 23.77 8.92
8/31/2021 2:00:00 PM 20.93 69.674 0.311 7.61 25.08 8.89
8/31/2021 2:15:00 PM 21.09 69.962 0.31 7.61 44.96 8.92
8/31/2021 2:30:00 PM 21.17 70.106 0.31 7.63 22.98 8.96
8/31/2021 2:45:00 PM 21.16 70.088 0.31 7.63 22.95 8.96
8/31/2021 3:00:00 PM 21.21 70.17799 0.309 7.63 22.41 8.86
8/31/2021 3:15:00 PM 21.35 70.43 0.309 7.65 123.85 8.94
8/31/2021 3:30:00 PM 21.57 70.826 0.309 7.65 22.49 8.89
8/31/2021 3:45:00 PM 21.49 70.682 0.308 7.67 31.37 8.89
8/31/2021 4:00:00 PM 21.42 70.556 0.308 7.67 22.27 8.74
8/31/2021 4:15:00 PM 21.47 70.646 0.308 7.66 24.54 8.78
8/31/2021 4:30:00 PM 21.48 70.664 0.308 7.66 22.4 8.64
8/31/2021 4:45:00 PM 21.46 70.628 0.307 7.65 22.48 8.6
8/31/2021 5:00:00 PM 21.39 70.502 0.307 7.62 22.65 8.37
8/31/2021 5:15:00 PM 21.31 70.358 0.307 7.61 22.82 8.18
8/31/2021 5:30:00 PM 21.24 70.232 0.307 7.6 23.03 8.03
8/31/2021 5:45:00 PM 21.21 70.17799 0.307 7.61 23.73 8.25
8/31/2021 6:00:00 PM 21.17 70.106 0.307 7.6 23.01 8.26
8/31/2021 6:15:00 PM 21.12 70.016 0.307 7.6 86.57 8.24
8/31/2021 6:30:00 PM 21.07 69.926 0.307 7.58 73.73 8.15
8/31/2021 6:45:00 PM 21.03 69.854 0.307 7.58 23.35 8.1
8/31/2021 7:00:00 PM 21 69.8 0.306 7.56 22.57 8.05
8/31/2021 7:15:00 PM 20.96 69.728 0.306 7.55 21.67 7.6
8/31/2021 7:30:00 PM 20.93 69.674 0.306 7.54 23.02 7.98
8/31/2021 7:45:00 PM 20.88 69.584 0.306 7.54 22.41 7.98
8/31/2021 8:00:00 PM 20.84 69.512 0.306 7.54 23.49 7.98
8/31/2021 8:15:00 PM 20.78 69.404 0.306 7.52 23.93 7.88
8/31/2021 8:30:00 PM 20.75 69.35 0.306 7.52 22.91 7.9
8/31/2021 8:45:00 PM 20.7 69.26 0.306 7.51 26.11 7.71
8/31/2021 9:00:00 PM 20.66 69.188 0.306 7.52 22.39 7.69
8/31/2021 9:15:00 PM 20.61 69.098 0.306 7.5 22.58 7.91
8/31/2021 9:30:00 PM 20.58 69.044 0.306 7.5 22.5 7.91
8/31/2021 9:45:00 PM 20.53 68.954 0.306 7.49 23.1 7.87
8/31/2021 10:00:00 PM 20.5 68.9 0.306 7.5 22.22 7.85
8/31/2021 10:15:00 PM 20.46 68.828 0.306 7.5 28.18 7.94
8/31/2021 10:30:00 PM 20.41 68.738 0.305 7.48 23.4 7.78
8/31/2021 10:45:00 PM 20.38 68.684 0.306 7.49 22.16 7.9
8/31/2021 11:00:00 PM 20.35 68.63 0.307 7.49 22.08 7.93
8/31/2021 11:15:00 PM 20.3 68.54 0.306 7.48 21.68 7.83
8/31/2021 11:30:00 PM 20.26 68.468 0.306 7.49 21.98 7.98
8/31/2021 11:45:00 PM 20.24 68.432 0.307 7.48 21.94 7.9
9/1/2021 12:00:00 AM 20.2 68.36 0.307 7.48 21.57 7.93
9/1/2021 12:15:00 AM 20.18 68.324 0.307 7.47 22.27 7.89
9/1/2021 12:30:00 AM 20.15 68.27 0.307 7.47 21.59 7.98
9/1/2021 12:45:00 AM 20.13 68.234 0.307 7.47 21.91 7.95
9/1/2021 1:00:00 AM 20.1 68.18 0.307 7.47 21.15 7.95
9/1/2021 1:15:00 AM 20.07 68.126 0.307 7.47 21.6 7.95
9/1/2021 1:30:00 AM 20.05 68.09 0.307 7.47 21.66 8.02
9/1/2021 1:45:00 AM 20.03 68.054 0.307 7.45 22.34 7.91
9/1/2021 2:00:00 AM 20 68 0.307 7.45 21.85 7.95
9/1/2021 2:15:00 AM 19.99 67.982 0.307 7.46 22.65 7.98
9/1/2021 2:30:00 AM 19.97 67.946 0.306 7.47 21.71 8.01
9/1/2021 2:45:00 AM 19.94 67.892 0.306 7.46 21.34 7.95
9/1/2021 3:00:00 AM 19.92 67.856 0.305 7.45 25.58 7.96
9/1/2021 3:15:00 AM 19.9 67.82 0.305 7.45 74.56 7.97
9/1/2021 3:30:00 AM 19.88 67.784 0.305 7.45 20.83 7.97
9/1/2021 3:45:00 AM 19.87 67.766 0.305 7.44 23.05 7.95
9/1/2021 4:00:00 AM 19.85 67.73 0.304 7.44 20.68 7.98
9/1/2021 4:15:00 AM 19.83 67.694 0.304 7.42 22.1 7.96
9/1/2021 4:30:00 AM 19.8 67.64 0.303 7.42 22.55 7.94
9/1/2021 4:45:00 AM 19.79 67.622 0.303 7.43 21.67 7.92
9/1/2021 5:00:00 AM 19.76 67.568 0.302 7.43 21.85 8.06
9/1/2021 5:15:00 AM 19.74 67.532 0.302 7.43 60.1 8.05
9/1/2021 5:30:00 AM 19.72 67.496 0.302 7.44 33.66 7.99
9/1/2021 5:45:00 AM 19.67 67.406 0.301 7.43 24.74 7.99
9/1/2021 6:00:00 AM 19.65 67.37 0.301 7.43 22.37 8.03
9/1/2021 6:15:00 AM 19.61 67.298 0.301 7.44 21.14 7.86
9/1/2021 6:30:00 AM 19.58 67.244 0.3 7.43 24.13 8.02
9/1/2021 6:45:00 AM 19.54 67.172 0.299 7.43 48.39 7.86
9/1/2021 7:00:00 AM 19.5 67.1 0.299 7.43 24 8.09
9/1/2021 7:15:00 AM 19.47 67.046 0.298 7.43 79.53 8.06
9/1/2021 7:30:00 AM 19.42 66.956 0.296 7.42 48.9 8.12
9/1/2021 7:45:00 AM 19.37 66.866 0.296 7.41 29.39 7.9
9/1/2021 8:00:00 AM 19.34 66.812 0.294 7.42 26.35 8.13
9/1/2021 8:15:00 AM 19.3 66.74 0.292 7.41 40.92 7.96
9/1/2021 8:30:00 AM 19.24 66.632 0.292 7.4 26.69 8.2
9/1/2021 8:45:00 AM 19.18 66.524 0.29 7.4 31.71 8.15
9/1/2021 9:00:00 AM 19.14 66.452 0.288 7.4 26.87 8.18
9/1/2021 9:15:00 AM 19.1 66.38 0.287 7.39 41.32 8.25
9/1/2021 9:30:00 AM 19.06 66.308 0.285 7.4 27.93 8.35
9/1/2021 9:45:00 AM 19.03 66.254 0.283 7.4 33.12 8.28
9/1/2021 10:00:00 AM 19.01 66.218 0.282 7.4 31.2 8.32
9/1/2021 10:15:00 AM 18.99 66.182 0.282 7.4 31.75 8.21
9/1/2021 10:30:00 AM 18.99 66.182 0.283 7.4 39.7 8.31
9/1/2021 10:45:00 AM 19 66.2 0.284 7.4 33.36 8.35
9/1/2021 11:00:00 AM 19.01 66.218 0.285 7.4 33.79 8.38
9/1/2021 11:15:00 AM 19.02 66.236 0.288 7.4 35.61 8.38
9/1/2021 11:30:00 AM 19.02 66.236 0.288 7.4 69.3 8.42
9/1/2021 11:45:00 AM 19.02 66.236 0.289 7.4 31.63 8.36
9/1/2021 12:00:00 PM 19.01 66.218 0.291 7.4 164.63 8.43
9/1/2021 12:15:00 PM 18.99 66.182 0.288 7.4 85.93 8.47
9/1/2021 12:30:00 PM 18.97 66.146 0.288 7.4 33.65 8.44
9/1/2021 12:45:00 PM 18.95 66.11 0.29 7.4 35.29 8.36
9/1/2021 1:00:00 PM 18.94 66.092 0.287 7.4 32.26 8.34
9/1/2021 1:15:00 PM 18.91 66.038 0.287 7.4 33.31 8.4
9/1/2021 1:30:00 PM 18.89 66.002 0.286 7.4 37.29 8.41
9/1/2021 1:45:00 PM 18.87 65.966 0.284 7.41 33.52 8.43
9/1/2021 2:00:00 PM 18.84 65.912 0.284 7.41 184.51 8.42
9/1/2021 2:15:00 PM 18.8 65.84 0.282 7.41 45.84 8.43
9/1/2021 2:30:00 PM 18.76 65.768 0.283 7.41 36.5 8.39
9/1/2021 2:45:00 PM 18.72 65.696 0.28 7.41 214.44 8.44
9/1/2021 3:00:00 PM 18.68 65.624 0.279 7.42 39.43 8.45
9/1/2021 3:15:00 PM 18.63 65.534 0.275 7.42 40.39 8.41
9/1/2021 3:30:00 PM 18.6 65.48 0.274 7.42 245.13 8.46
9/1/2021 3:45:00 PM 18.56 65.408 0.272 7.42 41.02 8.49
9/1/2021 4:00:00 PM 18.52 65.336 0.268 7.42 40.8 8.45
9/1/2021 4:15:00 PM 18.5 65.3 0.267 7.42 42.3 8.48
9/1/2021 4:30:00 PM 18.49 65.282 0.265 7.42 46.52 8.47
9/1/2021 4:45:00 PM 18.48 65.264 0.265 7.42 45.37 8.48
9/1/2021 5:00:00 PM 18.48 65.264 0.265 7.42 55.64 8.48
9/1/2021 5:15:00 PM 18.49 65.282 0.263 7.42 62.16 8.47
9/1/2021 5:30:00 PM 18.5 65.3 0.262 7.42 48.67 8.47
9/1/2021 5:45:00 PM 18.49 65.282 0.261 7.41 51.93 8.46
9/1/2021 6:00:00 PM 18.49 65.282 0.26 7.41 56.61 8.43
9/1/2021 6:15:00 PM 18.47 65.246 0.258 7.41 56.85 8.43
9/1/2021 6:30:00 PM 18.47 65.246 0.255 7.42 55.63 8.42
9/1/2021 6:45:00 PM 18.46 65.228 0.253 7.42 64.48 8.42
9/1/2021 7:00:00 PM 18.46 65.228 0.252 7.42 70.69 8.42
9/1/2021 7:15:00 PM 18.45 65.21 0.253 7.42 63.33 8.42
9/1/2021 7:30:00 PM 18.43 65.174 0.256 7.43 75.81 8.42
9/1/2021 7:45:00 PM 18.41 65.138 0.259 7.43 67.51 8.4
9/1/2021 8:00:00 PM 18.37 65.066 0.262 7.43 66.47 8.41
9/1/2021 8:15:00 PM 18.33 64.994 0.264 7.44 64.26 8.42
9/1/2021 8:30:00 PM 18.29 64.922 0.265 7.44 63.46 8.41
9/1/2021 8:45:00 PM 18.26 64.868 0.264 7.45 64.62 8.4
9/1/2021 9:00:00 PM 18.22 64.796 0.262 7.45 61.41 8.42
9/1/2021 9:15:00 PM 18.18 64.724 0.26 7.45 64.38 8.43
9/1/2021 9:30:00 PM 18.14 64.652 0.256 7.45 61.93 8.45
9/1/2021 9:45:00 PM 18.09 64.562 0.251 7.45 65.29 8.44
9/1/2021 10:00:00 PM 18.04 64.472 0.247 7.45 59.32 8.44
9/1/2021 10:15:00 PM 17.98 64.364 0.242 7.45 62 8.48
9/1/2021 10:30:00 PM 17.93 64.274 0.237 7.45 61.03 8.47
9/1/2021 10:45:00 PM 17.88 64.184 0.233 7.44 57.12 8.48
9/1/2021 11:00:00 PM 17.82 64.076 0.228 7.43 61.28 8.5
9/1/2021 11:15:00 PM 17.76 63.968 0.224 7.43 59.11 8.52
9/1/2021 11:30:00 PM 17.71 63.878 0.22 7.43 57.22 8.53
9/1/2021 11:45:00 PM 17.65 63.77 0.214 7.42 60.99 8.55
9/2/2021 12:00:00 AM 17.61 63.698 0.21 7.41 60.91 8.54
9/2/2021 12:15:00 AM 17.55 63.59 0.212 7.41 62.34 8.57
9/2/2021 12:30:00 AM 17.51 63.518 0.211 7.41 65.69 8.55
9/2/2021 12:45:00 AM 17.47 63.446 0.21 7.4 57.95 8.57
9/2/2021 1:00:00 AM 17.42 63.356 0.209 7.4 60.72 8.57
9/2/2021 1:15:00 AM 17.38 63.284 0.207 7.4 61.85 8.59
9/2/2021 1:30:00 AM 17.34 63.212 0.209 7.39 60.49 8.59
9/2/2021 1:45:00 AM 17.29 63.122 0.205 7.39 62.05 8.59
9/2/2021 2:00:00 AM 17.24 63.032 0.203 7.39 61.19 8.61
9/2/2021 2:15:00 AM 17.19 62.942 0.208 7.38 58.98 8.63
9/2/2021 2:30:00 AM 17.14 62.852 0.207 7.38 58.28 8.62
9/2/2021 2:45:00 AM 17.1 62.78 0.206 7.38 54.64 8.64
9/2/2021 3:00:00 AM 17.04 62.672 0.203 7.38 58.26 8.65
9/2/2021 3:15:00 AM 16.98 62.564 0.201 7.38 57.52 8.69
9/2/2021 3:30:00 AM 16.94 62.492 0.199 7.37 55.86 8.68
9/2/2021 3:45:00 AM 16.88 62.384 0.196 7.37 54.33 8.7
9/2/2021 4:00:00 AM 16.83 62.294 0.194 7.37 55.23 8.7
9/2/2021 4:15:00 AM 16.78 62.204 0.192 7.36 53.07 8.72
9/2/2021 4:30:00 AM 16.72 62.096 0.19 7.36 54.45 8.73
9/2/2021 4:45:00 AM 16.67 62.006 0.189 7.36 55.72 8.73
9/2/2021 5:00:00 AM 16.61 61.898 0.187 7.35 49.71 8.75
9/2/2021 5:15:00 AM 16.55 61.79 0.186 7.35 50.37 8.76
9/2/2021 5:30:00 AM 16.5 61.7 0.185 7.34 51.86 8.77
9/2/2021 5:45:00 AM 16.43 61.574 0.184 7.34 50.25 8.78
9/2/2021 6:00:00 AM 16.39 61.502 0.184 7.34 48.24 8.78
9/2/2021 6:15:00 AM 16.33 61.394 0.183 7.33 46.85 8.81
9/2/2021 6:30:00 AM 16.28 61.304 0.183 7.33 46.3 8.82
9/2/2021 6:45:00 AM 16.22 61.196 0.183 7.33 44.89 8.81
9/2/2021 7:00:00 AM 16.16 61.088 0.183 7.33 42.64 8.87
9/2/2021 7:15:00 AM 16.11 60.998 0.183 7.32 44.28 8.87
9/2/2021 7:30:00 AM 16.06 60.908 0.183 7.32 45.3 8.83
9/2/2021 7:45:00 AM 16.02 60.836 0.183 7.32 42.61 8.74
9/2/2021 8:00:00 AM 15.96 60.728 0.183 7.32 42.39 8.86
9/2/2021 8:15:00 AM 15.92 60.656 0.183 7.32 41.34 8.95
9/2/2021 8:30:00 AM 15.88 60.584 0.184 7.32 41.53 8.91
9/2/2021 8:45:00 AM 15.84 60.512 0.184 7.32 41.02 8.97
9/2/2021 9:00:00 AM 15.81 60.458 0.185 7.32 39.47 8.98
9/2/2021 9:15:00 AM 15.79 60.422 0.185 7.32 39.88 9
9/2/2021 9:30:00 AM 15.76 60.368